<?xml version="1.0" encoding="UTF-8" standalone="no" ?>
<gpx xmlns="http://www.topografix.com/GPX/1/1" xmlns:xsi="http://www.w3.org/2001/XMLSchema-instance" xsi:schemaLocation="http://www.topografix.com/GPX/1/1 http://www.topografix.com/GPX/1/1/gpx.xsd" version="1.1" creator="VisuGPX - https://www.visugpx.com">
  <metadata>
    <name>GT VTT de l\'Ardèche</name>
    <desc><![CDATA[200kms en 4j
niveau facile
parfois de bonnes descentes
paysages     ]]></desc>
  </metadata>
  <trk>
    <name><![CDATA[12-JUIL-14 19:14:57]]></name>
    <trkseg>
      <trkpt lat="44.85118" lon="4.18898">
        <ele>1364</ele>
        <time>2014-07-12T07:21:40Z</time>
      </trkpt>
      <trkpt lat="44.85117" lon="4.18896">
        <ele>1364</ele>
        <time>2014-07-12T07:21:52Z</time>
      </trkpt>
      <trkpt lat="44.85092" lon="4.18953">
        <ele>1359</ele>
        <time>2014-07-12T07:22:13Z</time>
      </trkpt>
      <trkpt lat="44.85088" lon="4.1896">
        <ele>1359</ele>
        <time>2014-07-12T07:22:37Z</time>
      </trkpt>
      <trkpt lat="44.85034" lon="4.18942">
        <ele>1356</ele>
        <time>2014-07-12T07:22:54Z</time>
      </trkpt>
      <trkpt lat="44.84896" lon="4.18889">
        <ele>1352</ele>
        <time>2014-07-12T07:23:27Z</time>
      </trkpt>
      <trkpt lat="44.84753" lon="4.18847">
        <ele>1349</ele>
        <time>2014-07-12T07:23:54Z</time>
      </trkpt>
      <trkpt lat="44.84696" lon="4.18845">
        <ele>1347</ele>
        <time>2014-07-12T07:24:05Z</time>
      </trkpt>
      <trkpt lat="44.84651" lon="4.1885">
        <ele>1346</ele>
        <time>2014-07-12T07:24:13Z</time>
      </trkpt>
      <trkpt lat="44.84628" lon="4.18857">
        <ele>1345</ele>
        <time>2014-07-12T07:24:18Z</time>
      </trkpt>
      <trkpt lat="44.84542" lon="4.18883">
        <ele>1344</ele>
        <time>2014-07-12T07:24:33Z</time>
      </trkpt>
      <trkpt lat="44.8444" lon="4.18918">
        <ele>1340</ele>
        <time>2014-07-12T07:24:49Z</time>
      </trkpt>
      <trkpt lat="44.8431" lon="4.19016">
        <ele>1332</ele>
        <time>2014-07-12T07:25:14Z</time>
      </trkpt>
      <trkpt lat="44.84305" lon="4.19018">
        <ele>1332</ele>
        <time>2014-07-12T07:25:15Z</time>
      </trkpt>
      <trkpt lat="44.84294" lon="4.19021">
        <ele>1332</ele>
        <time>2014-07-12T07:25:17Z</time>
      </trkpt>
      <trkpt lat="44.84277" lon="4.19023">
        <ele>1333</ele>
        <time>2014-07-12T07:25:20Z</time>
      </trkpt>
      <trkpt lat="44.84249" lon="4.19061">
        <ele>1335</ele>
        <time>2014-07-12T07:25:27Z</time>
      </trkpt>
      <trkpt lat="44.84245" lon="4.19077">
        <ele>1332</ele>
        <time>2014-07-12T07:25:29Z</time>
      </trkpt>
      <trkpt lat="44.8423" lon="4.19183">
        <ele>1327</ele>
        <time>2014-07-12T07:25:41Z</time>
      </trkpt>
      <trkpt lat="44.84211" lon="4.19263">
        <ele>1323</ele>
        <time>2014-07-12T07:25:50Z</time>
      </trkpt>
      <trkpt lat="44.84203" lon="4.19278">
        <ele>1323</ele>
        <time>2014-07-12T07:25:52Z</time>
      </trkpt>
      <trkpt lat="44.84159" lon="4.19341">
        <ele>1321</ele>
        <time>2014-07-12T07:26:01Z</time>
      </trkpt>
      <trkpt lat="44.84153" lon="4.19345">
        <ele>1321</ele>
        <time>2014-07-12T07:26:02Z</time>
      </trkpt>
      <trkpt lat="44.84136" lon="4.19357">
        <ele>1320</ele>
        <time>2014-07-12T07:26:05Z</time>
      </trkpt>
      <trkpt lat="44.84088" lon="4.1943">
        <ele>1315</ele>
        <time>2014-07-12T07:26:17Z</time>
      </trkpt>
      <trkpt lat="44.84043" lon="4.19503">
        <ele>1312</ele>
        <time>2014-07-12T07:26:27Z</time>
      </trkpt>
      <trkpt lat="44.84" lon="4.19544">
        <ele>1311</ele>
        <time>2014-07-12T07:26:34Z</time>
      </trkpt>
      <trkpt lat="44.8397" lon="4.19567">
        <ele>1310</ele>
        <time>2014-07-12T07:26:39Z</time>
      </trkpt>
      <trkpt lat="44.83925" lon="4.19566">
        <ele>1309</ele>
        <time>2014-07-12T07:26:45Z</time>
      </trkpt>
      <trkpt lat="44.83909" lon="4.19558">
        <ele>1309</ele>
        <time>2014-07-12T07:26:47Z</time>
      </trkpt>
      <trkpt lat="44.83876" lon="4.19565">
        <ele>1309</ele>
        <time>2014-07-12T07:26:51Z</time>
      </trkpt>
      <trkpt lat="44.83818" lon="4.19564">
        <ele>1308</ele>
        <time>2014-07-12T07:26:58Z</time>
      </trkpt>
      <trkpt lat="44.83787" lon="4.19598">
        <ele>1300</ele>
        <time>2014-07-12T07:27:03Z</time>
      </trkpt>
      <trkpt lat="44.83776" lon="4.19616">
        <ele>1299</ele>
        <time>2014-07-12T07:27:05Z</time>
      </trkpt>
      <trkpt lat="44.83705" lon="4.19688">
        <ele>1290</ele>
        <time>2014-07-12T07:27:15Z</time>
      </trkpt>
      <trkpt lat="44.83677" lon="4.19706">
        <ele>1289</ele>
        <time>2014-07-12T07:27:18Z</time>
      </trkpt>
      <trkpt lat="44.83613" lon="4.19733">
        <ele>1286</ele>
        <time>2014-07-12T07:27:24Z</time>
      </trkpt>
      <trkpt lat="44.83572" lon="4.19761">
        <ele>1278</ele>
        <time>2014-07-12T07:27:28Z</time>
      </trkpt>
      <trkpt lat="44.83507" lon="4.19767">
        <ele>1276</ele>
        <time>2014-07-12T07:27:34Z</time>
      </trkpt>
      <trkpt lat="44.83453" lon="4.19735">
        <ele>1276</ele>
        <time>2014-07-12T07:27:40Z</time>
      </trkpt>
      <trkpt lat="44.83445" lon="4.19729">
        <ele>1276</ele>
        <time>2014-07-12T07:27:41Z</time>
      </trkpt>
      <trkpt lat="44.83406" lon="4.19726">
        <ele>1269</ele>
        <time>2014-07-12T07:27:45Z</time>
      </trkpt>
      <trkpt lat="44.83395" lon="4.19729">
        <ele>1269</ele>
        <time>2014-07-12T07:27:46Z</time>
      </trkpt>
      <trkpt lat="44.83363" lon="4.19729">
        <ele>1267</ele>
        <time>2014-07-12T07:27:49Z</time>
      </trkpt>
      <trkpt lat="44.83307" lon="4.19741">
        <ele>1259</ele>
        <time>2014-07-12T07:27:54Z</time>
      </trkpt>
      <trkpt lat="44.83298" lon="4.19748">
        <ele>1258</ele>
        <time>2014-07-12T07:27:55Z</time>
      </trkpt>
      <trkpt lat="44.83289" lon="4.19754">
        <ele>1254</ele>
        <time>2014-07-12T07:27:56Z</time>
      </trkpt>
      <trkpt lat="44.83255" lon="4.1975">
        <ele>1251</ele>
        <time>2014-07-12T07:28:00Z</time>
      </trkpt>
      <trkpt lat="44.83228" lon="4.19739">
        <ele>1251</ele>
        <time>2014-07-12T07:28:03Z</time>
      </trkpt>
      <trkpt lat="44.83193" lon="4.19741">
        <ele>1250</ele>
        <time>2014-07-12T07:28:07Z</time>
      </trkpt>
      <trkpt lat="44.83177" lon="4.19744">
        <ele>1249</ele>
        <time>2014-07-12T07:28:09Z</time>
      </trkpt>
      <trkpt lat="44.83145" lon="4.19734">
        <ele>1246</ele>
        <time>2014-07-12T07:28:13Z</time>
      </trkpt>
      <trkpt lat="44.83139" lon="4.19729">
        <ele>1246</ele>
        <time>2014-07-12T07:28:14Z</time>
      </trkpt>
      <trkpt lat="44.83134" lon="4.19725">
        <ele>1246</ele>
        <time>2014-07-12T07:28:15Z</time>
      </trkpt>
      <trkpt lat="44.83132" lon="4.19739">
        <ele>1246</ele>
        <time>2014-07-12T07:28:20Z</time>
      </trkpt>
      <trkpt lat="44.83137" lon="4.19745">
        <ele>1246</ele>
        <time>2014-07-12T07:28:22Z</time>
      </trkpt>
      <trkpt lat="44.83148" lon="4.19757">
        <ele>1247</ele>
        <time>2014-07-12T07:28:26Z</time>
      </trkpt>
      <trkpt lat="44.83168" lon="4.19874">
        <ele>1248</ele>
        <time>2014-07-12T07:28:52Z</time>
      </trkpt>
      <trkpt lat="44.83203" lon="4.19922">
        <ele>1250</ele>
        <time>2014-07-12T07:29:07Z</time>
      </trkpt>
      <trkpt lat="44.83255" lon="4.19916">
        <ele>1252</ele>
        <time>2014-07-12T07:29:21Z</time>
      </trkpt>
      <trkpt lat="44.83282" lon="4.19922">
        <ele>1256</ele>
        <time>2014-07-12T07:29:34Z</time>
      </trkpt>
      <trkpt lat="44.83361" lon="4.1995">
        <ele>1262</ele>
        <time>2014-07-12T07:30:05Z</time>
      </trkpt>
      <trkpt lat="44.83427" lon="4.19967">
        <ele>1265</ele>
        <time>2014-07-12T07:30:31Z</time>
      </trkpt>
      <trkpt lat="44.83429" lon="4.19968">
        <ele>1265</ele>
        <time>2014-07-12T07:30:32Z</time>
      </trkpt>
      <trkpt lat="44.835" lon="4.19983">
        <ele>1268</ele>
        <time>2014-07-12T07:31:03Z</time>
      </trkpt>
      <trkpt lat="44.83567" lon="4.2">
        <ele>1272</ele>
        <time>2014-07-12T07:31:32Z</time>
      </trkpt>
      <trkpt lat="44.83605" lon="4.20012">
        <ele>1278</ele>
        <time>2014-07-12T07:31:48Z</time>
      </trkpt>
      <trkpt lat="44.83633" lon="4.20086">
        <ele>1284</ele>
        <time>2014-07-12T07:32:16Z</time>
      </trkpt>
      <trkpt lat="44.8363" lon="4.20141">
        <ele>1285</ele>
        <time>2014-07-12T07:32:32Z</time>
      </trkpt>
      <trkpt lat="44.83621" lon="4.20199">
        <ele>1288</ele>
        <time>2014-07-12T07:32:49Z</time>
      </trkpt>
      <trkpt lat="44.83612" lon="4.20293">
        <ele>1291</ele>
        <time>2014-07-12T07:33:16Z</time>
      </trkpt>
      <trkpt lat="44.83616" lon="4.2036">
        <ele>1293</ele>
        <time>2014-07-12T07:33:35Z</time>
      </trkpt>
      <trkpt lat="44.83636" lon="4.2041">
        <ele>1294</ele>
        <time>2014-07-12T07:33:52Z</time>
      </trkpt>
      <trkpt lat="44.83652" lon="4.20446">
        <ele>1297</ele>
        <time>2014-07-12T07:34:07Z</time>
      </trkpt>
      <trkpt lat="44.83671" lon="4.20489">
        <ele>1302</ele>
        <time>2014-07-12T07:34:23Z</time>
      </trkpt>
      <trkpt lat="44.83691" lon="4.20589">
        <ele>1309</ele>
        <time>2014-07-12T07:34:55Z</time>
      </trkpt>
      <trkpt lat="44.83697" lon="4.20707">
        <ele>1316</ele>
        <time>2014-07-12T07:35:31Z</time>
      </trkpt>
      <trkpt lat="44.83698" lon="4.2079">
        <ele>1320</ele>
        <time>2014-07-12T07:35:55Z</time>
      </trkpt>
      <trkpt lat="44.83703" lon="4.20834">
        <ele>1320</ele>
        <time>2014-07-12T07:36:09Z</time>
      </trkpt>
      <trkpt lat="44.8373" lon="4.20857">
        <ele>1322</ele>
        <time>2014-07-12T07:36:24Z</time>
      </trkpt>
      <trkpt lat="44.83768" lon="4.20887">
        <ele>1329</ele>
        <time>2014-07-12T07:36:43Z</time>
      </trkpt>
      <trkpt lat="44.83828" lon="4.20917">
        <ele>1333</ele>
        <time>2014-07-12T07:37:14Z</time>
      </trkpt>
      <trkpt lat="44.83891" lon="4.20932">
        <ele>1340</ele>
        <time>2014-07-12T07:37:43Z</time>
      </trkpt>
      <trkpt lat="44.83927" lon="4.20946">
        <ele>1347</ele>
        <time>2014-07-12T07:38:00Z</time>
      </trkpt>
      <trkpt lat="44.83984" lon="4.20981">
        <ele>1349</ele>
        <time>2014-07-12T07:38:29Z</time>
      </trkpt>
      <trkpt lat="44.84043" lon="4.21053">
        <ele>1355</ele>
        <time>2014-07-12T07:39:05Z</time>
      </trkpt>
      <trkpt lat="44.84054" lon="4.21099">
        <ele>1356</ele>
        <time>2014-07-12T07:39:22Z</time>
      </trkpt>
      <trkpt lat="44.84049" lon="4.21061">
        <ele>1356</ele>
        <time>2014-07-12T07:39:33Z</time>
      </trkpt>
      <trkpt lat="44.84047" lon="4.21055">
        <ele>1356</ele>
        <time>2014-07-12T07:39:34Z</time>
      </trkpt>
      <trkpt lat="44.83984" lon="4.2098">
        <ele>1349</ele>
        <time>2014-07-12T07:39:46Z</time>
      </trkpt>
      <trkpt lat="44.83977" lon="4.20973">
        <ele>1349</ele>
        <time>2014-07-12T07:39:47Z</time>
      </trkpt>
      <trkpt lat="44.83954" lon="4.20954">
        <ele>1348</ele>
        <time>2014-07-12T07:39:50Z</time>
      </trkpt>
      <trkpt lat="44.83915" lon="4.20937">
        <ele>1341</ele>
        <time>2014-07-12T07:39:54Z</time>
      </trkpt>
      <trkpt lat="44.8386" lon="4.20919">
        <ele>1337</ele>
        <time>2014-07-12T07:39:59Z</time>
      </trkpt>
      <trkpt lat="44.83824" lon="4.20912">
        <ele>1333</ele>
        <time>2014-07-12T07:40:02Z</time>
      </trkpt>
      <trkpt lat="44.83791" lon="4.209">
        <ele>1330</ele>
        <time>2014-07-12T07:40:05Z</time>
      </trkpt>
      <trkpt lat="44.8377" lon="4.20884">
        <ele>1329</ele>
        <time>2014-07-12T07:40:07Z</time>
      </trkpt>
      <trkpt lat="44.8373" lon="4.20853">
        <ele>1322</ele>
        <time>2014-07-12T07:40:11Z</time>
      </trkpt>
      <trkpt lat="44.83712" lon="4.2084">
        <ele>1321</ele>
        <time>2014-07-12T07:40:13Z</time>
      </trkpt>
      <trkpt lat="44.837" lon="4.20799">
        <ele>1321</ele>
        <time>2014-07-12T07:40:17Z</time>
      </trkpt>
      <trkpt lat="44.83701" lon="4.20787">
        <ele>1320</ele>
        <time>2014-07-12T07:40:18Z</time>
      </trkpt>
      <trkpt lat="44.837" lon="4.20721">
        <ele>1317</ele>
        <time>2014-07-12T07:40:23Z</time>
      </trkpt>
      <trkpt lat="44.83699" lon="4.20679">
        <ele>1315</ele>
        <time>2014-07-12T07:40:26Z</time>
      </trkpt>
      <trkpt lat="44.83695" lon="4.20575">
        <ele>1307</ele>
        <time>2014-07-12T07:40:33Z</time>
      </trkpt>
      <trkpt lat="44.83689" lon="4.20537">
        <ele>1306</ele>
        <time>2014-07-12T07:40:36Z</time>
      </trkpt>
      <trkpt lat="44.83677" lon="4.20492">
        <ele>1302</ele>
        <time>2014-07-12T07:40:43Z</time>
      </trkpt>
      <trkpt lat="44.83677" lon="4.20504">
        <ele>1303</ele>
        <time>2014-07-12T07:40:48Z</time>
      </trkpt>
      <trkpt lat="44.83689" lon="4.20557">
        <ele>1307</ele>
        <time>2014-07-12T07:41:00Z</time>
      </trkpt>
      <trkpt lat="44.83693" lon="4.20615">
        <ele>1310</ele>
        <time>2014-07-12T07:41:15Z</time>
      </trkpt>
      <trkpt lat="44.83698" lon="4.20731">
        <ele>1317</ele>
        <time>2014-07-12T07:41:45Z</time>
      </trkpt>
      <trkpt lat="44.83709" lon="4.20842">
        <ele>1320</ele>
        <time>2014-07-12T07:42:14Z</time>
      </trkpt>
      <trkpt lat="44.83747" lon="4.20869">
        <ele>1322</ele>
        <time>2014-07-12T07:42:29Z</time>
      </trkpt>
      <trkpt lat="44.83815" lon="4.20915">
        <ele>1332</ele>
        <time>2014-07-12T07:42:54Z</time>
      </trkpt>
      <trkpt lat="44.83853" lon="4.20923">
        <ele>1336</ele>
        <time>2014-07-12T07:43:07Z</time>
      </trkpt>
      <trkpt lat="44.83894" lon="4.20934">
        <ele>1340</ele>
        <time>2014-07-12T07:43:21Z</time>
      </trkpt>
      <trkpt lat="44.83965" lon="4.20968">
        <ele>1348</ele>
        <time>2014-07-12T07:43:46Z</time>
      </trkpt>
      <trkpt lat="44.8404" lon="4.21049">
        <ele>1355</ele>
        <time>2014-07-12T07:44:19Z</time>
      </trkpt>
      <trkpt lat="44.84048" lon="4.21184">
        <ele>1358</ele>
        <time>2014-07-12T07:44:53Z</time>
      </trkpt>
      <trkpt lat="44.84043" lon="4.21262">
        <ele>1362</ele>
        <time>2014-07-12T07:45:09Z</time>
      </trkpt>
      <trkpt lat="44.84054" lon="4.21328">
        <ele>1365</ele>
        <time>2014-07-12T07:45:23Z</time>
      </trkpt>
      <trkpt lat="44.8405" lon="4.21423">
        <ele>1373</ele>
        <time>2014-07-12T07:45:45Z</time>
      </trkpt>
      <trkpt lat="44.84061" lon="4.21528">
        <ele>1379</ele>
        <time>2014-07-12T07:46:11Z</time>
      </trkpt>
      <trkpt lat="44.84057" lon="4.21583">
        <ele>1383</ele>
        <time>2014-07-12T07:46:24Z</time>
      </trkpt>
      <trkpt lat="44.84054" lon="4.21659">
        <ele>1384</ele>
        <time>2014-07-12T07:46:42Z</time>
      </trkpt>
      <trkpt lat="44.84051" lon="4.21792">
        <ele>1391</ele>
        <time>2014-07-12T07:47:12Z</time>
      </trkpt>
      <trkpt lat="44.84058" lon="4.21901">
        <ele>1394</ele>
        <time>2014-07-12T07:47:38Z</time>
      </trkpt>
      <trkpt lat="44.8408" lon="4.22005">
        <ele>1399</ele>
        <time>2014-07-12T07:48:04Z</time>
      </trkpt>
      <trkpt lat="44.84088" lon="4.22126">
        <ele>1411</ele>
        <time>2014-07-12T07:48:31Z</time>
      </trkpt>
      <trkpt lat="44.8409" lon="4.22186">
        <ele>1412</ele>
        <time>2014-07-12T07:48:44Z</time>
      </trkpt>
      <trkpt lat="44.84103" lon="4.22233">
        <ele>1414</ele>
        <time>2014-07-12T07:48:56Z</time>
      </trkpt>
      <trkpt lat="44.84114" lon="4.22253">
        <ele>1414</ele>
        <time>2014-07-12T07:49:19Z</time>
      </trkpt>
      <trkpt lat="44.84113" lon="4.22252">
        <ele>1414</ele>
        <time>2014-07-12T07:51:02Z</time>
      </trkpt>
      <trkpt lat="44.84115" lon="4.2225">
        <ele>1414</ele>
        <time>2014-07-12T07:53:22Z</time>
      </trkpt>
      <trkpt lat="44.84103" lon="4.22333">
        <ele>1414</ele>
        <time>2014-07-12T07:54:23Z</time>
      </trkpt>
      <trkpt lat="44.84088" lon="4.22408">
        <ele>1413</ele>
        <time>2014-07-12T07:54:40Z</time>
      </trkpt>
      <trkpt lat="44.84048" lon="4.22484">
        <ele>1414</ele>
        <time>2014-07-12T07:54:58Z</time>
      </trkpt>
      <trkpt lat="44.84004" lon="4.22567">
        <ele>1417</ele>
        <time>2014-07-12T07:55:15Z</time>
      </trkpt>
      <trkpt lat="44.83959" lon="4.22646">
        <ele>1415</ele>
        <time>2014-07-12T07:55:28Z</time>
      </trkpt>
      <trkpt lat="44.83954" lon="4.22651">
        <ele>1415</ele>
        <time>2014-07-12T07:55:29Z</time>
      </trkpt>
      <trkpt lat="44.83826" lon="4.22676">
        <ele>1412</ele>
        <time>2014-07-12T07:55:49Z</time>
      </trkpt>
      <trkpt lat="44.83742" lon="4.22666">
        <ele>1410</ele>
        <time>2014-07-12T07:56:02Z</time>
      </trkpt>
      <trkpt lat="44.83654" lon="4.22653">
        <ele>1414</ele>
        <time>2014-07-12T07:56:20Z</time>
      </trkpt>
      <trkpt lat="44.83543" lon="4.22639">
        <ele>1420</ele>
        <time>2014-07-12T07:56:48Z</time>
      </trkpt>
      <trkpt lat="44.83499" lon="4.22631">
        <ele>1429</ele>
        <time>2014-07-12T07:57:01Z</time>
      </trkpt>
      <trkpt lat="44.83412" lon="4.22567">
        <ele>1433</ele>
        <time>2014-07-12T07:57:31Z</time>
      </trkpt>
      <trkpt lat="44.83346" lon="4.22538">
        <ele>1434</ele>
        <time>2014-07-12T07:58:02Z</time>
      </trkpt>
      <trkpt lat="44.83263" lon="4.22548">
        <ele>1441</ele>
        <time>2014-07-12T07:58:35Z</time>
      </trkpt>
      <trkpt lat="44.83225" lon="4.22557">
        <ele>1444</ele>
        <time>2014-07-12T07:58:50Z</time>
      </trkpt>
      <trkpt lat="44.83116" lon="4.2259">
        <ele>1450</ele>
        <time>2014-07-12T07:59:27Z</time>
      </trkpt>
      <trkpt lat="44.83003" lon="4.22664">
        <ele>1451</ele>
        <time>2014-07-12T08:00:03Z</time>
      </trkpt>
      <trkpt lat="44.82844" lon="4.22787">
        <ele>1447</ele>
        <time>2014-07-12T08:00:37Z</time>
      </trkpt>
      <trkpt lat="44.82771" lon="4.22842">
        <ele>1444</ele>
        <time>2014-07-12T08:00:48Z</time>
      </trkpt>
      <trkpt lat="44.82694" lon="4.22876">
        <ele>1440</ele>
        <time>2014-07-12T08:00:57Z</time>
      </trkpt>
      <trkpt lat="44.82633" lon="4.22893">
        <ele>1436</ele>
        <time>2014-07-12T08:01:03Z</time>
      </trkpt>
      <trkpt lat="44.82506" lon="4.22926">
        <ele>1431</ele>
        <time>2014-07-12T08:01:14Z</time>
      </trkpt>
      <trkpt lat="44.82438" lon="4.22947">
        <ele>1428</ele>
        <time>2014-07-12T08:01:21Z</time>
      </trkpt>
      <trkpt lat="44.82428" lon="4.22936">
        <ele>1428</ele>
        <time>2014-07-12T08:01:26Z</time>
      </trkpt>
      <trkpt lat="44.82386" lon="4.22854">
        <ele>1428</ele>
        <time>2014-07-12T08:01:57Z</time>
      </trkpt>
      <trkpt lat="44.82352" lon="4.22834">
        <ele>1428</ele>
        <time>2014-07-12T08:02:10Z</time>
      </trkpt>
      <trkpt lat="44.82282" lon="4.22793">
        <ele>1430</ele>
        <time>2014-07-12T08:02:45Z</time>
      </trkpt>
      <trkpt lat="44.82198" lon="4.22753">
        <ele>1432</ele>
        <time>2014-07-12T08:03:27Z</time>
      </trkpt>
      <trkpt lat="44.82136" lon="4.22731">
        <ele>1438</ele>
        <time>2014-07-12T08:03:55Z</time>
      </trkpt>
      <trkpt lat="44.82095" lon="4.22722">
        <ele>1438</ele>
        <time>2014-07-12T08:04:28Z</time>
      </trkpt>
      <trkpt lat="44.82042" lon="4.22704">
        <ele>1440</ele>
        <time>2014-07-12T08:05:18Z</time>
      </trkpt>
      <trkpt lat="44.81949" lon="4.22679">
        <ele>1441</ele>
        <time>2014-07-12T08:05:58Z</time>
      </trkpt>
      <trkpt lat="44.81843" lon="4.22628">
        <ele>1443</ele>
        <time>2014-07-12T08:06:42Z</time>
      </trkpt>
      <trkpt lat="44.81773" lon="4.22607">
        <ele>1439</ele>
        <time>2014-07-12T08:07:02Z</time>
      </trkpt>
      <trkpt lat="44.81741" lon="4.22598">
        <ele>1436</ele>
        <time>2014-07-12T08:07:10Z</time>
      </trkpt>
      <trkpt lat="44.81681" lon="4.22562">
        <ele>1438</ele>
        <time>2014-07-12T08:07:27Z</time>
      </trkpt>
      <trkpt lat="44.81594" lon="4.22463">
        <ele>1438</ele>
        <time>2014-07-12T08:08:08Z</time>
      </trkpt>
      <trkpt lat="44.81556" lon="4.2242">
        <ele>1430</ele>
        <time>2014-07-12T08:08:20Z</time>
      </trkpt>
      <trkpt lat="44.81524" lon="4.2238">
        <ele>1434</ele>
        <time>2014-07-12T08:08:30Z</time>
      </trkpt>
      <trkpt lat="44.81504" lon="4.2237">
        <ele>1434</ele>
        <time>2014-07-12T08:09:03Z</time>
      </trkpt>
      <trkpt lat="44.81505" lon="4.22365">
        <ele>1434</ele>
        <time>2014-07-12T08:11:27Z</time>
      </trkpt>
      <trkpt lat="44.81505" lon="4.22366">
        <ele>1434</ele>
        <time>2014-07-12T08:12:29Z</time>
      </trkpt>
      <trkpt lat="44.8147" lon="4.22367">
        <ele>1425</ele>
        <time>2014-07-12T08:12:41Z</time>
      </trkpt>
      <trkpt lat="44.81444" lon="4.2236">
        <ele>1423</ele>
        <time>2014-07-12T08:12:47Z</time>
      </trkpt>
      <trkpt lat="44.8142" lon="4.22353">
        <ele>1423</ele>
        <time>2014-07-12T08:12:53Z</time>
      </trkpt>
      <trkpt lat="44.81398" lon="4.22346">
        <ele>1416</ele>
        <time>2014-07-12T08:13:00Z</time>
      </trkpt>
      <trkpt lat="44.81385" lon="4.22339">
        <ele>1415</ele>
        <time>2014-07-12T08:13:04Z</time>
      </trkpt>
      <trkpt lat="44.81341" lon="4.22318">
        <ele>1413</ele>
        <time>2014-07-12T08:13:12Z</time>
      </trkpt>
      <trkpt lat="44.81318" lon="4.22306">
        <ele>1406</ele>
        <time>2014-07-12T08:13:19Z</time>
      </trkpt>
      <trkpt lat="44.81294" lon="4.22298">
        <ele>1404</ele>
        <time>2014-07-12T08:13:27Z</time>
      </trkpt>
      <trkpt lat="44.8127" lon="4.223">
        <ele>1402</ele>
        <time>2014-07-12T08:13:36Z</time>
      </trkpt>
      <trkpt lat="44.81231" lon="4.22298">
        <ele>1391</ele>
        <time>2014-07-12T08:13:45Z</time>
      </trkpt>
      <trkpt lat="44.81215" lon="4.22296">
        <ele>1389</ele>
        <time>2014-07-12T08:13:49Z</time>
      </trkpt>
      <trkpt lat="44.81204" lon="4.223">
        <ele>1388</ele>
        <time>2014-07-12T08:13:54Z</time>
      </trkpt>
      <trkpt lat="44.81185" lon="4.22307">
        <ele>1385</ele>
        <time>2014-07-12T08:14:04Z</time>
      </trkpt>
      <trkpt lat="44.81176" lon="4.22312">
        <ele>1384</ele>
        <time>2014-07-12T08:14:08Z</time>
      </trkpt>
      <trkpt lat="44.8115" lon="4.22315">
        <ele>1374</ele>
        <time>2014-07-12T08:14:24Z</time>
      </trkpt>
      <trkpt lat="44.81136" lon="4.22309">
        <ele>1373</ele>
        <time>2014-07-12T08:14:39Z</time>
      </trkpt>
      <trkpt lat="44.8113" lon="4.22319">
        <ele>1372</ele>
        <time>2014-07-12T08:15:22Z</time>
      </trkpt>
      <trkpt lat="44.8113" lon="4.22318">
        <ele>1372</ele>
        <time>2014-07-12T08:17:36Z</time>
      </trkpt>
      <trkpt lat="44.81107" lon="4.22326">
        <ele>1369</ele>
        <time>2014-07-12T08:17:45Z</time>
      </trkpt>
      <trkpt lat="44.81088" lon="4.2234">
        <ele>1363</ele>
        <time>2014-07-12T08:17:59Z</time>
      </trkpt>
      <trkpt lat="44.81062" lon="4.22356">
        <ele>1356</ele>
        <time>2014-07-12T08:18:07Z</time>
      </trkpt>
      <trkpt lat="44.81059" lon="4.22372">
        <ele>1355</ele>
        <time>2014-07-12T08:18:11Z</time>
      </trkpt>
      <trkpt lat="44.81059" lon="4.22375">
        <ele>1355</ele>
        <time>2014-07-12T08:18:12Z</time>
      </trkpt>
      <trkpt lat="44.81056" lon="4.22386">
        <ele>1354</ele>
        <time>2014-07-12T08:18:45Z</time>
      </trkpt>
      <trkpt lat="44.81054" lon="4.22386">
        <ele>1354</ele>
        <time>2014-07-12T08:18:50Z</time>
      </trkpt>
      <trkpt lat="44.81035" lon="4.22404">
        <ele>1352</ele>
        <time>2014-07-12T08:18:57Z</time>
      </trkpt>
      <trkpt lat="44.81032" lon="4.22417">
        <ele>1347</ele>
        <time>2014-07-12T08:18:59Z</time>
      </trkpt>
      <trkpt lat="44.81031" lon="4.22422">
        <ele>1347</ele>
        <time>2014-07-12T08:19:00Z</time>
      </trkpt>
      <trkpt lat="44.81018" lon="4.22454">
        <ele>1345</ele>
        <time>2014-07-12T08:19:05Z</time>
      </trkpt>
      <trkpt lat="44.81008" lon="4.22477">
        <ele>1342</ele>
        <time>2014-07-12T08:19:10Z</time>
      </trkpt>
      <trkpt lat="44.80992" lon="4.22492">
        <ele>1336</ele>
        <time>2014-07-12T08:19:13Z</time>
      </trkpt>
      <trkpt lat="44.80985" lon="4.22497">
        <ele>1336</ele>
        <time>2014-07-12T08:19:14Z</time>
      </trkpt>
      <trkpt lat="44.80976" lon="4.2252">
        <ele>1330</ele>
        <time>2014-07-12T08:19:17Z</time>
      </trkpt>
      <trkpt lat="44.80969" lon="4.22554">
        <ele>1328</ele>
        <time>2014-07-12T08:19:20Z</time>
      </trkpt>
      <trkpt lat="44.80947" lon="4.22577">
        <ele>1325</ele>
        <time>2014-07-12T08:19:24Z</time>
      </trkpt>
      <trkpt lat="44.80921" lon="4.22589">
        <ele>1319</ele>
        <time>2014-07-12T08:19:28Z</time>
      </trkpt>
      <trkpt lat="44.80905" lon="4.22605">
        <ele>1313</ele>
        <time>2014-07-12T08:19:33Z</time>
      </trkpt>
      <trkpt lat="44.80882" lon="4.22609">
        <ele>1312</ele>
        <time>2014-07-12T08:19:42Z</time>
      </trkpt>
      <trkpt lat="44.80869" lon="4.22623">
        <ele>1311</ele>
        <time>2014-07-12T08:19:45Z</time>
      </trkpt>
      <trkpt lat="44.80844" lon="4.2264">
        <ele>1309</ele>
        <time>2014-07-12T08:19:49Z</time>
      </trkpt>
      <trkpt lat="44.80813" lon="4.22663">
        <ele>1303</ele>
        <time>2014-07-12T08:19:53Z</time>
      </trkpt>
      <trkpt lat="44.80779" lon="4.22686">
        <ele>1299</ele>
        <time>2014-07-12T08:19:57Z</time>
      </trkpt>
      <trkpt lat="44.80749" lon="4.22706">
        <ele>1293</ele>
        <time>2014-07-12T08:20:01Z</time>
      </trkpt>
      <trkpt lat="44.80727" lon="4.22708">
        <ele>1292</ele>
        <time>2014-07-12T08:20:06Z</time>
      </trkpt>
      <trkpt lat="44.80691" lon="4.22728">
        <ele>1289</ele>
        <time>2014-07-12T08:20:14Z</time>
      </trkpt>
      <trkpt lat="44.80661" lon="4.2274">
        <ele>1283</ele>
        <time>2014-07-12T08:20:19Z</time>
      </trkpt>
      <trkpt lat="44.80616" lon="4.22753">
        <ele>1279</ele>
        <time>2014-07-12T08:20:25Z</time>
      </trkpt>
      <trkpt lat="44.80587" lon="4.22768">
        <ele>1277</ele>
        <time>2014-07-12T08:20:29Z</time>
      </trkpt>
      <trkpt lat="44.80543" lon="4.2277">
        <ele>1272</ele>
        <time>2014-07-12T08:20:44Z</time>
      </trkpt>
      <trkpt lat="44.80538" lon="4.2277">
        <ele>1272</ele>
        <time>2014-07-12T08:20:56Z</time>
      </trkpt>
      <trkpt lat="44.8049" lon="4.22769">
        <ele>1266</ele>
        <time>2014-07-12T08:21:34Z</time>
      </trkpt>
      <trkpt lat="44.80449" lon="4.22757">
        <ele>1264</ele>
        <time>2014-07-12T08:21:54Z</time>
      </trkpt>
      <trkpt lat="44.80395" lon="4.2274">
        <ele>1262</ele>
        <time>2014-07-12T08:22:17Z</time>
      </trkpt>
      <trkpt lat="44.80362" lon="4.22735">
        <ele>1261</ele>
        <time>2014-07-12T08:22:59Z</time>
      </trkpt>
      <trkpt lat="44.80271" lon="4.22715">
        <ele>1259</ele>
        <time>2014-07-12T08:23:29Z</time>
      </trkpt>
      <trkpt lat="44.8024" lon="4.22709">
        <ele>1257</ele>
        <time>2014-07-12T08:23:37Z</time>
      </trkpt>
      <trkpt lat="44.8021" lon="4.227">
        <ele>1256</ele>
        <time>2014-07-12T08:23:42Z</time>
      </trkpt>
      <trkpt lat="44.80188" lon="4.22694">
        <ele>1255</ele>
        <time>2014-07-12T08:23:45Z</time>
      </trkpt>
      <trkpt lat="44.80101" lon="4.22656">
        <ele>1251</ele>
        <time>2014-07-12T08:24:01Z</time>
      </trkpt>
      <trkpt lat="44.80047" lon="4.22661">
        <ele>1247</ele>
        <time>2014-07-12T08:24:10Z</time>
      </trkpt>
      <trkpt lat="44.80033" lon="4.22663">
        <ele>1246</ele>
        <time>2014-07-12T08:24:12Z</time>
      </trkpt>
      <trkpt lat="44.80018" lon="4.22658">
        <ele>1245</ele>
        <time>2014-07-12T08:24:16Z</time>
      </trkpt>
      <trkpt lat="44.79959" lon="4.2257">
        <ele>1242</ele>
        <time>2014-07-12T08:24:39Z</time>
      </trkpt>
      <trkpt lat="44.79936" lon="4.22515">
        <ele>1242</ele>
        <time>2014-07-12T08:24:53Z</time>
      </trkpt>
      <trkpt lat="44.79904" lon="4.22444">
        <ele>1239</ele>
        <time>2014-07-12T08:25:08Z</time>
      </trkpt>
      <trkpt lat="44.79797" lon="4.22308">
        <ele>1239</ele>
        <time>2014-07-12T08:25:40Z</time>
      </trkpt>
      <trkpt lat="44.79745" lon="4.22259">
        <ele>1239</ele>
        <time>2014-07-12T08:25:55Z</time>
      </trkpt>
      <trkpt lat="44.79665" lon="4.22227">
        <ele>1234</ele>
        <time>2014-07-12T08:26:19Z</time>
      </trkpt>
      <trkpt lat="44.7965" lon="4.22202">
        <ele>1234</ele>
        <time>2014-07-12T08:26:26Z</time>
      </trkpt>
      <trkpt lat="44.79643" lon="4.22192">
        <ele>1234</ele>
        <time>2014-07-12T08:26:28Z</time>
      </trkpt>
      <trkpt lat="44.7964" lon="4.22189">
        <ele>1234</ele>
        <time>2014-07-12T08:26:29Z</time>
      </trkpt>
      <trkpt lat="44.79611" lon="4.22145">
        <ele>1236</ele>
        <time>2014-07-12T08:26:48Z</time>
      </trkpt>
      <trkpt lat="44.79607" lon="4.22146">
        <ele>1236</ele>
        <time>2014-07-12T08:26:56Z</time>
      </trkpt>
      <trkpt lat="44.79595" lon="4.2214">
        <ele>1236</ele>
        <time>2014-07-12T08:27:15Z</time>
      </trkpt>
      <trkpt lat="44.79587" lon="4.22125">
        <ele>1237</ele>
        <time>2014-07-12T08:27:38Z</time>
      </trkpt>
      <trkpt lat="44.79574" lon="4.22111">
        <ele>1242</ele>
        <time>2014-07-12T08:28:00Z</time>
      </trkpt>
      <trkpt lat="44.79572" lon="4.2211">
        <ele>1242</ele>
        <time>2014-07-12T08:28:02Z</time>
      </trkpt>
      <trkpt lat="44.7956" lon="4.22102">
        <ele>1242</ele>
        <time>2014-07-12T08:28:18Z</time>
      </trkpt>
      <trkpt lat="44.7954" lon="4.22093">
        <ele>1244</ele>
        <time>2014-07-12T08:28:40Z</time>
      </trkpt>
      <trkpt lat="44.79532" lon="4.22089">
        <ele>1245</ele>
        <time>2014-07-12T08:29:41Z</time>
      </trkpt>
      <trkpt lat="44.79481" lon="4.22067">
        <ele>1252</ele>
        <time>2014-07-12T08:30:08Z</time>
      </trkpt>
      <trkpt lat="44.79445" lon="4.22048">
        <ele>1253</ele>
        <time>2014-07-12T08:30:19Z</time>
      </trkpt>
      <trkpt lat="44.79382" lon="4.22006">
        <ele>1257</ele>
        <time>2014-07-12T08:30:44Z</time>
      </trkpt>
      <trkpt lat="44.79357" lon="4.22003">
        <ele>1257</ele>
        <time>2014-07-12T08:30:53Z</time>
      </trkpt>
      <trkpt lat="44.79325" lon="4.22022">
        <ele>1257</ele>
        <time>2014-07-12T08:31:04Z</time>
      </trkpt>
      <trkpt lat="44.79292" lon="4.22004">
        <ele>1256</ele>
        <time>2014-07-12T08:31:17Z</time>
      </trkpt>
      <trkpt lat="44.7929" lon="4.22003">
        <ele>1256</ele>
        <time>2014-07-12T08:31:47Z</time>
      </trkpt>
      <trkpt lat="44.79261" lon="4.21987">
        <ele>1253</ele>
        <time>2014-07-12T08:32:26Z</time>
      </trkpt>
      <trkpt lat="44.79229" lon="4.21958">
        <ele>1249</ele>
        <time>2014-07-12T08:32:32Z</time>
      </trkpt>
      <trkpt lat="44.79211" lon="4.21946">
        <ele>1248</ele>
        <time>2014-07-12T08:32:36Z</time>
      </trkpt>
      <trkpt lat="44.7919" lon="4.21933">
        <ele>1247</ele>
        <time>2014-07-12T08:32:41Z</time>
      </trkpt>
      <trkpt lat="44.79177" lon="4.21912">
        <ele>1245</ele>
        <time>2014-07-12T08:32:45Z</time>
      </trkpt>
      <trkpt lat="44.79167" lon="4.21912">
        <ele>1245</ele>
        <time>2014-07-12T08:32:49Z</time>
      </trkpt>
      <trkpt lat="44.79118" lon="4.21976">
        <ele>1246</ele>
        <time>2014-07-12T08:33:10Z</time>
      </trkpt>
      <trkpt lat="44.7909" lon="4.22008">
        <ele>1247</ele>
        <time>2014-07-12T08:33:24Z</time>
      </trkpt>
      <trkpt lat="44.79071" lon="4.2204">
        <ele>1247</ele>
        <time>2014-07-12T08:33:36Z</time>
      </trkpt>
      <trkpt lat="44.79032" lon="4.22042">
        <ele>1248</ele>
        <time>2014-07-12T08:33:56Z</time>
      </trkpt>
      <trkpt lat="44.78995" lon="4.22049">
        <ele>1248</ele>
        <time>2014-07-12T08:34:11Z</time>
      </trkpt>
      <trkpt lat="44.78941" lon="4.22056">
        <ele>1249</ele>
        <time>2014-07-12T08:34:52Z</time>
      </trkpt>
      <trkpt lat="44.78935" lon="4.22056">
        <ele>1249</ele>
        <time>2014-07-12T08:37:00Z</time>
      </trkpt>
      <trkpt lat="44.78942" lon="4.22063">
        <ele>1249</ele>
        <time>2014-07-12T08:39:03Z</time>
      </trkpt>
      <trkpt lat="44.78893" lon="4.22053">
        <ele>1247</ele>
        <time>2014-07-12T08:40:35Z</time>
      </trkpt>
      <trkpt lat="44.78818" lon="4.22012">
        <ele>1243</ele>
        <time>2014-07-12T08:40:52Z</time>
      </trkpt>
      <trkpt lat="44.7875" lon="4.21925">
        <ele>1245</ele>
        <time>2014-07-12T08:41:25Z</time>
      </trkpt>
      <trkpt lat="44.78674" lon="4.21891">
        <ele>1247</ele>
        <time>2014-07-12T08:41:53Z</time>
      </trkpt>
      <trkpt lat="44.78627" lon="4.21887">
        <ele>1249</ele>
        <time>2014-07-12T08:42:19Z</time>
      </trkpt>
      <trkpt lat="44.78639" lon="4.21918">
        <ele>1247</ele>
        <time>2014-07-12T08:42:38Z</time>
      </trkpt>
      <trkpt lat="44.78651" lon="4.21925">
        <ele>1247</ele>
        <time>2014-07-12T08:42:41Z</time>
      </trkpt>
      <trkpt lat="44.7868" lon="4.21942">
        <ele>1245</ele>
        <time>2014-07-12T08:42:47Z</time>
      </trkpt>
      <trkpt lat="44.78684" lon="4.21944">
        <ele>1245</ele>
        <time>2014-07-12T08:42:48Z</time>
      </trkpt>
      <trkpt lat="44.78705" lon="4.21978">
        <ele>1244</ele>
        <time>2014-07-12T08:42:56Z</time>
      </trkpt>
      <trkpt lat="44.78711" lon="4.21989">
        <ele>1244</ele>
        <time>2014-07-12T08:42:58Z</time>
      </trkpt>
      <trkpt lat="44.78731" lon="4.22018">
        <ele>1241</ele>
        <time>2014-07-12T08:43:03Z</time>
      </trkpt>
      <trkpt lat="44.78735" lon="4.22024">
        <ele>1240</ele>
        <time>2014-07-12T08:43:04Z</time>
      </trkpt>
      <trkpt lat="44.78784" lon="4.22115">
        <ele>1238</ele>
        <time>2014-07-12T08:43:24Z</time>
      </trkpt>
      <trkpt lat="44.78814" lon="4.22168">
        <ele>1234</ele>
        <time>2014-07-12T08:43:47Z</time>
      </trkpt>
      <trkpt lat="44.78834" lon="4.22204">
        <ele>1236</ele>
        <time>2014-07-12T08:43:59Z</time>
      </trkpt>
      <trkpt lat="44.78861" lon="4.22228">
        <ele>1234</ele>
        <time>2014-07-12T08:44:05Z</time>
      </trkpt>
      <trkpt lat="44.78876" lon="4.22238">
        <ele>1234</ele>
        <time>2014-07-12T08:44:08Z</time>
      </trkpt>
      <trkpt lat="44.78892" lon="4.22252">
        <ele>1225</ele>
        <time>2014-07-12T08:44:11Z</time>
      </trkpt>
      <trkpt lat="44.78913" lon="4.22269">
        <ele>1225</ele>
        <time>2014-07-12T08:44:15Z</time>
      </trkpt>
      <trkpt lat="44.78966" lon="4.22309">
        <ele>1224</ele>
        <time>2014-07-12T08:44:26Z</time>
      </trkpt>
      <trkpt lat="44.7898" lon="4.2232">
        <ele>1224</ele>
        <time>2014-07-12T08:44:29Z</time>
      </trkpt>
      <trkpt lat="44.79012" lon="4.22412">
        <ele>1220</ele>
        <time>2014-07-12T08:44:47Z</time>
      </trkpt>
      <trkpt lat="44.78982" lon="4.22455">
        <ele>1220</ele>
        <time>2014-07-12T08:45:06Z</time>
      </trkpt>
      <trkpt lat="44.78978" lon="4.22497">
        <ele>1223</ele>
        <time>2014-07-12T08:45:23Z</time>
      </trkpt>
      <trkpt lat="44.7899" lon="4.22513">
        <ele>1227</ele>
        <time>2014-07-12T08:45:33Z</time>
      </trkpt>
      <trkpt lat="44.79007" lon="4.22523">
        <ele>1231</ele>
        <time>2014-07-12T08:45:56Z</time>
      </trkpt>
      <trkpt lat="44.79001" lon="4.22528">
        <ele>1231</ele>
        <time>2014-07-12T08:46:50Z</time>
      </trkpt>
      <trkpt lat="44.78999" lon="4.2253">
        <ele>1227</ele>
        <time>2014-07-12T08:47:09Z</time>
      </trkpt>
      <trkpt lat="44.78992" lon="4.22572">
        <ele>1229</ele>
        <time>2014-07-12T08:47:20Z</time>
      </trkpt>
      <trkpt lat="44.79006" lon="4.22655">
        <ele>1232</ele>
        <time>2014-07-12T08:47:33Z</time>
      </trkpt>
      <trkpt lat="44.79006" lon="4.22661">
        <ele>1231</ele>
        <time>2014-07-12T08:47:34Z</time>
      </trkpt>
      <trkpt lat="44.79009" lon="4.22706">
        <ele>1233</ele>
        <time>2014-07-12T08:47:40Z</time>
      </trkpt>
      <trkpt lat="44.78997" lon="4.22762">
        <ele>1228</ele>
        <time>2014-07-12T08:47:46Z</time>
      </trkpt>
      <trkpt lat="44.78962" lon="4.22842">
        <ele>1226</ele>
        <time>2014-07-12T08:47:58Z</time>
      </trkpt>
      <trkpt lat="44.78929" lon="4.2282">
        <ele>1226</ele>
        <time>2014-07-12T08:48:07Z</time>
      </trkpt>
      <trkpt lat="44.78928" lon="4.22817">
        <ele>1226</ele>
        <time>2014-07-12T08:48:08Z</time>
      </trkpt>
      <trkpt lat="44.78958" lon="4.22846">
        <ele>1226</ele>
        <time>2014-07-12T08:48:23Z</time>
      </trkpt>
      <trkpt lat="44.78948" lon="4.22862">
        <ele>1226</ele>
        <time>2014-07-12T08:48:31Z</time>
      </trkpt>
      <trkpt lat="44.7891" lon="4.22891">
        <ele>1229</ele>
        <time>2014-07-12T08:48:50Z</time>
      </trkpt>
      <trkpt lat="44.78875" lon="4.22899">
        <ele>1232</ele>
        <time>2014-07-12T08:49:05Z</time>
      </trkpt>
      <trkpt lat="44.78849" lon="4.22936">
        <ele>1232</ele>
        <time>2014-07-12T08:49:27Z</time>
      </trkpt>
      <trkpt lat="44.78833" lon="4.2295">
        <ele>1238</ele>
        <time>2014-07-12T08:49:58Z</time>
      </trkpt>
      <trkpt lat="44.7881" lon="4.22961">
        <ele>1239</ele>
        <time>2014-07-12T08:50:26Z</time>
      </trkpt>
      <trkpt lat="44.78795" lon="4.22964">
        <ele>1239</ele>
        <time>2014-07-12T08:50:43Z</time>
      </trkpt>
      <trkpt lat="44.78763" lon="4.2299">
        <ele>1242</ele>
        <time>2014-07-12T08:51:22Z</time>
      </trkpt>
      <trkpt lat="44.78725" lon="4.22992">
        <ele>1246</ele>
        <time>2014-07-12T08:51:46Z</time>
      </trkpt>
      <trkpt lat="44.78695" lon="4.22977">
        <ele>1247</ele>
        <time>2014-07-12T08:52:00Z</time>
      </trkpt>
      <trkpt lat="44.78653" lon="4.22955">
        <ele>1249</ele>
        <time>2014-07-12T08:52:17Z</time>
      </trkpt>
      <trkpt lat="44.78607" lon="4.22963">
        <ele>1250</ele>
        <time>2014-07-12T08:52:37Z</time>
      </trkpt>
      <trkpt lat="44.78604" lon="4.22965">
        <ele>1250</ele>
        <time>2014-07-12T08:52:39Z</time>
      </trkpt>
      <trkpt lat="44.78544" lon="4.22967">
        <ele>1256</ele>
        <time>2014-07-12T08:53:17Z</time>
      </trkpt>
      <trkpt lat="44.7851" lon="4.2297">
        <ele>1258</ele>
        <time>2014-07-12T08:53:42Z</time>
      </trkpt>
      <trkpt lat="44.78511" lon="4.2297">
        <ele>1258</ele>
        <time>2014-07-12T08:53:45Z</time>
      </trkpt>
      <trkpt lat="44.78511" lon="4.2297">
        <ele>1258</ele>
        <time>2014-07-12T08:53:46Z</time>
      </trkpt>
      <trkpt lat="44.78508" lon="4.22966">
        <ele>1258</ele>
        <time>2014-07-12T08:53:54Z</time>
      </trkpt>
      <trkpt lat="44.78473" lon="4.22948">
        <ele>1266</ele>
        <time>2014-07-12T08:54:21Z</time>
      </trkpt>
      <trkpt lat="44.78431" lon="4.22951">
        <ele>1267</ele>
        <time>2014-07-12T08:54:46Z</time>
      </trkpt>
      <trkpt lat="44.7837" lon="4.2295">
        <ele>1273</ele>
        <time>2014-07-12T08:55:17Z</time>
      </trkpt>
      <trkpt lat="44.78356" lon="4.22953">
        <ele>1273</ele>
        <time>2014-07-12T08:55:23Z</time>
      </trkpt>
      <trkpt lat="44.78259" lon="4.22978">
        <ele>1278</ele>
        <time>2014-07-12T08:55:59Z</time>
      </trkpt>
      <trkpt lat="44.78201" lon="4.22993">
        <ele>1280</ele>
        <time>2014-07-12T08:56:25Z</time>
      </trkpt>
      <trkpt lat="44.78147" lon="4.2298">
        <ele>1281</ele>
        <time>2014-07-12T08:56:53Z</time>
      </trkpt>
      <trkpt lat="44.7807" lon="4.22992">
        <ele>1280</ele>
        <time>2014-07-12T08:57:25Z</time>
      </trkpt>
      <trkpt lat="44.78039" lon="4.23001">
        <ele>1283</ele>
        <time>2014-07-12T08:57:34Z</time>
      </trkpt>
      <trkpt lat="44.77988" lon="4.23026">
        <ele>1281</ele>
        <time>2014-07-12T08:57:47Z</time>
      </trkpt>
      <trkpt lat="44.77936" lon="4.23054">
        <ele>1281</ele>
        <time>2014-07-12T08:57:58Z</time>
      </trkpt>
      <trkpt lat="44.77849" lon="4.2308">
        <ele>1280</ele>
        <time>2014-07-12T08:58:20Z</time>
      </trkpt>
      <trkpt lat="44.7776" lon="4.23057">
        <ele>1280</ele>
        <time>2014-07-12T08:58:45Z</time>
      </trkpt>
      <trkpt lat="44.77701" lon="4.23014">
        <ele>1283</ele>
        <time>2014-07-12T08:59:07Z</time>
      </trkpt>
      <trkpt lat="44.77682" lon="4.22984">
        <ele>1285</ele>
        <time>2014-07-12T08:59:17Z</time>
      </trkpt>
      <trkpt lat="44.77646" lon="4.22915">
        <ele>1288</ele>
        <time>2014-07-12T08:59:46Z</time>
      </trkpt>
      <trkpt lat="44.77633" lon="4.22891">
        <ele>1288</ele>
        <time>2014-07-12T09:00:16Z</time>
      </trkpt>
      <trkpt lat="44.77634" lon="4.22891">
        <ele>1288</ele>
        <time>2014-07-12T09:02:48Z</time>
      </trkpt>
      <trkpt lat="44.77623" lon="4.22885">
        <ele>1288</ele>
        <time>2014-07-12T09:04:43Z</time>
      </trkpt>
      <trkpt lat="44.77614" lon="4.22873">
        <ele>1287</ele>
        <time>2014-07-12T09:04:47Z</time>
      </trkpt>
      <trkpt lat="44.77568" lon="4.22838">
        <ele>1281</ele>
        <time>2014-07-12T09:04:57Z</time>
      </trkpt>
      <trkpt lat="44.7754" lon="4.22831">
        <ele>1274</ele>
        <time>2014-07-12T09:05:02Z</time>
      </trkpt>
      <trkpt lat="44.77535" lon="4.22829">
        <ele>1274</ele>
        <time>2014-07-12T09:05:03Z</time>
      </trkpt>
      <trkpt lat="44.77515" lon="4.22834">
        <ele>1275</ele>
        <time>2014-07-12T09:05:07Z</time>
      </trkpt>
      <trkpt lat="44.77482" lon="4.22846">
        <ele>1270</ele>
        <time>2014-07-12T09:05:13Z</time>
      </trkpt>
      <trkpt lat="44.77437" lon="4.22836">
        <ele>1267</ele>
        <time>2014-07-12T09:05:20Z</time>
      </trkpt>
      <trkpt lat="44.77361" lon="4.2278">
        <ele>1264</ele>
        <time>2014-07-12T09:05:41Z</time>
      </trkpt>
      <trkpt lat="44.77348" lon="4.22764">
        <ele>1264</ele>
        <time>2014-07-12T09:05:58Z</time>
      </trkpt>
      <trkpt lat="44.77348" lon="4.22764">
        <ele>1264</ele>
        <time>2014-07-12T09:07:29Z</time>
      </trkpt>
      <trkpt lat="44.77318" lon="4.22707">
        <ele>1264</ele>
        <time>2014-07-12T09:09:04Z</time>
      </trkpt>
      <trkpt lat="44.77305" lon="4.22669">
        <ele>1264</ele>
        <time>2014-07-12T09:09:16Z</time>
      </trkpt>
      <trkpt lat="44.7725" lon="4.22607">
        <ele>1265</ele>
        <time>2014-07-12T09:09:42Z</time>
      </trkpt>
      <trkpt lat="44.7722" lon="4.22535">
        <ele>1267</ele>
        <time>2014-07-12T09:10:05Z</time>
      </trkpt>
      <trkpt lat="44.77225" lon="4.22496">
        <ele>1272</ele>
        <time>2014-07-12T09:10:17Z</time>
      </trkpt>
      <trkpt lat="44.77226" lon="4.22484">
        <ele>1272</ele>
        <time>2014-07-12T09:10:20Z</time>
      </trkpt>
      <trkpt lat="44.77234" lon="4.22423">
        <ele>1273</ele>
        <time>2014-07-12T09:10:38Z</time>
      </trkpt>
      <trkpt lat="44.77241" lon="4.22345">
        <ele>1278</ele>
        <time>2014-07-12T09:11:03Z</time>
      </trkpt>
      <trkpt lat="44.77243" lon="4.22307">
        <ele>1278</ele>
        <time>2014-07-12T09:11:20Z</time>
      </trkpt>
      <trkpt lat="44.77244" lon="4.22305">
        <ele>1278</ele>
        <time>2014-07-12T09:11:21Z</time>
      </trkpt>
      <trkpt lat="44.77246" lon="4.22232">
        <ele>1277</ele>
        <time>2014-07-12T09:11:44Z</time>
      </trkpt>
      <trkpt lat="44.77243" lon="4.22203">
        <ele>1276</ele>
        <time>2014-07-12T09:11:59Z</time>
      </trkpt>
      <trkpt lat="44.77236" lon="4.22136">
        <ele>1273</ele>
        <time>2014-07-12T09:12:21Z</time>
      </trkpt>
      <trkpt lat="44.77235" lon="4.22106">
        <ele>1271</ele>
        <time>2014-07-12T09:12:26Z</time>
      </trkpt>
      <trkpt lat="44.77235" lon="4.22034">
        <ele>1268</ele>
        <time>2014-07-12T09:12:37Z</time>
      </trkpt>
      <trkpt lat="44.77233" lon="4.22021">
        <ele>1268</ele>
        <time>2014-07-12T09:12:39Z</time>
      </trkpt>
      <trkpt lat="44.77235" lon="4.21864">
        <ele>1265</ele>
        <time>2014-07-12T09:13:05Z</time>
      </trkpt>
      <trkpt lat="44.77219" lon="4.21804">
        <ele>1262</ele>
        <time>2014-07-12T09:13:19Z</time>
      </trkpt>
      <trkpt lat="44.77212" lon="4.21778">
        <ele>1261</ele>
        <time>2014-07-12T09:13:24Z</time>
      </trkpt>
      <trkpt lat="44.7716" lon="4.21683">
        <ele>1258</ele>
        <time>2014-07-12T09:13:45Z</time>
      </trkpt>
      <trkpt lat="44.77156" lon="4.21668">
        <ele>1258</ele>
        <time>2014-07-12T09:13:48Z</time>
      </trkpt>
      <trkpt lat="44.77155" lon="4.21637">
        <ele>1258</ele>
        <time>2014-07-12T09:13:54Z</time>
      </trkpt>
      <trkpt lat="44.77133" lon="4.21565">
        <ele>1257</ele>
        <time>2014-07-12T09:14:09Z</time>
      </trkpt>
      <trkpt lat="44.77129" lon="4.21541">
        <ele>1257</ele>
        <time>2014-07-12T09:14:16Z</time>
      </trkpt>
      <trkpt lat="44.77129" lon="4.21539">
        <ele>1257</ele>
        <time>2014-07-12T09:14:25Z</time>
      </trkpt>
      <trkpt lat="44.7713" lon="4.21534">
        <ele>1257</ele>
        <time>2014-07-12T09:15:00Z</time>
      </trkpt>
      <trkpt lat="44.77074" lon="4.21473">
        <ele>1251</ele>
        <time>2014-07-12T09:15:15Z</time>
      </trkpt>
      <trkpt lat="44.77049" lon="4.21446">
        <ele>1249</ele>
        <time>2014-07-12T09:15:19Z</time>
      </trkpt>
      <trkpt lat="44.77007" lon="4.21436">
        <ele>1247</ele>
        <time>2014-07-12T09:15:24Z</time>
      </trkpt>
      <trkpt lat="44.76967" lon="4.21446">
        <ele>1242</ele>
        <time>2014-07-12T09:15:28Z</time>
      </trkpt>
      <trkpt lat="44.76937" lon="4.21466">
        <ele>1241</ele>
        <time>2014-07-12T09:15:31Z</time>
      </trkpt>
      <trkpt lat="44.7691" lon="4.21494">
        <ele>1238</ele>
        <time>2014-07-12T09:15:34Z</time>
      </trkpt>
      <trkpt lat="44.7687" lon="4.21513">
        <ele>1238</ele>
        <time>2014-07-12T09:15:38Z</time>
      </trkpt>
      <trkpt lat="44.76831" lon="4.2152">
        <ele>1235</ele>
        <time>2014-07-12T09:15:42Z</time>
      </trkpt>
      <trkpt lat="44.76821" lon="4.21519">
        <ele>1235</ele>
        <time>2014-07-12T09:15:43Z</time>
      </trkpt>
      <trkpt lat="44.76789" lon="4.21513">
        <ele>1236</ele>
        <time>2014-07-12T09:15:47Z</time>
      </trkpt>
      <trkpt lat="44.76771" lon="4.21503">
        <ele>1236</ele>
        <time>2014-07-12T09:15:52Z</time>
      </trkpt>
      <trkpt lat="44.76768" lon="4.21501">
        <ele>1236</ele>
        <time>2014-07-12T09:15:53Z</time>
      </trkpt>
      <trkpt lat="44.76714" lon="4.21451">
        <ele>1236</ele>
        <time>2014-07-12T09:16:12Z</time>
      </trkpt>
      <trkpt lat="44.76681" lon="4.21424">
        <ele>1238</ele>
        <time>2014-07-12T09:16:25Z</time>
      </trkpt>
      <trkpt lat="44.76607" lon="4.21357">
        <ele>1237</ele>
        <time>2014-07-12T09:16:52Z</time>
      </trkpt>
      <trkpt lat="44.76565" lon="4.2131">
        <ele>1233</ele>
        <time>2014-07-12T09:17:02Z</time>
      </trkpt>
      <trkpt lat="44.76561" lon="4.21303">
        <ele>1233</ele>
        <time>2014-07-12T09:17:03Z</time>
      </trkpt>
      <trkpt lat="44.76532" lon="4.21252">
        <ele>1232</ele>
        <time>2014-07-12T09:17:10Z</time>
      </trkpt>
      <trkpt lat="44.76526" lon="4.21239">
        <ele>1230</ele>
        <time>2014-07-12T09:17:12Z</time>
      </trkpt>
      <trkpt lat="44.76502" lon="4.21226">
        <ele>1230</ele>
        <time>2014-07-12T09:17:17Z</time>
      </trkpt>
      <trkpt lat="44.76482" lon="4.21182">
        <ele>1230</ele>
        <time>2014-07-12T09:17:26Z</time>
      </trkpt>
      <trkpt lat="44.76495" lon="4.21105">
        <ele>1235</ele>
        <time>2014-07-12T09:17:43Z</time>
      </trkpt>
      <trkpt lat="44.76542" lon="4.2101">
        <ele>1236</ele>
        <time>2014-07-12T09:18:10Z</time>
      </trkpt>
      <trkpt lat="44.76556" lon="4.20905">
        <ele>1241</ele>
        <time>2014-07-12T09:18:35Z</time>
      </trkpt>
      <trkpt lat="44.76555" lon="4.20829">
        <ele>1242</ele>
        <time>2014-07-12T09:18:50Z</time>
      </trkpt>
      <trkpt lat="44.7653" lon="4.20672">
        <ele>1245</ele>
        <time>2014-07-12T09:19:22Z</time>
      </trkpt>
      <trkpt lat="44.76524" lon="4.20596">
        <ele>1250</ele>
        <time>2014-07-12T09:19:41Z</time>
      </trkpt>
      <trkpt lat="44.76547" lon="4.20522">
        <ele>1255</ele>
        <time>2014-07-12T09:20:04Z</time>
      </trkpt>
      <trkpt lat="44.76538" lon="4.2045">
        <ele>1261</ele>
        <time>2014-07-12T09:20:25Z</time>
      </trkpt>
      <trkpt lat="44.765" lon="4.20378">
        <ele>1265</ele>
        <time>2014-07-12T09:20:55Z</time>
      </trkpt>
      <trkpt lat="44.76488" lon="4.20365">
        <ele>1269</ele>
        <time>2014-07-12T09:21:05Z</time>
      </trkpt>
      <trkpt lat="44.76487" lon="4.20363">
        <ele>1269</ele>
        <time>2014-07-12T09:21:06Z</time>
      </trkpt>
      <trkpt lat="44.7646" lon="4.20325">
        <ele>1276</ele>
        <time>2014-07-12T09:21:31Z</time>
      </trkpt>
      <trkpt lat="44.76447" lon="4.20306">
        <ele>1277</ele>
        <time>2014-07-12T09:21:42Z</time>
      </trkpt>
      <trkpt lat="44.76423" lon="4.20259">
        <ele>1281</ele>
        <time>2014-07-12T09:22:09Z</time>
      </trkpt>
      <trkpt lat="44.76381" lon="4.20169">
        <ele>1285</ele>
        <time>2014-07-12T09:22:45Z</time>
      </trkpt>
      <trkpt lat="44.76322" lon="4.20137">
        <ele>1289</ele>
        <time>2014-07-12T09:23:06Z</time>
      </trkpt>
      <trkpt lat="44.76269" lon="4.20148">
        <ele>1289</ele>
        <time>2014-07-12T09:23:21Z</time>
      </trkpt>
      <trkpt lat="44.76155" lon="4.20144">
        <ele>1290</ele>
        <time>2014-07-12T09:23:50Z</time>
      </trkpt>
      <trkpt lat="44.76089" lon="4.20115">
        <ele>1291</ele>
        <time>2014-07-12T09:24:13Z</time>
      </trkpt>
      <trkpt lat="44.75968" lon="4.20097">
        <ele>1287</ele>
        <time>2014-07-12T09:24:45Z</time>
      </trkpt>
      <trkpt lat="44.75856" lon="4.20124">
        <ele>1285</ele>
        <time>2014-07-12T09:25:11Z</time>
      </trkpt>
      <trkpt lat="44.75833" lon="4.2013">
        <ele>1286</ele>
        <time>2014-07-12T09:25:16Z</time>
      </trkpt>
      <trkpt lat="44.75755" lon="4.20143">
        <ele>1285</ele>
        <time>2014-07-12T09:25:33Z</time>
      </trkpt>
      <trkpt lat="44.75745" lon="4.20143">
        <ele>1283</ele>
        <time>2014-07-12T09:25:35Z</time>
      </trkpt>
      <trkpt lat="44.75699" lon="4.20097">
        <ele>1282</ele>
        <time>2014-07-12T09:25:49Z</time>
      </trkpt>
      <trkpt lat="44.75682" lon="4.20065">
        <ele>1283</ele>
        <time>2014-07-12T09:25:55Z</time>
      </trkpt>
      <trkpt lat="44.75657" lon="4.20031">
        <ele>1277</ele>
        <time>2014-07-12T09:26:02Z</time>
      </trkpt>
      <trkpt lat="44.75666" lon="4.19961">
        <ele>1277</ele>
        <time>2014-07-12T09:26:12Z</time>
      </trkpt>
      <trkpt lat="44.75662" lon="4.1985">
        <ele>1276</ele>
        <time>2014-07-12T09:26:31Z</time>
      </trkpt>
      <trkpt lat="44.75644" lon="4.19759">
        <ele>1274</ele>
        <time>2014-07-12T09:26:53Z</time>
      </trkpt>
      <trkpt lat="44.75612" lon="4.19592">
        <ele>1271</ele>
        <time>2014-07-12T09:27:23Z</time>
      </trkpt>
      <trkpt lat="44.75543" lon="4.19392">
        <ele>1274</ele>
        <time>2014-07-12T09:28:00Z</time>
      </trkpt>
      <trkpt lat="44.75526" lon="4.19272">
        <ele>1274</ele>
        <time>2014-07-12T09:28:18Z</time>
      </trkpt>
      <trkpt lat="44.75522" lon="4.19246">
        <ele>1272</ele>
        <time>2014-07-12T09:28:22Z</time>
      </trkpt>
      <trkpt lat="44.75514" lon="4.19195">
        <ele>1270</ele>
        <time>2014-07-12T09:28:28Z</time>
      </trkpt>
      <trkpt lat="44.75504" lon="4.19131">
        <ele>1263</ele>
        <time>2014-07-12T09:28:35Z</time>
      </trkpt>
      <trkpt lat="44.75494" lon="4.19083">
        <ele>1261</ele>
        <time>2014-07-12T09:28:40Z</time>
      </trkpt>
      <trkpt lat="44.75485" lon="4.19059">
        <ele>1259</ele>
        <time>2014-07-12T09:28:43Z</time>
      </trkpt>
      <trkpt lat="44.75474" lon="4.1903">
        <ele>1257</ele>
        <time>2014-07-12T09:28:47Z</time>
      </trkpt>
      <trkpt lat="44.75471" lon="4.19023">
        <ele>1257</ele>
        <time>2014-07-12T09:28:48Z</time>
      </trkpt>
      <trkpt lat="44.75457" lon="4.18995">
        <ele>1249</ele>
        <time>2014-07-12T09:28:52Z</time>
      </trkpt>
      <trkpt lat="44.75433" lon="4.18968">
        <ele>1248</ele>
        <time>2014-07-12T09:29:05Z</time>
      </trkpt>
      <trkpt lat="44.7543" lon="4.18965">
        <ele>1248</ele>
        <time>2014-07-12T09:29:06Z</time>
      </trkpt>
      <trkpt lat="44.75395" lon="4.18939">
        <ele>1245</ele>
        <time>2014-07-12T09:29:12Z</time>
      </trkpt>
      <trkpt lat="44.75389" lon="4.18934">
        <ele>1245</ele>
        <time>2014-07-12T09:29:13Z</time>
      </trkpt>
      <trkpt lat="44.75361" lon="4.1892">
        <ele>1243</ele>
        <time>2014-07-12T09:29:18Z</time>
      </trkpt>
      <trkpt lat="44.75343" lon="4.18906">
        <ele>1237</ele>
        <time>2014-07-12T09:29:22Z</time>
      </trkpt>
      <trkpt lat="44.7534" lon="4.189">
        <ele>1237</ele>
        <time>2014-07-12T09:29:23Z</time>
      </trkpt>
      <trkpt lat="44.75337" lon="4.18894">
        <ele>1237</ele>
        <time>2014-07-12T09:29:24Z</time>
      </trkpt>
      <trkpt lat="44.75337" lon="4.18828">
        <ele>1234</ele>
        <time>2014-07-12T09:29:37Z</time>
      </trkpt>
      <trkpt lat="44.75324" lon="4.18793">
        <ele>1240</ele>
        <time>2014-07-12T09:30:01Z</time>
      </trkpt>
      <trkpt lat="44.75326" lon="4.18794">
        <ele>1240</ele>
        <time>2014-07-12T09:31:01Z</time>
      </trkpt>
      <trkpt lat="44.75323" lon="4.18789">
        <ele>1240</ele>
        <time>2014-07-12T09:31:14Z</time>
      </trkpt>
      <trkpt lat="44.75322" lon="4.18788">
        <ele>1240</ele>
        <time>2014-07-12T09:31:15Z</time>
      </trkpt>
      <trkpt lat="44.75287" lon="4.18734">
        <ele>1237</ele>
        <time>2014-07-12T09:31:38Z</time>
      </trkpt>
      <trkpt lat="44.75206" lon="4.1866">
        <ele>1236</ele>
        <time>2014-07-12T09:32:10Z</time>
      </trkpt>
      <trkpt lat="44.75156" lon="4.18652">
        <ele>1242</ele>
        <time>2014-07-12T09:32:33Z</time>
      </trkpt>
      <trkpt lat="44.75121" lon="4.18649">
        <ele>1243</ele>
        <time>2014-07-12T09:32:46Z</time>
      </trkpt>
      <trkpt lat="44.75068" lon="4.18605">
        <ele>1245</ele>
        <time>2014-07-12T09:33:13Z</time>
      </trkpt>
      <trkpt lat="44.75032" lon="4.18607">
        <ele>1248</ele>
        <time>2014-07-12T09:33:30Z</time>
      </trkpt>
      <trkpt lat="44.75012" lon="4.18622">
        <ele>1250</ele>
        <time>2014-07-12T09:33:39Z</time>
      </trkpt>
      <trkpt lat="44.74969" lon="4.18608">
        <ele>1255</ele>
        <time>2014-07-12T09:33:57Z</time>
      </trkpt>
      <trkpt lat="44.74946" lon="4.18579">
        <ele>1254</ele>
        <time>2014-07-12T09:34:09Z</time>
      </trkpt>
      <trkpt lat="44.74907" lon="4.185">
        <ele>1259</ele>
        <time>2014-07-12T09:34:46Z</time>
      </trkpt>
      <trkpt lat="44.74906" lon="4.18495">
        <ele>1259</ele>
        <time>2014-07-12T09:34:48Z</time>
      </trkpt>
      <trkpt lat="44.74932" lon="4.18449">
        <ele>1257</ele>
        <time>2014-07-12T09:35:16Z</time>
      </trkpt>
      <trkpt lat="44.74956" lon="4.18422">
        <ele>1257</ele>
        <time>2014-07-12T09:35:32Z</time>
      </trkpt>
      <trkpt lat="44.75001" lon="4.18385">
        <ele>1262</ele>
        <time>2014-07-12T09:35:52Z</time>
      </trkpt>
      <trkpt lat="44.75003" lon="4.18384">
        <ele>1262</ele>
        <time>2014-07-12T09:35:53Z</time>
      </trkpt>
      <trkpt lat="44.75082" lon="4.18339">
        <ele>1266</ele>
        <time>2014-07-12T09:36:25Z</time>
      </trkpt>
      <trkpt lat="44.751" lon="4.18325">
        <ele>1269</ele>
        <time>2014-07-12T09:36:37Z</time>
      </trkpt>
      <trkpt lat="44.75113" lon="4.18308">
        <ele>1270</ele>
        <time>2014-07-12T09:36:49Z</time>
      </trkpt>
      <trkpt lat="44.75098" lon="4.18277">
        <ele>1272</ele>
        <time>2014-07-12T09:37:10Z</time>
      </trkpt>
      <trkpt lat="44.75063" lon="4.18242">
        <ele>1280</ele>
        <time>2014-07-12T09:37:54Z</time>
      </trkpt>
      <trkpt lat="44.75047" lon="4.18221">
        <ele>1281</ele>
        <time>2014-07-12T09:38:21Z</time>
      </trkpt>
      <trkpt lat="44.75027" lon="4.18207">
        <ele>1282</ele>
        <time>2014-07-12T09:38:46Z</time>
      </trkpt>
      <trkpt lat="44.75019" lon="4.18201">
        <ele>1282</ele>
        <time>2014-07-12T09:39:01Z</time>
      </trkpt>
      <trkpt lat="44.75013" lon="4.18194">
        <ele>1282</ele>
        <time>2014-07-12T09:40:40Z</time>
      </trkpt>
      <trkpt lat="44.75013" lon="4.18201">
        <ele>1282</ele>
        <time>2014-07-12T09:42:09Z</time>
      </trkpt>
      <trkpt lat="44.75013" lon="4.18195">
        <ele>1282</ele>
        <time>2014-07-12T09:43:18Z</time>
      </trkpt>
      <trkpt lat="44.75011" lon="4.18198">
        <ele>1282</ele>
        <time>2014-07-12T09:45:05Z</time>
      </trkpt>
      <trkpt lat="44.7501" lon="4.182">
        <ele>1282</ele>
        <time>2014-07-12T09:46:23Z</time>
      </trkpt>
      <trkpt lat="44.75013" lon="4.18191">
        <ele>1282</ele>
        <time>2014-07-12T09:48:57Z</time>
      </trkpt>
      <trkpt lat="44.75011" lon="4.18195">
        <ele>1282</ele>
        <time>2014-07-12T09:51:00Z</time>
      </trkpt>
      <trkpt lat="44.75008" lon="4.18205">
        <ele>1282</ele>
        <time>2014-07-12T09:52:35Z</time>
      </trkpt>
      <trkpt lat="44.7501" lon="4.18203">
        <ele>1282</ele>
        <time>2014-07-12T09:54:18Z</time>
      </trkpt>
      <trkpt lat="44.75005" lon="4.18195">
        <ele>1282</ele>
        <time>2014-07-12T09:55:59Z</time>
      </trkpt>
      <trkpt lat="44.75004" lon="4.18195">
        <ele>1282</ele>
        <time>2014-07-12T09:57:50Z</time>
      </trkpt>
      <trkpt lat="44.75006" lon="4.18201">
        <ele>1282</ele>
        <time>2014-07-12T09:58:58Z</time>
      </trkpt>
      <trkpt lat="44.75004" lon="4.18202">
        <ele>1282</ele>
        <time>2014-07-12T10:00:16Z</time>
      </trkpt>
      <trkpt lat="44.75005" lon="4.18197">
        <ele>1282</ele>
        <time>2014-07-12T10:02:16Z</time>
      </trkpt>
      <trkpt lat="44.75005" lon="4.1821">
        <ele>1281</ele>
        <time>2014-07-12T10:03:32Z</time>
      </trkpt>
      <trkpt lat="44.75008" lon="4.18205">
        <ele>1282</ele>
        <time>2014-07-12T10:04:50Z</time>
      </trkpt>
      <trkpt lat="44.75014" lon="4.18197">
        <ele>1282</ele>
        <time>2014-07-12T10:06:37Z</time>
      </trkpt>
      <trkpt lat="44.75007" lon="4.18199">
        <ele>1282</ele>
        <time>2014-07-12T10:08:18Z</time>
      </trkpt>
      <trkpt lat="44.75009" lon="4.18197">
        <ele>1282</ele>
        <time>2014-07-12T10:08:32Z</time>
      </trkpt>
      <trkpt lat="44.75001" lon="4.18176">
        <ele>1282</ele>
        <time>2014-07-12T10:08:38Z</time>
      </trkpt>
      <trkpt lat="44.74998" lon="4.18167">
        <ele>1282</ele>
        <time>2014-07-12T10:08:40Z</time>
      </trkpt>
      <trkpt lat="44.74985" lon="4.18149">
        <ele>1279</ele>
        <time>2014-07-12T10:08:44Z</time>
      </trkpt>
      <trkpt lat="44.7498" lon="4.18127">
        <ele>1277</ele>
        <time>2014-07-12T10:08:47Z</time>
      </trkpt>
      <trkpt lat="44.74973" lon="4.18113">
        <ele>1277</ele>
        <time>2014-07-12T10:08:49Z</time>
      </trkpt>
      <trkpt lat="44.74963" lon="4.18094">
        <ele>1275</ele>
        <time>2014-07-12T10:08:52Z</time>
      </trkpt>
      <trkpt lat="44.74953" lon="4.18082">
        <ele>1271</ele>
        <time>2014-07-12T10:08:55Z</time>
      </trkpt>
      <trkpt lat="44.74945" lon="4.18075">
        <ele>1270</ele>
        <time>2014-07-12T10:08:57Z</time>
      </trkpt>
      <trkpt lat="44.74924" lon="4.1807">
        <ele>1268</ele>
        <time>2014-07-12T10:09:01Z</time>
      </trkpt>
      <trkpt lat="44.7491" lon="4.18052">
        <ele>1263</ele>
        <time>2014-07-12T10:09:04Z</time>
      </trkpt>
      <trkpt lat="44.74904" lon="4.18033">
        <ele>1262</ele>
        <time>2014-07-12T10:09:06Z</time>
      </trkpt>
      <trkpt lat="44.74899" lon="4.18013">
        <ele>1261</ele>
        <time>2014-07-12T10:09:08Z</time>
      </trkpt>
      <trkpt lat="44.74893" lon="4.17992">
        <ele>1257</ele>
        <time>2014-07-12T10:09:10Z</time>
      </trkpt>
      <trkpt lat="44.74884" lon="4.17964">
        <ele>1256</ele>
        <time>2014-07-12T10:09:14Z</time>
      </trkpt>
      <trkpt lat="44.74875" lon="4.17958">
        <ele>1255</ele>
        <time>2014-07-12T10:09:16Z</time>
      </trkpt>
      <trkpt lat="44.74863" lon="4.17956">
        <ele>1254</ele>
        <time>2014-07-12T10:09:18Z</time>
      </trkpt>
      <trkpt lat="44.74857" lon="4.17955">
        <ele>1253</ele>
        <time>2014-07-12T10:09:19Z</time>
      </trkpt>
      <trkpt lat="44.7484" lon="4.17942">
        <ele>1251</ele>
        <time>2014-07-12T10:09:22Z</time>
      </trkpt>
      <trkpt lat="44.74835" lon="4.17936">
        <ele>1250</ele>
        <time>2014-07-12T10:09:23Z</time>
      </trkpt>
      <trkpt lat="44.7481" lon="4.17902">
        <ele>1241</ele>
        <time>2014-07-12T10:09:28Z</time>
      </trkpt>
      <trkpt lat="44.748" lon="4.17876">
        <ele>1240</ele>
        <time>2014-07-12T10:09:31Z</time>
      </trkpt>
      <trkpt lat="44.74778" lon="4.17768">
        <ele>1237</ele>
        <time>2014-07-12T10:09:41Z</time>
      </trkpt>
      <trkpt lat="44.74754" lon="4.17601">
        <ele>1237</ele>
        <time>2014-07-12T10:09:57Z</time>
      </trkpt>
      <trkpt lat="44.74753" lon="4.17572">
        <ele>1237</ele>
        <time>2014-07-12T10:10:00Z</time>
      </trkpt>
      <trkpt lat="44.74754" lon="4.17543">
        <ele>1239</ele>
        <time>2014-07-12T10:10:03Z</time>
      </trkpt>
      <trkpt lat="44.74753" lon="4.17533">
        <ele>1239</ele>
        <time>2014-07-12T10:10:04Z</time>
      </trkpt>
      <trkpt lat="44.74745" lon="4.17458">
        <ele>1234</ele>
        <time>2014-07-12T10:10:12Z</time>
      </trkpt>
      <trkpt lat="44.74743" lon="4.1745">
        <ele>1234</ele>
        <time>2014-07-12T10:10:13Z</time>
      </trkpt>
      <trkpt lat="44.74719" lon="4.17379">
        <ele>1232</ele>
        <time>2014-07-12T10:10:22Z</time>
      </trkpt>
      <trkpt lat="44.74677" lon="4.17297">
        <ele>1228</ele>
        <time>2014-07-12T10:10:36Z</time>
      </trkpt>
      <trkpt lat="44.74675" lon="4.17292">
        <ele>1228</ele>
        <time>2014-07-12T10:10:37Z</time>
      </trkpt>
      <trkpt lat="44.74656" lon="4.17267">
        <ele>1228</ele>
        <time>2014-07-12T10:10:43Z</time>
      </trkpt>
      <trkpt lat="44.74636" lon="4.17238">
        <ele>1229</ele>
        <time>2014-07-12T10:10:50Z</time>
      </trkpt>
      <trkpt lat="44.74621" lon="4.17207">
        <ele>1230</ele>
        <time>2014-07-12T10:10:56Z</time>
      </trkpt>
      <trkpt lat="44.7452" lon="4.17086">
        <ele>1226</ele>
        <time>2014-07-12T10:11:22Z</time>
      </trkpt>
      <trkpt lat="44.74492" lon="4.17068">
        <ele>1220</ele>
        <time>2014-07-12T10:11:33Z</time>
      </trkpt>
      <trkpt lat="44.74406" lon="4.17044">
        <ele>1215</ele>
        <time>2014-07-12T10:11:54Z</time>
      </trkpt>
      <trkpt lat="44.74325" lon="4.1703">
        <ele>1215</ele>
        <time>2014-07-12T10:12:14Z</time>
      </trkpt>
      <trkpt lat="44.74212" lon="4.17008">
        <ele>1212</ele>
        <time>2014-07-12T10:12:43Z</time>
      </trkpt>
      <trkpt lat="44.74183" lon="4.17012">
        <ele>1210</ele>
        <time>2014-07-12T10:12:50Z</time>
      </trkpt>
      <trkpt lat="44.74177" lon="4.17013">
        <ele>1210</ele>
        <time>2014-07-12T10:12:51Z</time>
      </trkpt>
      <trkpt lat="44.74138" lon="4.17023">
        <ele>1206</ele>
        <time>2014-07-12T10:12:57Z</time>
      </trkpt>
      <trkpt lat="44.74083" lon="4.17017">
        <ele>1202</ele>
        <time>2014-07-12T10:13:05Z</time>
      </trkpt>
      <trkpt lat="44.74036" lon="4.17019">
        <ele>1198</ele>
        <time>2014-07-12T10:13:13Z</time>
      </trkpt>
      <trkpt lat="44.74006" lon="4.1701">
        <ele>1197</ele>
        <time>2014-07-12T10:13:18Z</time>
      </trkpt>
      <trkpt lat="44.74008" lon="4.16995">
        <ele>1198</ele>
        <time>2014-07-12T10:13:26Z</time>
      </trkpt>
      <trkpt lat="44.74013" lon="4.16956">
        <ele>1201</ele>
        <time>2014-07-12T10:13:41Z</time>
      </trkpt>
      <trkpt lat="44.74041" lon="4.16947">
        <ele>1201</ele>
        <time>2014-07-12T10:14:02Z</time>
      </trkpt>
      <trkpt lat="44.74067" lon="4.16927">
        <ele>1203</ele>
        <time>2014-07-12T10:14:30Z</time>
      </trkpt>
      <trkpt lat="44.74083" lon="4.16909">
        <ele>1208</ele>
        <time>2014-07-12T10:14:56Z</time>
      </trkpt>
      <trkpt lat="44.74084" lon="4.16908">
        <ele>1209</ele>
        <time>2014-07-12T10:14:57Z</time>
      </trkpt>
      <trkpt lat="44.7408" lon="4.16884">
        <ele>1213</ele>
        <time>2014-07-12T10:15:34Z</time>
      </trkpt>
      <trkpt lat="44.74075" lon="4.1687">
        <ele>1215</ele>
        <time>2014-07-12T10:15:59Z</time>
      </trkpt>
      <trkpt lat="44.74087" lon="4.16859">
        <ele>1219</ele>
        <time>2014-07-12T10:16:20Z</time>
      </trkpt>
      <trkpt lat="44.741" lon="4.1685">
        <ele>1220</ele>
        <time>2014-07-12T10:16:36Z</time>
      </trkpt>
      <trkpt lat="44.74106" lon="4.16844">
        <ele>1220</ele>
        <time>2014-07-12T10:16:47Z</time>
      </trkpt>
      <trkpt lat="44.74107" lon="4.16842">
        <ele>1220</ele>
        <time>2014-07-12T10:16:48Z</time>
      </trkpt>
      <trkpt lat="44.74124" lon="4.16816">
        <ele>1232</ele>
        <time>2014-07-12T10:17:17Z</time>
      </trkpt>
      <trkpt lat="44.74132" lon="4.16812">
        <ele>1233</ele>
        <time>2014-07-12T10:17:29Z</time>
      </trkpt>
      <trkpt lat="44.74167" lon="4.16791">
        <ele>1238</ele>
        <time>2014-07-12T10:17:55Z</time>
      </trkpt>
      <trkpt lat="44.74166" lon="4.16769">
        <ele>1239</ele>
        <time>2014-07-12T10:18:17Z</time>
      </trkpt>
      <trkpt lat="44.74157" lon="4.16737">
        <ele>1246</ele>
        <time>2014-07-12T10:18:35Z</time>
      </trkpt>
      <trkpt lat="44.74158" lon="4.16694">
        <ele>1249</ele>
        <time>2014-07-12T10:18:57Z</time>
      </trkpt>
      <trkpt lat="44.74159" lon="4.16686">
        <ele>1250</ele>
        <time>2014-07-12T10:19:01Z</time>
      </trkpt>
      <trkpt lat="44.74169" lon="4.16661">
        <ele>1255</ele>
        <time>2014-07-12T10:19:16Z</time>
      </trkpt>
      <trkpt lat="44.74165" lon="4.16617">
        <ele>1255</ele>
        <time>2014-07-12T10:19:39Z</time>
      </trkpt>
      <trkpt lat="44.7415" lon="4.16554">
        <ele>1259</ele>
        <time>2014-07-12T10:20:09Z</time>
      </trkpt>
      <trkpt lat="44.74146" lon="4.16538">
        <ele>1259</ele>
        <time>2014-07-12T10:21:03Z</time>
      </trkpt>
      <trkpt lat="44.74146" lon="4.16535">
        <ele>1259</ele>
        <time>2014-07-12T10:21:37Z</time>
      </trkpt>
      <trkpt lat="44.74149" lon="4.16525">
        <ele>1259</ele>
        <time>2014-07-12T10:21:41Z</time>
      </trkpt>
      <trkpt lat="44.74164" lon="4.16479">
        <ele>1261</ele>
        <time>2014-07-12T10:21:50Z</time>
      </trkpt>
      <trkpt lat="44.74196" lon="4.1641">
        <ele>1260</ele>
        <time>2014-07-12T10:22:01Z</time>
      </trkpt>
      <trkpt lat="44.74222" lon="4.16352">
        <ele>1259</ele>
        <time>2014-07-12T10:22:10Z</time>
      </trkpt>
      <trkpt lat="44.74276" lon="4.16219">
        <ele>1263</ele>
        <time>2014-07-12T10:22:36Z</time>
      </trkpt>
      <trkpt lat="44.74283" lon="4.16177">
        <ele>1263</ele>
        <time>2014-07-12T10:22:49Z</time>
      </trkpt>
      <trkpt lat="44.74294" lon="4.16092">
        <ele>1264</ele>
        <time>2014-07-12T10:23:17Z</time>
      </trkpt>
      <trkpt lat="44.74325" lon="4.15973">
        <ele>1266</ele>
        <time>2014-07-12T10:23:45Z</time>
      </trkpt>
      <trkpt lat="44.74335" lon="4.15874">
        <ele>1275</ele>
        <time>2014-07-12T10:24:09Z</time>
      </trkpt>
      <trkpt lat="44.74322" lon="4.15844">
        <ele>1271</ele>
        <time>2014-07-12T10:24:17Z</time>
      </trkpt>
      <trkpt lat="44.74304" lon="4.15797">
        <ele>1276</ele>
        <time>2014-07-12T10:24:35Z</time>
      </trkpt>
      <trkpt lat="44.74286" lon="4.15763">
        <ele>1277</ele>
        <time>2014-07-12T10:24:50Z</time>
      </trkpt>
      <trkpt lat="44.74279" lon="4.15752">
        <ele>1277</ele>
        <time>2014-07-12T10:24:55Z</time>
      </trkpt>
      <trkpt lat="44.74275" lon="4.15711">
        <ele>1282</ele>
        <time>2014-07-12T10:25:07Z</time>
      </trkpt>
      <trkpt lat="44.7428" lon="4.15631">
        <ele>1285</ele>
        <time>2014-07-12T10:25:42Z</time>
      </trkpt>
      <trkpt lat="44.74287" lon="4.15597">
        <ele>1286</ele>
        <time>2014-07-12T10:25:57Z</time>
      </trkpt>
      <trkpt lat="44.74295" lon="4.15531">
        <ele>1287</ele>
        <time>2014-07-12T10:26:25Z</time>
      </trkpt>
      <trkpt lat="44.74293" lon="4.15531">
        <ele>1287</ele>
        <time>2014-07-12T10:26:36Z</time>
      </trkpt>
      <trkpt lat="44.74301" lon="4.15459">
        <ele>1287</ele>
        <time>2014-07-12T10:27:43Z</time>
      </trkpt>
      <trkpt lat="44.74298" lon="4.15326">
        <ele>1288</ele>
        <time>2014-07-12T10:28:07Z</time>
      </trkpt>
      <trkpt lat="44.74263" lon="4.15229">
        <ele>1290</ele>
        <time>2014-07-12T10:28:32Z</time>
      </trkpt>
      <trkpt lat="44.74257" lon="4.15213">
        <ele>1292</ele>
        <time>2014-07-12T10:28:36Z</time>
      </trkpt>
      <trkpt lat="44.74216" lon="4.15122">
        <ele>1291</ele>
        <time>2014-07-12T10:28:57Z</time>
      </trkpt>
      <trkpt lat="44.74184" lon="4.15064">
        <ele>1295</ele>
        <time>2014-07-12T10:29:10Z</time>
      </trkpt>
      <trkpt lat="44.74181" lon="4.14989">
        <ele>1300</ele>
        <time>2014-07-12T10:29:29Z</time>
      </trkpt>
      <trkpt lat="44.74185" lon="4.14966">
        <ele>1302</ele>
        <time>2014-07-12T10:29:36Z</time>
      </trkpt>
      <trkpt lat="44.7419" lon="4.1493">
        <ele>1304</ele>
        <time>2014-07-12T10:29:47Z</time>
      </trkpt>
      <trkpt lat="44.74191" lon="4.14873">
        <ele>1306</ele>
        <time>2014-07-12T10:30:03Z</time>
      </trkpt>
      <trkpt lat="44.74208" lon="4.14836">
        <ele>1306</ele>
        <time>2014-07-12T10:30:14Z</time>
      </trkpt>
      <trkpt lat="44.74231" lon="4.14804">
        <ele>1306</ele>
        <time>2014-07-12T10:30:24Z</time>
      </trkpt>
      <trkpt lat="44.74274" lon="4.14746">
        <ele>1303</ele>
        <time>2014-07-12T10:30:37Z</time>
      </trkpt>
      <trkpt lat="44.74299" lon="4.14704">
        <ele>1302</ele>
        <time>2014-07-12T10:30:43Z</time>
      </trkpt>
      <trkpt lat="44.74307" lon="4.14693">
        <ele>1302</ele>
        <time>2014-07-12T10:30:45Z</time>
      </trkpt>
      <trkpt lat="44.74318" lon="4.14671">
        <ele>1300</ele>
        <time>2014-07-12T10:30:48Z</time>
      </trkpt>
      <trkpt lat="44.7434" lon="4.14621">
        <ele>1294</ele>
        <time>2014-07-12T10:30:54Z</time>
      </trkpt>
      <trkpt lat="44.74367" lon="4.14489">
        <ele>1291</ele>
        <time>2014-07-12T10:31:07Z</time>
      </trkpt>
      <trkpt lat="44.74368" lon="4.14448">
        <ele>1291</ele>
        <time>2014-07-12T10:31:11Z</time>
      </trkpt>
      <trkpt lat="44.74367" lon="4.14372">
        <ele>1287</ele>
        <time>2014-07-12T10:31:18Z</time>
      </trkpt>
      <trkpt lat="44.74369" lon="4.1436">
        <ele>1286</ele>
        <time>2014-07-12T10:31:19Z</time>
      </trkpt>
      <trkpt lat="44.74374" lon="4.14312">
        <ele>1282</ele>
        <time>2014-07-12T10:31:23Z</time>
      </trkpt>
      <trkpt lat="44.74421" lon="4.14171">
        <ele>1282</ele>
        <time>2014-07-12T10:31:37Z</time>
      </trkpt>
      <trkpt lat="44.74441" lon="4.14105">
        <ele>1282</ele>
        <time>2014-07-12T10:31:46Z</time>
      </trkpt>
      <trkpt lat="44.74455" lon="4.14063">
        <ele>1282</ele>
        <time>2014-07-12T10:31:53Z</time>
      </trkpt>
      <trkpt lat="44.74498" lon="4.13971">
        <ele>1278</ele>
        <time>2014-07-12T10:32:07Z</time>
      </trkpt>
      <trkpt lat="44.74516" lon="4.13942">
        <ele>1274</ele>
        <time>2014-07-12T10:32:10Z</time>
      </trkpt>
      <trkpt lat="44.74555" lon="4.13878">
        <ele>1270</ele>
        <time>2014-07-12T10:32:16Z</time>
      </trkpt>
      <trkpt lat="44.74578" lon="4.13838">
        <ele>1268</ele>
        <time>2014-07-12T10:32:20Z</time>
      </trkpt>
      <trkpt lat="44.74592" lon="4.13811">
        <ele>1266</ele>
        <time>2014-07-12T10:32:23Z</time>
      </trkpt>
      <trkpt lat="44.74626" lon="4.13738">
        <ele>1263</ele>
        <time>2014-07-12T10:32:41Z</time>
      </trkpt>
      <trkpt lat="44.74703" lon="4.13609">
        <ele>1268</ele>
        <time>2014-07-12T10:33:25Z</time>
      </trkpt>
      <trkpt lat="44.74721" lon="4.13579">
        <ele>1269</ele>
        <time>2014-07-12T10:33:41Z</time>
      </trkpt>
      <trkpt lat="44.74783" lon="4.13451">
        <ele>1269</ele>
        <time>2014-07-12T10:34:27Z</time>
      </trkpt>
      <trkpt lat="44.74798" lon="4.13417">
        <ele>1267</ele>
        <time>2014-07-12T10:34:34Z</time>
      </trkpt>
      <trkpt lat="44.7481" lon="4.13388">
        <ele>1267</ele>
        <time>2014-07-12T10:34:39Z</time>
      </trkpt>
      <trkpt lat="44.74812" lon="4.13381">
        <ele>1267</ele>
        <time>2014-07-12T10:34:40Z</time>
      </trkpt>
      <trkpt lat="44.74832" lon="4.13336">
        <ele>1267</ele>
        <time>2014-07-12T10:34:48Z</time>
      </trkpt>
      <trkpt lat="44.74872" lon="4.13268">
        <ele>1267</ele>
        <time>2014-07-12T10:35:01Z</time>
      </trkpt>
      <trkpt lat="44.74902" lon="4.13207">
        <ele>1267</ele>
        <time>2014-07-12T10:35:13Z</time>
      </trkpt>
      <trkpt lat="44.74906" lon="4.13202">
        <ele>1267</ele>
        <time>2014-07-12T10:35:14Z</time>
      </trkpt>
      <trkpt lat="44.74924" lon="4.13175">
        <ele>1267</ele>
        <time>2014-07-12T10:35:19Z</time>
      </trkpt>
      <trkpt lat="44.74958" lon="4.13118">
        <ele>1263</ele>
        <time>2014-07-12T10:35:27Z</time>
      </trkpt>
      <trkpt lat="44.74973" lon="4.13096">
        <ele>1262</ele>
        <time>2014-07-12T10:35:30Z</time>
      </trkpt>
      <trkpt lat="44.75015" lon="4.13037">
        <ele>1252</ele>
        <time>2014-07-12T10:35:37Z</time>
      </trkpt>
      <trkpt lat="44.75056" lon="4.12977">
        <ele>1241</ele>
        <time>2014-07-12T10:35:43Z</time>
      </trkpt>
      <trkpt lat="44.75083" lon="4.12939">
        <ele>1238</ele>
        <time>2014-07-12T10:35:47Z</time>
      </trkpt>
      <trkpt lat="44.75125" lon="4.129">
        <ele>1231</ele>
        <time>2014-07-12T10:35:53Z</time>
      </trkpt>
      <trkpt lat="44.75163" lon="4.12847">
        <ele>1229</ele>
        <time>2014-07-12T10:35:59Z</time>
      </trkpt>
      <trkpt lat="44.75181" lon="4.12814">
        <ele>1225</ele>
        <time>2014-07-12T10:36:02Z</time>
      </trkpt>
      <trkpt lat="44.75186" lon="4.12801">
        <ele>1224</ele>
        <time>2014-07-12T10:36:03Z</time>
      </trkpt>
      <trkpt lat="44.75189" lon="4.12789">
        <ele>1224</ele>
        <time>2014-07-12T10:36:04Z</time>
      </trkpt>
      <trkpt lat="44.7522" lon="4.12689">
        <ele>1225</ele>
        <time>2014-07-12T10:36:14Z</time>
      </trkpt>
      <trkpt lat="44.75226" lon="4.12595">
        <ele>1227</ele>
        <time>2014-07-12T10:36:27Z</time>
      </trkpt>
      <trkpt lat="44.75226" lon="4.12588">
        <ele>1227</ele>
        <time>2014-07-12T10:36:28Z</time>
      </trkpt>
      <trkpt lat="44.75203" lon="4.12419">
        <ele>1223</ele>
        <time>2014-07-12T10:36:49Z</time>
      </trkpt>
      <trkpt lat="44.75166" lon="4.12341">
        <ele>1225</ele>
        <time>2014-07-12T10:37:01Z</time>
      </trkpt>
      <trkpt lat="44.75143" lon="4.12242">
        <ele>1228</ele>
        <time>2014-07-12T10:37:18Z</time>
      </trkpt>
      <trkpt lat="44.75134" lon="4.12143">
        <ele>1232</ele>
        <time>2014-07-12T10:37:43Z</time>
      </trkpt>
      <trkpt lat="44.75128" lon="4.12111">
        <ele>1234</ele>
        <time>2014-07-12T10:37:53Z</time>
      </trkpt>
      <trkpt lat="44.75106" lon="4.12036">
        <ele>1240</ele>
        <time>2014-07-12T10:38:18Z</time>
      </trkpt>
      <trkpt lat="44.751" lon="4.12003">
        <ele>1241</ele>
        <time>2014-07-12T10:38:31Z</time>
      </trkpt>
      <trkpt lat="44.75102" lon="4.1195">
        <ele>1246</ele>
        <time>2014-07-12T10:38:51Z</time>
      </trkpt>
      <trkpt lat="44.75107" lon="4.11874">
        <ele>1250</ele>
        <time>2014-07-12T10:39:17Z</time>
      </trkpt>
      <trkpt lat="44.7512" lon="4.11798">
        <ele>1254</ele>
        <time>2014-07-12T10:39:42Z</time>
      </trkpt>
      <trkpt lat="44.75139" lon="4.11764">
        <ele>1257</ele>
        <time>2014-07-12T10:39:55Z</time>
      </trkpt>
      <trkpt lat="44.75149" lon="4.11743">
        <ele>1260</ele>
        <time>2014-07-12T10:40:02Z</time>
      </trkpt>
      <trkpt lat="44.75199" lon="4.1166">
        <ele>1264</ele>
        <time>2014-07-12T10:40:32Z</time>
      </trkpt>
      <trkpt lat="44.75314" lon="4.11528">
        <ele>1264</ele>
        <time>2014-07-12T10:41:23Z</time>
      </trkpt>
      <trkpt lat="44.75374" lon="4.11466">
        <ele>1265</ele>
        <time>2014-07-12T10:41:41Z</time>
      </trkpt>
      <trkpt lat="44.75495" lon="4.11354">
        <ele>1263</ele>
        <time>2014-07-12T10:42:20Z</time>
      </trkpt>
      <trkpt lat="44.75499" lon="4.11351">
        <ele>1262</ele>
        <time>2014-07-12T10:42:21Z</time>
      </trkpt>
      <trkpt lat="44.75541" lon="4.11309">
        <ele>1260</ele>
        <time>2014-07-12T10:42:29Z</time>
      </trkpt>
      <trkpt lat="44.75599" lon="4.11183">
        <ele>1261</ele>
        <time>2014-07-12T10:42:46Z</time>
      </trkpt>
      <trkpt lat="44.75611" lon="4.11126">
        <ele>1260</ele>
        <time>2014-07-12T10:42:54Z</time>
      </trkpt>
      <trkpt lat="44.75637" lon="4.11022">
        <ele>1257</ele>
        <time>2014-07-12T10:43:10Z</time>
      </trkpt>
      <trkpt lat="44.75679" lon="4.10928">
        <ele>1255</ele>
        <time>2014-07-12T10:43:25Z</time>
      </trkpt>
      <trkpt lat="44.75696" lon="4.10905">
        <ele>1253</ele>
        <time>2014-07-12T10:43:29Z</time>
      </trkpt>
      <trkpt lat="44.7576" lon="4.1081">
        <ele>1250</ele>
        <time>2014-07-12T10:43:45Z</time>
      </trkpt>
      <trkpt lat="44.75788" lon="4.10766">
        <ele>1247</ele>
        <time>2014-07-12T10:43:50Z</time>
      </trkpt>
      <trkpt lat="44.75803" lon="4.10733">
        <ele>1241</ele>
        <time>2014-07-12T10:43:53Z</time>
      </trkpt>
      <trkpt lat="44.75811" lon="4.10709">
        <ele>1240</ele>
        <time>2014-07-12T10:43:55Z</time>
      </trkpt>
      <trkpt lat="44.75823" lon="4.10689">
        <ele>1239</ele>
        <time>2014-07-12T10:43:57Z</time>
      </trkpt>
      <trkpt lat="44.75856" lon="4.10641">
        <ele>1233</ele>
        <time>2014-07-12T10:44:02Z</time>
      </trkpt>
      <trkpt lat="44.75874" lon="4.10607">
        <ele>1231</ele>
        <time>2014-07-12T10:44:05Z</time>
      </trkpt>
      <trkpt lat="44.75889" lon="4.10575">
        <ele>1225</ele>
        <time>2014-07-12T10:44:08Z</time>
      </trkpt>
      <trkpt lat="44.75901" lon="4.10543">
        <ele>1224</ele>
        <time>2014-07-12T10:44:11Z</time>
      </trkpt>
      <trkpt lat="44.75906" lon="4.10531">
        <ele>1223</ele>
        <time>2014-07-12T10:44:12Z</time>
      </trkpt>
      <trkpt lat="44.75914" lon="4.10493">
        <ele>1219</ele>
        <time>2014-07-12T10:44:15Z</time>
      </trkpt>
      <trkpt lat="44.7592" lon="4.10453">
        <ele>1213</ele>
        <time>2014-07-12T10:44:18Z</time>
      </trkpt>
      <trkpt lat="44.75935" lon="4.10396">
        <ele>1208</ele>
        <time>2014-07-12T10:44:22Z</time>
      </trkpt>
      <trkpt lat="44.75948" lon="4.10339">
        <ele>1206</ele>
        <time>2014-07-12T10:44:30Z</time>
      </trkpt>
      <trkpt lat="44.75948" lon="4.10344">
        <ele>1206</ele>
        <time>2014-07-12T10:44:40Z</time>
      </trkpt>
      <trkpt lat="44.75947" lon="4.10346">
        <ele>1206</ele>
        <time>2014-07-12T10:44:41Z</time>
      </trkpt>
      <trkpt lat="44.75939" lon="4.10382">
        <ele>1207</ele>
        <time>2014-07-12T10:44:55Z</time>
      </trkpt>
      <trkpt lat="44.75939" lon="4.10384">
        <ele>1207</ele>
        <time>2014-07-12T10:45:29Z</time>
      </trkpt>
      <trkpt lat="44.75941" lon="4.10383">
        <ele>1207</ele>
        <time>2014-07-12T10:45:39Z</time>
      </trkpt>
      <trkpt lat="44.75953" lon="4.10325">
        <ele>1204</ele>
        <time>2014-07-12T10:46:03Z</time>
      </trkpt>
      <trkpt lat="44.75984" lon="4.10162">
        <ele>1206</ele>
        <time>2014-07-12T10:46:38Z</time>
      </trkpt>
      <trkpt lat="44.75979" lon="4.10157">
        <ele>1205</ele>
        <time>2014-07-12T10:46:46Z</time>
      </trkpt>
      <trkpt lat="44.75963" lon="4.10121">
        <ele>1203</ele>
        <time>2014-07-12T10:46:56Z</time>
      </trkpt>
      <trkpt lat="44.75958" lon="4.1007">
        <ele>1197</ele>
        <time>2014-07-12T10:47:07Z</time>
      </trkpt>
      <trkpt lat="44.75945" lon="4.10052">
        <ele>1196</ele>
        <time>2014-07-12T10:47:10Z</time>
      </trkpt>
      <trkpt lat="44.75946" lon="4.10025">
        <ele>1194</ele>
        <time>2014-07-12T10:47:15Z</time>
      </trkpt>
      <trkpt lat="44.75951" lon="4.10016">
        <ele>1194</ele>
        <time>2014-07-12T10:47:17Z</time>
      </trkpt>
      <trkpt lat="44.75943" lon="4.09986">
        <ele>1188</ele>
        <time>2014-07-12T10:47:24Z</time>
      </trkpt>
      <trkpt lat="44.75937" lon="4.09989">
        <ele>1188</ele>
        <time>2014-07-12T10:47:25Z</time>
      </trkpt>
      <trkpt lat="44.75911" lon="4.10001">
        <ele>1186</ele>
        <time>2014-07-12T10:47:29Z</time>
      </trkpt>
      <trkpt lat="44.75881" lon="4.10025">
        <ele>1182</ele>
        <time>2014-07-12T10:47:33Z</time>
      </trkpt>
      <trkpt lat="44.75866" lon="4.1004">
        <ele>1181</ele>
        <time>2014-07-12T10:47:35Z</time>
      </trkpt>
      <trkpt lat="44.75843" lon="4.10061">
        <ele>1179</ele>
        <time>2014-07-12T10:47:38Z</time>
      </trkpt>
      <trkpt lat="44.75814" lon="4.10068">
        <ele>1167</ele>
        <time>2014-07-12T10:47:43Z</time>
      </trkpt>
      <trkpt lat="44.75805" lon="4.10035">
        <ele>1162</ele>
        <time>2014-07-12T10:47:48Z</time>
      </trkpt>
      <trkpt lat="44.75814" lon="4.09968">
        <ele>1155</ele>
        <time>2014-07-12T10:47:54Z</time>
      </trkpt>
      <trkpt lat="44.75823" lon="4.09932">
        <ele>1155</ele>
        <time>2014-07-12T10:47:57Z</time>
      </trkpt>
      <trkpt lat="44.75832" lon="4.09895">
        <ele>1148</ele>
        <time>2014-07-12T10:48:00Z</time>
      </trkpt>
      <trkpt lat="44.7584" lon="4.09864">
        <ele>1157</ele>
        <time>2014-07-12T10:48:03Z</time>
      </trkpt>
      <trkpt lat="44.75843" lon="4.09839">
        <ele>1152</ele>
        <time>2014-07-12T10:48:09Z</time>
      </trkpt>
      <trkpt lat="44.75816" lon="4.0986">
        <ele>1142</ele>
        <time>2014-07-12T10:48:15Z</time>
      </trkpt>
      <trkpt lat="44.75795" lon="4.09874">
        <ele>1140</ele>
        <time>2014-07-12T10:48:18Z</time>
      </trkpt>
      <trkpt lat="44.75779" lon="4.09891">
        <ele>1139</ele>
        <time>2014-07-12T10:48:21Z</time>
      </trkpt>
      <trkpt lat="44.7577" lon="4.09914">
        <ele>1137</ele>
        <time>2014-07-12T10:48:24Z</time>
      </trkpt>
      <trkpt lat="44.75769" lon="4.09921">
        <ele>1143</ele>
        <time>2014-07-12T10:48:25Z</time>
      </trkpt>
      <trkpt lat="44.75766" lon="4.09937">
        <ele>1145</ele>
        <time>2014-07-12T10:48:28Z</time>
      </trkpt>
      <trkpt lat="44.75732" lon="4.09965">
        <ele>1129</ele>
        <time>2014-07-12T10:48:39Z</time>
      </trkpt>
      <trkpt lat="44.75714" lon="4.10007">
        <ele>1135</ele>
        <time>2014-07-12T10:48:45Z</time>
      </trkpt>
      <trkpt lat="44.75712" lon="4.10017">
        <ele>1135</ele>
        <time>2014-07-12T10:48:46Z</time>
      </trkpt>
      <trkpt lat="44.75694" lon="4.10065">
        <ele>1136</ele>
        <time>2014-07-12T10:48:51Z</time>
      </trkpt>
      <trkpt lat="44.75679" lon="4.10071">
        <ele>1134</ele>
        <time>2014-07-12T10:48:54Z</time>
      </trkpt>
      <trkpt lat="44.75674" lon="4.10069">
        <ele>1134</ele>
        <time>2014-07-12T10:48:55Z</time>
      </trkpt>
      <trkpt lat="44.75644" lon="4.10056">
        <ele>1126</ele>
        <time>2014-07-12T10:49:01Z</time>
      </trkpt>
      <trkpt lat="44.75635" lon="4.10048">
        <ele>1125</ele>
        <time>2014-07-12T10:49:03Z</time>
      </trkpt>
      <trkpt lat="44.756" lon="4.10019">
        <ele>1121</ele>
        <time>2014-07-12T10:49:09Z</time>
      </trkpt>
      <trkpt lat="44.75566" lon="4.0999">
        <ele>1113</ele>
        <time>2014-07-12T10:49:15Z</time>
      </trkpt>
      <trkpt lat="44.75559" lon="4.09983">
        <ele>1112</ele>
        <time>2014-07-12T10:49:16Z</time>
      </trkpt>
      <trkpt lat="44.75549" lon="4.09966">
        <ele>1111</ele>
        <time>2014-07-12T10:49:18Z</time>
      </trkpt>
      <trkpt lat="44.75536" lon="4.09941">
        <ele>1110</ele>
        <time>2014-07-12T10:49:21Z</time>
      </trkpt>
      <trkpt lat="44.7555" lon="4.09935">
        <ele>1109</ele>
        <time>2014-07-12T10:49:27Z</time>
      </trkpt>
      <trkpt lat="44.75575" lon="4.09939">
        <ele>1108</ele>
        <time>2014-07-12T10:49:31Z</time>
      </trkpt>
      <trkpt lat="44.75599" lon="4.09935">
        <ele>1107</ele>
        <time>2014-07-12T10:49:34Z</time>
      </trkpt>
      <trkpt lat="44.75632" lon="4.09939">
        <ele>1108</ele>
        <time>2014-07-12T10:49:38Z</time>
      </trkpt>
      <trkpt lat="44.75645" lon="4.09916">
        <ele>1101</ele>
        <time>2014-07-12T10:49:42Z</time>
      </trkpt>
      <trkpt lat="44.7567" lon="4.09831">
        <ele>1098</ele>
        <time>2014-07-12T10:50:00Z</time>
      </trkpt>
      <trkpt lat="44.75676" lon="4.09807">
        <ele>1099</ele>
        <time>2014-07-12T10:50:09Z</time>
      </trkpt>
      <trkpt lat="44.75678" lon="4.09782">
        <ele>1097</ele>
        <time>2014-07-12T10:50:32Z</time>
      </trkpt>
      <trkpt lat="44.75673" lon="4.09793">
        <ele>1098</ele>
        <time>2014-07-12T10:51:25Z</time>
      </trkpt>
      <trkpt lat="44.75672" lon="4.09792">
        <ele>1098</ele>
        <time>2014-07-12T10:52:29Z</time>
      </trkpt>
      <trkpt lat="44.75687" lon="4.09749">
        <ele>1086</ele>
        <time>2014-07-12T10:52:40Z</time>
      </trkpt>
      <trkpt lat="44.75704" lon="4.09717">
        <ele>1086</ele>
        <time>2014-07-12T10:52:45Z</time>
      </trkpt>
      <trkpt lat="44.75697" lon="4.0969">
        <ele>1083</ele>
        <time>2014-07-12T10:52:50Z</time>
      </trkpt>
      <trkpt lat="44.75684" lon="4.09685">
        <ele>1081</ele>
        <time>2014-07-12T10:52:52Z</time>
      </trkpt>
      <trkpt lat="44.75668" lon="4.0968">
        <ele>1078</ele>
        <time>2014-07-12T10:52:55Z</time>
      </trkpt>
      <trkpt lat="44.75661" lon="4.09672">
        <ele>1074</ele>
        <time>2014-07-12T10:52:57Z</time>
      </trkpt>
      <trkpt lat="44.75657" lon="4.09643">
        <ele>1069</ele>
        <time>2014-07-12T10:53:01Z</time>
      </trkpt>
      <trkpt lat="44.75662" lon="4.09623">
        <ele>1067</ele>
        <time>2014-07-12T10:53:04Z</time>
      </trkpt>
      <trkpt lat="44.75665" lon="4.09617">
        <ele>1066</ele>
        <time>2014-07-12T10:53:05Z</time>
      </trkpt>
      <trkpt lat="44.75662" lon="4.09604">
        <ele>1064</ele>
        <time>2014-07-12T10:53:09Z</time>
      </trkpt>
      <trkpt lat="44.75656" lon="4.09602">
        <ele>1064</ele>
        <time>2014-07-12T10:53:16Z</time>
      </trkpt>
      <trkpt lat="44.75656" lon="4.0959">
        <ele>1063</ele>
        <time>2014-07-12T10:53:21Z</time>
      </trkpt>
      <trkpt lat="44.75656" lon="4.09586">
        <ele>1062</ele>
        <time>2014-07-12T10:53:22Z</time>
      </trkpt>
      <trkpt lat="44.75658" lon="4.09578">
        <ele>1059</ele>
        <time>2014-07-12T10:53:34Z</time>
      </trkpt>
      <trkpt lat="44.75658" lon="4.09577">
        <ele>1059</ele>
        <time>2014-07-12T10:53:38Z</time>
      </trkpt>
      <trkpt lat="44.75654" lon="4.09574">
        <ele>1059</ele>
        <time>2014-07-12T10:53:40Z</time>
      </trkpt>
      <trkpt lat="44.75621" lon="4.09553">
        <ele>1057</ele>
        <time>2014-07-12T10:53:50Z</time>
      </trkpt>
      <trkpt lat="44.75573" lon="4.0952">
        <ele>1054</ele>
        <time>2014-07-12T10:54:00Z</time>
      </trkpt>
      <trkpt lat="44.75549" lon="4.09539">
        <ele>1054</ele>
        <time>2014-07-12T10:54:05Z</time>
      </trkpt>
      <trkpt lat="44.75477" lon="4.09633">
        <ele>1056</ele>
        <time>2014-07-12T10:54:23Z</time>
      </trkpt>
      <trkpt lat="44.75474" lon="4.09635">
        <ele>1056</ele>
        <time>2014-07-12T10:54:32Z</time>
      </trkpt>
      <trkpt lat="44.75472" lon="4.09634">
        <ele>1055</ele>
        <time>2014-07-12T10:54:48Z</time>
      </trkpt>
      <trkpt lat="44.75466" lon="4.09625">
        <ele>1055</ele>
        <time>2014-07-12T10:54:58Z</time>
      </trkpt>
      <trkpt lat="44.75478" lon="4.09605">
        <ele>1054</ele>
        <time>2014-07-12T10:55:13Z</time>
      </trkpt>
      <trkpt lat="44.7547" lon="4.09603">
        <ele>1054</ele>
        <time>2014-07-12T10:55:40Z</time>
      </trkpt>
      <trkpt lat="44.75475" lon="4.09601">
        <ele>1054</ele>
        <time>2014-07-12T12:40:40Z</time>
      </trkpt>
      <trkpt lat="44.75475" lon="4.09602">
        <ele>1054</ele>
        <time>2014-07-12T12:40:41Z</time>
      </trkpt>
      <trkpt lat="44.75474" lon="4.09601">
        <ele>1054</ele>
        <time>2014-07-12T12:40:51Z</time>
      </trkpt>
      <trkpt lat="44.75467" lon="4.09624">
        <ele>1055</ele>
        <time>2014-07-12T12:41:02Z</time>
      </trkpt>
      <trkpt lat="44.75452" lon="4.0965">
        <ele>1055</ele>
        <time>2014-07-12T12:41:09Z</time>
      </trkpt>
      <trkpt lat="44.75444" lon="4.09665">
        <ele>1054</ele>
        <time>2014-07-12T12:41:11Z</time>
      </trkpt>
      <trkpt lat="44.75426" lon="4.09701">
        <ele>1060</ele>
        <time>2014-07-12T12:41:16Z</time>
      </trkpt>
      <trkpt lat="44.75397" lon="4.09723">
        <ele>1058</ele>
        <time>2014-07-12T12:41:30Z</time>
      </trkpt>
      <trkpt lat="44.75348" lon="4.09782">
        <ele>1060</ele>
        <time>2014-07-12T12:42:02Z</time>
      </trkpt>
      <trkpt lat="44.75279" lon="4.09916">
        <ele>1063</ele>
        <time>2014-07-12T12:42:48Z</time>
      </trkpt>
      <trkpt lat="44.75225" lon="4.10075">
        <ele>1066</ele>
        <time>2014-07-12T12:43:42Z</time>
      </trkpt>
      <trkpt lat="44.75214" lon="4.10206">
        <ele>1063</ele>
        <time>2014-07-12T12:44:18Z</time>
      </trkpt>
      <trkpt lat="44.75187" lon="4.10264">
        <ele>1063</ele>
        <time>2014-07-12T12:44:38Z</time>
      </trkpt>
      <trkpt lat="44.75186" lon="4.10258">
        <ele>1063</ele>
        <time>2014-07-12T12:44:39Z</time>
      </trkpt>
      <trkpt lat="44.75185" lon="4.10252">
        <ele>1062</ele>
        <time>2014-07-12T12:44:40Z</time>
      </trkpt>
      <trkpt lat="44.75151" lon="4.10212">
        <ele>1073</ele>
        <time>2014-07-12T12:44:50Z</time>
      </trkpt>
      <trkpt lat="44.75154" lon="4.10143">
        <ele>1078</ele>
        <time>2014-07-12T12:45:10Z</time>
      </trkpt>
      <trkpt lat="44.75163" lon="4.10095">
        <ele>1077</ele>
        <time>2014-07-12T12:45:38Z</time>
      </trkpt>
      <trkpt lat="44.75148" lon="4.10137">
        <ele>1081</ele>
        <time>2014-07-12T12:45:59Z</time>
      </trkpt>
      <trkpt lat="44.75139" lon="4.10165">
        <ele>1080</ele>
        <time>2014-07-12T12:46:12Z</time>
      </trkpt>
      <trkpt lat="44.75119" lon="4.10214">
        <ele>1080</ele>
        <time>2014-07-12T12:46:36Z</time>
      </trkpt>
      <trkpt lat="44.75098" lon="4.10277">
        <ele>1078</ele>
        <time>2014-07-12T12:47:04Z</time>
      </trkpt>
      <trkpt lat="44.75085" lon="4.10313">
        <ele>1076</ele>
        <time>2014-07-12T12:47:18Z</time>
      </trkpt>
      <trkpt lat="44.75071" lon="4.10346">
        <ele>1085</ele>
        <time>2014-07-12T12:47:34Z</time>
      </trkpt>
      <trkpt lat="44.75049" lon="4.10388">
        <ele>1087</ele>
        <time>2014-07-12T12:47:56Z</time>
      </trkpt>
      <trkpt lat="44.75005" lon="4.10431">
        <ele>1088</ele>
        <time>2014-07-12T12:48:27Z</time>
      </trkpt>
      <trkpt lat="44.74967" lon="4.10465">
        <ele>1099</ele>
        <time>2014-07-12T12:48:52Z</time>
      </trkpt>
      <trkpt lat="44.74934" lon="4.10476">
        <ele>1103</ele>
        <time>2014-07-12T12:49:11Z</time>
      </trkpt>
      <trkpt lat="44.74955" lon="4.10456">
        <ele>1103</ele>
        <time>2014-07-12T12:49:29Z</time>
      </trkpt>
      <trkpt lat="44.7498" lon="4.10397">
        <ele>1115</ele>
        <time>2014-07-12T12:49:55Z</time>
      </trkpt>
      <trkpt lat="44.75001" lon="4.1034">
        <ele>1111</ele>
        <time>2014-07-12T12:50:21Z</time>
      </trkpt>
      <trkpt lat="44.75014" lon="4.1029">
        <ele>1110</ele>
        <time>2014-07-12T12:50:42Z</time>
      </trkpt>
      <trkpt lat="44.75018" lon="4.10247">
        <ele>1122</ele>
        <time>2014-07-12T12:51:05Z</time>
      </trkpt>
      <trkpt lat="44.75006" lon="4.10284">
        <ele>1112</ele>
        <time>2014-07-12T12:51:25Z</time>
      </trkpt>
      <trkpt lat="44.7498" lon="4.10322">
        <ele>1130</ele>
        <time>2014-07-12T12:51:50Z</time>
      </trkpt>
      <trkpt lat="44.74938" lon="4.10368">
        <ele>1127</ele>
        <time>2014-07-12T12:52:19Z</time>
      </trkpt>
      <trkpt lat="44.74911" lon="4.1038">
        <ele>1141</ele>
        <time>2014-07-12T12:52:44Z</time>
      </trkpt>
      <trkpt lat="44.74914" lon="4.10379">
        <ele>1141</ele>
        <time>2014-07-12T12:52:47Z</time>
      </trkpt>
      <trkpt lat="44.74924" lon="4.10351">
        <ele>1134</ele>
        <time>2014-07-12T12:53:00Z</time>
      </trkpt>
      <trkpt lat="44.74944" lon="4.10298">
        <ele>1139</ele>
        <time>2014-07-12T12:53:22Z</time>
      </trkpt>
      <trkpt lat="44.7495" lon="4.10247">
        <ele>1147</ele>
        <time>2014-07-12T12:53:43Z</time>
      </trkpt>
      <trkpt lat="44.74942" lon="4.10215">
        <ele>1149</ele>
        <time>2014-07-12T12:54:03Z</time>
      </trkpt>
      <trkpt lat="44.74914" lon="4.10254">
        <ele>1155</ele>
        <time>2014-07-12T12:54:30Z</time>
      </trkpt>
      <trkpt lat="44.74867" lon="4.10276">
        <ele>1158</ele>
        <time>2014-07-12T12:54:56Z</time>
      </trkpt>
      <trkpt lat="44.74844" lon="4.10269">
        <ele>1161</ele>
        <time>2014-07-12T12:55:12Z</time>
      </trkpt>
      <trkpt lat="44.74849" lon="4.10208">
        <ele>1166</ele>
        <time>2014-07-12T12:55:39Z</time>
      </trkpt>
      <trkpt lat="44.74863" lon="4.10151">
        <ele>1173</ele>
        <time>2014-07-12T12:56:02Z</time>
      </trkpt>
      <trkpt lat="44.74874" lon="4.10093">
        <ele>1175</ele>
        <time>2014-07-12T12:56:29Z</time>
      </trkpt>
      <trkpt lat="44.74881" lon="4.10026">
        <ele>1182</ele>
        <time>2014-07-12T12:56:54Z</time>
      </trkpt>
      <trkpt lat="44.74882" lon="4.09964">
        <ele>1187</ele>
        <time>2014-07-12T12:57:13Z</time>
      </trkpt>
      <trkpt lat="44.74871" lon="4.09892">
        <ele>1191</ele>
        <time>2014-07-12T12:57:41Z</time>
      </trkpt>
      <trkpt lat="44.74861" lon="4.0983">
        <ele>1194</ele>
        <time>2014-07-12T12:58:05Z</time>
      </trkpt>
      <trkpt lat="44.74863" lon="4.09763">
        <ele>1194</ele>
        <time>2014-07-12T12:58:29Z</time>
      </trkpt>
      <trkpt lat="44.74847" lon="4.09693">
        <ele>1197</ele>
        <time>2014-07-12T12:58:54Z</time>
      </trkpt>
      <trkpt lat="44.7481" lon="4.09692">
        <ele>1206</ele>
        <time>2014-07-12T12:59:16Z</time>
      </trkpt>
      <trkpt lat="44.74714" lon="4.09716">
        <ele>1212</ele>
        <time>2014-07-12T12:59:54Z</time>
      </trkpt>
      <trkpt lat="44.74676" lon="4.09677">
        <ele>1215</ele>
        <time>2014-07-12T13:00:15Z</time>
      </trkpt>
      <trkpt lat="44.74634" lon="4.09607">
        <ele>1218</ele>
        <time>2014-07-12T13:00:39Z</time>
      </trkpt>
      <trkpt lat="44.74609" lon="4.09556">
        <ele>1220</ele>
        <time>2014-07-12T13:01:14Z</time>
      </trkpt>
      <trkpt lat="44.74605" lon="4.09554">
        <ele>1220</ele>
        <time>2014-07-12T13:03:03Z</time>
      </trkpt>
      <trkpt lat="44.74606" lon="4.09552">
        <ele>1220</ele>
        <time>2014-07-12T13:04:25Z</time>
      </trkpt>
      <trkpt lat="44.74591" lon="4.09525">
        <ele>1220</ele>
        <time>2014-07-12T13:05:32Z</time>
      </trkpt>
      <trkpt lat="44.74528" lon="4.0938">
        <ele>1222</ele>
        <time>2014-07-12T13:06:08Z</time>
      </trkpt>
      <trkpt lat="44.74523" lon="4.09335">
        <ele>1224</ele>
        <time>2014-07-12T13:06:19Z</time>
      </trkpt>
      <trkpt lat="44.74526" lon="4.09263">
        <ele>1227</ele>
        <time>2014-07-12T13:06:42Z</time>
      </trkpt>
      <trkpt lat="44.74531" lon="4.09184">
        <ele>1231</ele>
        <time>2014-07-12T13:07:07Z</time>
      </trkpt>
      <trkpt lat="44.74558" lon="4.09042">
        <ele>1232</ele>
        <time>2014-07-12T13:07:43Z</time>
      </trkpt>
      <trkpt lat="44.74526" lon="4.0901">
        <ele>1232</ele>
        <time>2014-07-12T13:08:02Z</time>
      </trkpt>
      <trkpt lat="44.74448" lon="4.08979">
        <ele>1233</ele>
        <time>2014-07-12T13:08:27Z</time>
      </trkpt>
      <trkpt lat="44.74361" lon="4.08959">
        <ele>1236</ele>
        <time>2014-07-12T13:08:54Z</time>
      </trkpt>
      <trkpt lat="44.74287" lon="4.08916">
        <ele>1240</ele>
        <time>2014-07-12T13:09:22Z</time>
      </trkpt>
      <trkpt lat="44.74193" lon="4.08863">
        <ele>1238</ele>
        <time>2014-07-12T13:09:48Z</time>
      </trkpt>
      <trkpt lat="44.74157" lon="4.08782">
        <ele>1237</ele>
        <time>2014-07-12T13:10:03Z</time>
      </trkpt>
      <trkpt lat="44.74138" lon="4.08776">
        <ele>1237</ele>
        <time>2014-07-12T13:10:11Z</time>
      </trkpt>
      <trkpt lat="44.74082" lon="4.08757">
        <ele>1239</ele>
        <time>2014-07-12T13:10:34Z</time>
      </trkpt>
      <trkpt lat="44.74045" lon="4.08744">
        <ele>1242</ele>
        <time>2014-07-12T13:10:52Z</time>
      </trkpt>
      <trkpt lat="44.74034" lon="4.08744">
        <ele>1243</ele>
        <time>2014-07-12T13:10:58Z</time>
      </trkpt>
      <trkpt lat="44.74" lon="4.08756">
        <ele>1243</ele>
        <time>2014-07-12T13:11:17Z</time>
      </trkpt>
      <trkpt lat="44.73952" lon="4.0881">
        <ele>1240</ele>
        <time>2014-07-12T13:11:38Z</time>
      </trkpt>
      <trkpt lat="44.73948" lon="4.08814">
        <ele>1240</ele>
        <time>2014-07-12T13:11:39Z</time>
      </trkpt>
      <trkpt lat="44.73937" lon="4.08828">
        <ele>1239</ele>
        <time>2014-07-12T13:11:42Z</time>
      </trkpt>
      <trkpt lat="44.7392" lon="4.08852">
        <ele>1238</ele>
        <time>2014-07-12T13:11:46Z</time>
      </trkpt>
      <trkpt lat="44.739" lon="4.08857">
        <ele>1235</ele>
        <time>2014-07-12T13:11:49Z</time>
      </trkpt>
      <trkpt lat="44.7388" lon="4.08818">
        <ele>1234</ele>
        <time>2014-07-12T13:11:54Z</time>
      </trkpt>
      <trkpt lat="44.73859" lon="4.08768">
        <ele>1232</ele>
        <time>2014-07-12T13:11:59Z</time>
      </trkpt>
      <trkpt lat="44.73837" lon="4.08744">
        <ele>1230</ele>
        <time>2014-07-12T13:12:02Z</time>
      </trkpt>
      <trkpt lat="44.73819" lon="4.08737">
        <ele>1226</ele>
        <time>2014-07-12T13:12:04Z</time>
      </trkpt>
      <trkpt lat="44.7379" lon="4.08725">
        <ele>1223</ele>
        <time>2014-07-12T13:12:07Z</time>
      </trkpt>
      <trkpt lat="44.7378" lon="4.08721">
        <ele>1223</ele>
        <time>2014-07-12T13:12:08Z</time>
      </trkpt>
      <trkpt lat="44.73763" lon="4.08709">
        <ele>1222</ele>
        <time>2014-07-12T13:12:10Z</time>
      </trkpt>
      <trkpt lat="44.73747" lon="4.08679">
        <ele>1215</ele>
        <time>2014-07-12T13:12:13Z</time>
      </trkpt>
      <trkpt lat="44.73746" lon="4.08616">
        <ele>1214</ele>
        <time>2014-07-12T13:12:18Z</time>
      </trkpt>
      <trkpt lat="44.73753" lon="4.08572">
        <ele>1218</ele>
        <time>2014-07-12T13:12:22Z</time>
      </trkpt>
      <trkpt lat="44.73736" lon="4.08558">
        <ele>1218</ele>
        <time>2014-07-12T13:12:26Z</time>
      </trkpt>
      <trkpt lat="44.73676" lon="4.08559">
        <ele>1217</ele>
        <time>2014-07-12T13:12:39Z</time>
      </trkpt>
      <trkpt lat="44.73673" lon="4.08561">
        <ele>1217</ele>
        <time>2014-07-12T13:12:40Z</time>
      </trkpt>
      <trkpt lat="44.73631" lon="4.086">
        <ele>1210</ele>
        <time>2014-07-12T13:13:01Z</time>
      </trkpt>
      <trkpt lat="44.73589" lon="4.08627">
        <ele>1208</ele>
        <time>2014-07-12T13:13:12Z</time>
      </trkpt>
      <trkpt lat="44.73558" lon="4.08691">
        <ele>1197</ele>
        <time>2014-07-12T13:13:23Z</time>
      </trkpt>
      <trkpt lat="44.73515" lon="4.08743">
        <ele>1193</ele>
        <time>2014-07-12T13:13:33Z</time>
      </trkpt>
      <trkpt lat="44.73432" lon="4.08747">
        <ele>1188</ele>
        <time>2014-07-12T13:13:49Z</time>
      </trkpt>
      <trkpt lat="44.73392" lon="4.08734">
        <ele>1183</ele>
        <time>2014-07-12T13:13:56Z</time>
      </trkpt>
      <trkpt lat="44.73382" lon="4.08729">
        <ele>1182</ele>
        <time>2014-07-12T13:13:58Z</time>
      </trkpt>
      <trkpt lat="44.7337" lon="4.08722">
        <ele>1182</ele>
        <time>2014-07-12T13:14:01Z</time>
      </trkpt>
      <trkpt lat="44.73343" lon="4.08713">
        <ele>1181</ele>
        <time>2014-07-12T13:14:07Z</time>
      </trkpt>
      <trkpt lat="44.73316" lon="4.08705">
        <ele>1173</ele>
        <time>2014-07-12T13:14:11Z</time>
      </trkpt>
      <trkpt lat="44.73308" lon="4.08701">
        <ele>1173</ele>
        <time>2014-07-12T13:14:12Z</time>
      </trkpt>
      <trkpt lat="44.73272" lon="4.08683">
        <ele>1173</ele>
        <time>2014-07-12T13:14:16Z</time>
      </trkpt>
      <trkpt lat="44.73229" lon="4.0868">
        <ele>1168</ele>
        <time>2014-07-12T13:14:20Z</time>
      </trkpt>
      <trkpt lat="44.73145" lon="4.08726">
        <ele>1155</ele>
        <time>2014-07-12T13:14:28Z</time>
      </trkpt>
      <trkpt lat="44.7311" lon="4.08726">
        <ele>1152</ele>
        <time>2014-07-12T13:14:32Z</time>
      </trkpt>
      <trkpt lat="44.73104" lon="4.08686">
        <ele>1155</ele>
        <time>2014-07-12T13:14:37Z</time>
      </trkpt>
      <trkpt lat="44.73075" lon="4.0866">
        <ele>1155</ele>
        <time>2014-07-12T13:14:42Z</time>
      </trkpt>
      <trkpt lat="44.73034" lon="4.08666">
        <ele>1153</ele>
        <time>2014-07-12T13:14:47Z</time>
      </trkpt>
      <trkpt lat="44.72998" lon="4.0868">
        <ele>1141</ele>
        <time>2014-07-12T13:14:52Z</time>
      </trkpt>
      <trkpt lat="44.72959" lon="4.08667">
        <ele>1143</ele>
        <time>2014-07-12T13:14:58Z</time>
      </trkpt>
      <trkpt lat="44.72934" lon="4.08704">
        <ele>1136</ele>
        <time>2014-07-12T13:15:04Z</time>
      </trkpt>
      <trkpt lat="44.72945" lon="4.08721">
        <ele>1135</ele>
        <time>2014-07-12T13:15:09Z</time>
      </trkpt>
      <trkpt lat="44.72942" lon="4.08741">
        <ele>1134</ele>
        <time>2014-07-12T13:15:14Z</time>
      </trkpt>
      <trkpt lat="44.72936" lon="4.08745">
        <ele>1133</ele>
        <time>2014-07-12T13:15:15Z</time>
      </trkpt>
      <trkpt lat="44.72902" lon="4.08767">
        <ele>1127</ele>
        <time>2014-07-12T13:15:20Z</time>
      </trkpt>
      <trkpt lat="44.72874" lon="4.08777">
        <ele>1125</ele>
        <time>2014-07-12T13:15:25Z</time>
      </trkpt>
      <trkpt lat="44.72866" lon="4.08799">
        <ele>1124</ele>
        <time>2014-07-12T13:15:30Z</time>
      </trkpt>
      <trkpt lat="44.7284" lon="4.08854">
        <ele>1123</ele>
        <time>2014-07-12T13:15:50Z</time>
      </trkpt>
      <trkpt lat="44.72811" lon="4.08892">
        <ele>1127</ele>
        <time>2014-07-12T13:16:10Z</time>
      </trkpt>
      <trkpt lat="44.72742" lon="4.08868">
        <ele>1135</ele>
        <time>2014-07-12T13:16:44Z</time>
      </trkpt>
      <trkpt lat="44.72713" lon="4.08868">
        <ele>1137</ele>
        <time>2014-07-12T13:17:03Z</time>
      </trkpt>
      <trkpt lat="44.72686" lon="4.0886">
        <ele>1139</ele>
        <time>2014-07-12T13:17:18Z</time>
      </trkpt>
      <trkpt lat="44.72677" lon="4.08861">
        <ele>1140</ele>
        <time>2014-07-12T13:17:25Z</time>
      </trkpt>
      <trkpt lat="44.72668" lon="4.08866">
        <ele>1140</ele>
        <time>2014-07-12T13:18:02Z</time>
      </trkpt>
      <trkpt lat="44.72653" lon="4.08876">
        <ele>1153</ele>
        <time>2014-07-12T13:18:31Z</time>
      </trkpt>
      <trkpt lat="44.72637" lon="4.08875">
        <ele>1155</ele>
        <time>2014-07-12T13:18:52Z</time>
      </trkpt>
      <trkpt lat="44.72628" lon="4.08875">
        <ele>1156</ele>
        <time>2014-07-12T13:19:15Z</time>
      </trkpt>
      <trkpt lat="44.72628" lon="4.08875">
        <ele>1156</ele>
        <time>2014-07-12T13:19:18Z</time>
      </trkpt>
      <trkpt lat="44.72613" lon="4.08885">
        <ele>1159</ele>
        <time>2014-07-12T13:19:45Z</time>
      </trkpt>
      <trkpt lat="44.72596" lon="4.08894">
        <ele>1163</ele>
        <time>2014-07-12T13:20:14Z</time>
      </trkpt>
      <trkpt lat="44.72589" lon="4.08899">
        <ele>1165</ele>
        <time>2014-07-12T13:20:30Z</time>
      </trkpt>
      <trkpt lat="44.72575" lon="4.08912">
        <ele>1173</ele>
        <time>2014-07-12T13:20:57Z</time>
      </trkpt>
      <trkpt lat="44.72564" lon="4.08932">
        <ele>1182</ele>
        <time>2014-07-12T13:21:25Z</time>
      </trkpt>
      <trkpt lat="44.72555" lon="4.08946">
        <ele>1185</ele>
        <time>2014-07-12T13:21:43Z</time>
      </trkpt>
      <trkpt lat="44.72546" lon="4.08963">
        <ele>1188</ele>
        <time>2014-07-12T13:22:08Z</time>
      </trkpt>
      <trkpt lat="44.72537" lon="4.08967">
        <ele>1189</ele>
        <time>2014-07-12T13:23:31Z</time>
      </trkpt>
      <trkpt lat="44.72525" lon="4.08982">
        <ele>1193</ele>
        <time>2014-07-12T13:25:05Z</time>
      </trkpt>
      <trkpt lat="44.72496" lon="4.08998">
        <ele>1206</ele>
        <time>2014-07-12T13:25:23Z</time>
      </trkpt>
      <trkpt lat="44.72485" lon="4.09009">
        <ele>1212</ele>
        <time>2014-07-12T13:25:35Z</time>
      </trkpt>
      <trkpt lat="44.72471" lon="4.09017">
        <ele>1214</ele>
        <time>2014-07-12T13:25:48Z</time>
      </trkpt>
      <trkpt lat="44.72459" lon="4.09028">
        <ele>1215</ele>
        <time>2014-07-12T13:26:18Z</time>
      </trkpt>
      <trkpt lat="44.72448" lon="4.09046">
        <ele>1217</ele>
        <time>2014-07-12T13:26:42Z</time>
      </trkpt>
      <trkpt lat="44.72435" lon="4.09055">
        <ele>1219</ele>
        <time>2014-07-12T13:26:57Z</time>
      </trkpt>
      <trkpt lat="44.72421" lon="4.09068">
        <ele>1222</ele>
        <time>2014-07-12T13:27:27Z</time>
      </trkpt>
      <trkpt lat="44.72401" lon="4.09073">
        <ele>1224</ele>
        <time>2014-07-12T13:28:42Z</time>
      </trkpt>
      <trkpt lat="44.72335" lon="4.09105">
        <ele>1233</ele>
        <time>2014-07-12T13:29:07Z</time>
      </trkpt>
      <trkpt lat="44.72286" lon="4.0914">
        <ele>1238</ele>
        <time>2014-07-12T13:29:25Z</time>
      </trkpt>
      <trkpt lat="44.72256" lon="4.09093">
        <ele>1232</ele>
        <time>2014-07-12T13:29:42Z</time>
      </trkpt>
      <trkpt lat="44.72188" lon="4.09117">
        <ele>1239</ele>
        <time>2014-07-12T13:30:09Z</time>
      </trkpt>
      <trkpt lat="44.72132" lon="4.09127">
        <ele>1248</ele>
        <time>2014-07-12T13:30:33Z</time>
      </trkpt>
      <trkpt lat="44.72126" lon="4.09074">
        <ele>1236</ele>
        <time>2014-07-12T13:30:49Z</time>
      </trkpt>
      <trkpt lat="44.72118" lon="4.09051">
        <ele>1236</ele>
        <time>2014-07-12T13:30:57Z</time>
      </trkpt>
      <trkpt lat="44.72084" lon="4.09003">
        <ele>1238</ele>
        <time>2014-07-12T13:31:16Z</time>
      </trkpt>
      <trkpt lat="44.72029" lon="4.09015">
        <ele>1246</ele>
        <time>2014-07-12T13:31:41Z</time>
      </trkpt>
      <trkpt lat="44.72" lon="4.09039">
        <ele>1250</ele>
        <time>2014-07-12T13:31:54Z</time>
      </trkpt>
      <trkpt lat="44.7191" lon="4.09066">
        <ele>1254</ele>
        <time>2014-07-12T13:32:24Z</time>
      </trkpt>
      <trkpt lat="44.71822" lon="4.09097">
        <ele>1261</ele>
        <time>2014-07-12T13:32:54Z</time>
      </trkpt>
      <trkpt lat="44.71782" lon="4.09131">
        <ele>1266</ele>
        <time>2014-07-12T13:33:06Z</time>
      </trkpt>
      <trkpt lat="44.71768" lon="4.09104">
        <ele>1266</ele>
        <time>2014-07-12T13:33:13Z</time>
      </trkpt>
      <trkpt lat="44.7177" lon="4.09095">
        <ele>1266</ele>
        <time>2014-07-12T13:33:15Z</time>
      </trkpt>
      <trkpt lat="44.71807" lon="4.08966">
        <ele>1267</ele>
        <time>2014-07-12T13:33:46Z</time>
      </trkpt>
      <trkpt lat="44.71839" lon="4.08839">
        <ele>1259</ele>
        <time>2014-07-12T13:34:13Z</time>
      </trkpt>
      <trkpt lat="44.71839" lon="4.08773">
        <ele>1251</ele>
        <time>2014-07-12T13:34:27Z</time>
      </trkpt>
      <trkpt lat="44.71788" lon="4.08662">
        <ele>1258</ele>
        <time>2014-07-12T13:34:55Z</time>
      </trkpt>
      <trkpt lat="44.71742" lon="4.08605">
        <ele>1269</ele>
        <time>2014-07-12T13:35:17Z</time>
      </trkpt>
      <trkpt lat="44.71705" lon="4.08569">
        <ele>1258</ele>
        <time>2014-07-12T13:35:31Z</time>
      </trkpt>
      <trkpt lat="44.71667" lon="4.08558">
        <ele>1261</ele>
        <time>2014-07-12T13:35:42Z</time>
      </trkpt>
      <trkpt lat="44.71649" lon="4.08552">
        <ele>1277</ele>
        <time>2014-07-12T13:35:47Z</time>
      </trkpt>
      <trkpt lat="44.71633" lon="4.08514">
        <ele>1275</ele>
        <time>2014-07-12T13:35:55Z</time>
      </trkpt>
      <trkpt lat="44.71617" lon="4.08297">
        <ele>1260</ele>
        <time>2014-07-12T13:36:34Z</time>
      </trkpt>
      <trkpt lat="44.71613" lon="4.08235">
        <ele>1257</ele>
        <time>2014-07-12T13:36:46Z</time>
      </trkpt>
      <trkpt lat="44.7156" lon="4.08209">
        <ele>1265</ele>
        <time>2014-07-12T13:37:09Z</time>
      </trkpt>
      <trkpt lat="44.71488" lon="4.08239">
        <ele>1271</ele>
        <time>2014-07-12T13:37:35Z</time>
      </trkpt>
      <trkpt lat="44.71442" lon="4.08246">
        <ele>1271</ele>
        <time>2014-07-12T13:37:59Z</time>
      </trkpt>
      <trkpt lat="44.71343" lon="4.08198">
        <ele>1272</ele>
        <time>2014-07-12T13:38:43Z</time>
      </trkpt>
      <trkpt lat="44.71257" lon="4.08249">
        <ele>1280</ele>
        <time>2014-07-12T13:39:13Z</time>
      </trkpt>
      <trkpt lat="44.71178" lon="4.08271">
        <ele>1291</ele>
        <time>2014-07-12T13:39:40Z</time>
      </trkpt>
      <trkpt lat="44.71159" lon="4.08183">
        <ele>1292</ele>
        <time>2014-07-12T13:40:02Z</time>
      </trkpt>
      <trkpt lat="44.71156" lon="4.08116">
        <ele>1288</ele>
        <time>2014-07-12T13:40:33Z</time>
      </trkpt>
      <trkpt lat="44.71124" lon="4.08041">
        <ele>1278</ele>
        <time>2014-07-12T13:40:58Z</time>
      </trkpt>
      <trkpt lat="44.71115" lon="4.08036">
        <ele>1278</ele>
        <time>2014-07-12T13:41:28Z</time>
      </trkpt>
      <trkpt lat="44.71111" lon="4.08035">
        <ele>1278</ele>
        <time>2014-07-12T13:43:00Z</time>
      </trkpt>
      <trkpt lat="44.71068" lon="4.08044">
        <ele>1279</ele>
        <time>2014-07-12T13:43:14Z</time>
      </trkpt>
      <trkpt lat="44.7103" lon="4.08064">
        <ele>1278</ele>
        <time>2014-07-12T13:43:23Z</time>
      </trkpt>
      <trkpt lat="44.70985" lon="4.08103">
        <ele>1278</ele>
        <time>2014-07-12T13:43:33Z</time>
      </trkpt>
      <trkpt lat="44.70962" lon="4.08128">
        <ele>1278</ele>
        <time>2014-07-12T13:43:41Z</time>
      </trkpt>
      <trkpt lat="44.7096" lon="4.08142">
        <ele>1279</ele>
        <time>2014-07-12T13:43:46Z</time>
      </trkpt>
      <trkpt lat="44.70954" lon="4.08164">
        <ele>1279</ele>
        <time>2014-07-12T13:43:56Z</time>
      </trkpt>
      <trkpt lat="44.70945" lon="4.08208">
        <ele>1289</ele>
        <time>2014-07-12T13:44:16Z</time>
      </trkpt>
      <trkpt lat="44.70911" lon="4.0827">
        <ele>1292</ele>
        <time>2014-07-12T13:44:47Z</time>
      </trkpt>
      <trkpt lat="44.70912" lon="4.08282">
        <ele>1293</ele>
        <time>2014-07-12T13:44:52Z</time>
      </trkpt>
      <trkpt lat="44.70887" lon="4.08308">
        <ele>1294</ele>
        <time>2014-07-12T13:45:10Z</time>
      </trkpt>
      <trkpt lat="44.70871" lon="4.0832">
        <ele>1294</ele>
        <time>2014-07-12T13:45:17Z</time>
      </trkpt>
      <trkpt lat="44.70869" lon="4.08322">
        <ele>1294</ele>
        <time>2014-07-12T13:45:18Z</time>
      </trkpt>
      <trkpt lat="44.70843" lon="4.08336">
        <ele>1295</ele>
        <time>2014-07-12T13:45:30Z</time>
      </trkpt>
      <trkpt lat="44.70813" lon="4.08363">
        <ele>1293</ele>
        <time>2014-07-12T13:45:47Z</time>
      </trkpt>
      <trkpt lat="44.7079" lon="4.08409">
        <ele>1293</ele>
        <time>2014-07-12T13:46:08Z</time>
      </trkpt>
      <trkpt lat="44.70766" lon="4.08413">
        <ele>1291</ele>
        <time>2014-07-12T13:46:22Z</time>
      </trkpt>
      <trkpt lat="44.70716" lon="4.08314">
        <ele>1289</ele>
        <time>2014-07-12T13:46:52Z</time>
      </trkpt>
      <trkpt lat="44.70671" lon="4.08216">
        <ele>1290</ele>
        <time>2014-07-12T13:47:20Z</time>
      </trkpt>
      <trkpt lat="44.7066" lon="4.08122">
        <ele>1296</ele>
        <time>2014-07-12T13:47:46Z</time>
      </trkpt>
      <trkpt lat="44.70655" lon="4.08085">
        <ele>1297</ele>
        <time>2014-07-12T13:47:56Z</time>
      </trkpt>
      <trkpt lat="44.70648" lon="4.08067">
        <ele>1299</ele>
        <time>2014-07-12T13:48:02Z</time>
      </trkpt>
      <trkpt lat="44.70593" lon="4.08005">
        <ele>1304</ele>
        <time>2014-07-12T13:48:40Z</time>
      </trkpt>
      <trkpt lat="44.70568" lon="4.07991">
        <ele>1310</ele>
        <time>2014-07-12T13:48:52Z</time>
      </trkpt>
      <trkpt lat="44.70519" lon="4.07966">
        <ele>1315</ele>
        <time>2014-07-12T13:49:17Z</time>
      </trkpt>
      <trkpt lat="44.70499" lon="4.07953">
        <ele>1320</ele>
        <time>2014-07-12T13:49:26Z</time>
      </trkpt>
      <trkpt lat="44.70468" lon="4.07942">
        <ele>1321</ele>
        <time>2014-07-12T13:49:47Z</time>
      </trkpt>
      <trkpt lat="44.70458" lon="4.07923">
        <ele>1322</ele>
        <time>2014-07-12T13:50:01Z</time>
      </trkpt>
      <trkpt lat="44.70453" lon="4.07917">
        <ele>1322</ele>
        <time>2014-07-12T13:50:06Z</time>
      </trkpt>
      <trkpt lat="44.70429" lon="4.07885">
        <ele>1328</ele>
        <time>2014-07-12T13:50:26Z</time>
      </trkpt>
      <trkpt lat="44.70389" lon="4.07833">
        <ele>1335</ele>
        <time>2014-07-12T13:50:56Z</time>
      </trkpt>
      <trkpt lat="44.70358" lon="4.07788">
        <ele>1337</ele>
        <time>2014-07-12T13:51:21Z</time>
      </trkpt>
      <trkpt lat="44.70298" lon="4.07648">
        <ele>1338</ele>
        <time>2014-07-12T13:52:10Z</time>
      </trkpt>
      <trkpt lat="44.70222" lon="4.07483">
        <ele>1332</ele>
        <time>2014-07-12T13:52:55Z</time>
      </trkpt>
      <trkpt lat="44.70199" lon="4.07434">
        <ele>1330</ele>
        <time>2014-07-12T13:53:04Z</time>
      </trkpt>
      <trkpt lat="44.70103" lon="4.07245">
        <ele>1329</ele>
        <time>2014-07-12T13:53:49Z</time>
      </trkpt>
      <trkpt lat="44.7005" lon="4.0713">
        <ele>1331</ele>
        <time>2014-07-12T13:54:23Z</time>
      </trkpt>
      <trkpt lat="44.69992" lon="4.07007">
        <ele>1336</ele>
        <time>2014-07-12T13:55:00Z</time>
      </trkpt>
      <trkpt lat="44.6994" lon="4.06918">
        <ele>1338</ele>
        <time>2014-07-12T13:55:33Z</time>
      </trkpt>
      <trkpt lat="44.69938" lon="4.06914">
        <ele>1339</ele>
        <time>2014-07-12T13:55:34Z</time>
      </trkpt>
      <trkpt lat="44.6991" lon="4.06867">
        <ele>1337</ele>
        <time>2014-07-12T13:55:43Z</time>
      </trkpt>
      <trkpt lat="44.69906" lon="4.06862">
        <ele>1337</ele>
        <time>2014-07-12T13:55:44Z</time>
      </trkpt>
      <trkpt lat="44.69859" lon="4.0676">
        <ele>1340</ele>
        <time>2014-07-12T13:56:11Z</time>
      </trkpt>
      <trkpt lat="44.69844" lon="4.06702">
        <ele>1341</ele>
        <time>2014-07-12T13:56:25Z</time>
      </trkpt>
      <trkpt lat="44.69841" lon="4.06693">
        <ele>1341</ele>
        <time>2014-07-12T13:56:27Z</time>
      </trkpt>
      <trkpt lat="44.69823" lon="4.06631">
        <ele>1347</ele>
        <time>2014-07-12T13:56:52Z</time>
      </trkpt>
      <trkpt lat="44.69807" lon="4.06597">
        <ele>1347</ele>
        <time>2014-07-12T13:57:08Z</time>
      </trkpt>
      <trkpt lat="44.69773" lon="4.0655">
        <ele>1349</ele>
        <time>2014-07-12T13:57:34Z</time>
      </trkpt>
      <trkpt lat="44.69759" lon="4.06525">
        <ele>1350</ele>
        <time>2014-07-12T13:57:48Z</time>
      </trkpt>
      <trkpt lat="44.6975" lon="4.0651">
        <ele>1350</ele>
        <time>2014-07-12T13:57:57Z</time>
      </trkpt>
      <trkpt lat="44.6974" lon="4.06491">
        <ele>1350</ele>
        <time>2014-07-12T13:58:07Z</time>
      </trkpt>
      <trkpt lat="44.69719" lon="4.06451">
        <ele>1350</ele>
        <time>2014-07-12T13:58:22Z</time>
      </trkpt>
      <trkpt lat="44.69719" lon="4.06378">
        <ele>1350</ele>
        <time>2014-07-12T13:58:49Z</time>
      </trkpt>
      <trkpt lat="44.6974" lon="4.06216">
        <ele>1351</ele>
        <time>2014-07-12T13:59:37Z</time>
      </trkpt>
      <trkpt lat="44.69764" lon="4.06086">
        <ele>1354</ele>
        <time>2014-07-12T14:00:19Z</time>
      </trkpt>
      <trkpt lat="44.69778" lon="4.06062">
        <ele>1355</ele>
        <time>2014-07-12T14:00:32Z</time>
      </trkpt>
      <trkpt lat="44.69794" lon="4.06032">
        <ele>1355</ele>
        <time>2014-07-12T14:01:07Z</time>
      </trkpt>
      <trkpt lat="44.69796" lon="4.06032">
        <ele>1355</ele>
        <time>2014-07-12T14:02:37Z</time>
      </trkpt>
      <trkpt lat="44.698" lon="4.06034">
        <ele>1355</ele>
        <time>2014-07-12T14:04:35Z</time>
      </trkpt>
      <trkpt lat="44.69796" lon="4.06031">
        <ele>1355</ele>
        <time>2014-07-12T14:05:50Z</time>
      </trkpt>
      <trkpt lat="44.69795" lon="4.06037">
        <ele>1355</ele>
        <time>2014-07-12T14:08:42Z</time>
      </trkpt>
      <trkpt lat="44.69795" lon="4.06035">
        <ele>1355</ele>
        <time>2014-07-12T14:12:14Z</time>
      </trkpt>
      <trkpt lat="44.69792" lon="4.06036">
        <ele>1355</ele>
        <time>2014-07-12T14:15:03Z</time>
      </trkpt>
      <trkpt lat="44.69792" lon="4.06035">
        <ele>1355</ele>
        <time>2014-07-12T14:17:34Z</time>
      </trkpt>
      <trkpt lat="44.69792" lon="4.06032">
        <ele>1355</ele>
        <time>2014-07-12T14:20:52Z</time>
      </trkpt>
      <trkpt lat="44.69797" lon="4.06001">
        <ele>1355</ele>
        <time>2014-07-12T14:21:05Z</time>
      </trkpt>
      <trkpt lat="44.69806" lon="4.05925">
        <ele>1356</ele>
        <time>2014-07-12T14:21:34Z</time>
      </trkpt>
      <trkpt lat="44.69804" lon="4.0592">
        <ele>1356</ele>
        <time>2014-07-12T14:21:41Z</time>
      </trkpt>
      <trkpt lat="44.69808" lon="4.05876">
        <ele>1356</ele>
        <time>2014-07-12T14:22:19Z</time>
      </trkpt>
      <trkpt lat="44.69815" lon="4.05826">
        <ele>1355</ele>
        <time>2014-07-12T14:22:56Z</time>
      </trkpt>
      <trkpt lat="44.69823" lon="4.05732">
        <ele>1354</ele>
        <time>2014-07-12T14:23:24Z</time>
      </trkpt>
      <trkpt lat="44.6983" lon="4.05711">
        <ele>1354</ele>
        <time>2014-07-12T14:23:31Z</time>
      </trkpt>
      <trkpt lat="44.69921" lon="4.05549">
        <ele>1353</ele>
        <time>2014-07-12T14:24:05Z</time>
      </trkpt>
      <trkpt lat="44.6995" lon="4.05479">
        <ele>1354</ele>
        <time>2014-07-12T14:24:18Z</time>
      </trkpt>
      <trkpt lat="44.69974" lon="4.05384">
        <ele>1360</ele>
        <time>2014-07-12T14:24:45Z</time>
      </trkpt>
      <trkpt lat="44.69962" lon="4.05341">
        <ele>1363</ele>
        <time>2014-07-12T14:25:01Z</time>
      </trkpt>
      <trkpt lat="44.69947" lon="4.05323">
        <ele>1371</ele>
        <time>2014-07-12T14:25:13Z</time>
      </trkpt>
      <trkpt lat="44.69924" lon="4.05295">
        <ele>1373</ele>
        <time>2014-07-12T14:25:35Z</time>
      </trkpt>
      <trkpt lat="44.69914" lon="4.05271">
        <ele>1372</ele>
        <time>2014-07-12T14:25:49Z</time>
      </trkpt>
      <trkpt lat="44.69908" lon="4.05251">
        <ele>1375</ele>
        <time>2014-07-12T14:26:03Z</time>
      </trkpt>
      <trkpt lat="44.69905" lon="4.05231">
        <ele>1379</ele>
        <time>2014-07-12T14:26:35Z</time>
      </trkpt>
      <trkpt lat="44.69901" lon="4.0523">
        <ele>1379</ele>
        <time>2014-07-12T14:27:10Z</time>
      </trkpt>
      <trkpt lat="44.69853" lon="4.05159">
        <ele>1384</ele>
        <time>2014-07-12T14:27:37Z</time>
      </trkpt>
      <trkpt lat="44.69752" lon="4.05007">
        <ele>1385</ele>
        <time>2014-07-12T14:28:23Z</time>
      </trkpt>
      <trkpt lat="44.69675" lon="4.04885">
        <ele>1391</ele>
        <time>2014-07-12T14:28:54Z</time>
      </trkpt>
      <trkpt lat="44.69662" lon="4.04857">
        <ele>1382</ele>
        <time>2014-07-12T14:29:01Z</time>
      </trkpt>
      <trkpt lat="44.6966" lon="4.04785">
        <ele>1387</ele>
        <time>2014-07-12T14:29:18Z</time>
      </trkpt>
      <trkpt lat="44.69657" lon="4.04729">
        <ele>1394</ele>
        <time>2014-07-12T14:29:32Z</time>
      </trkpt>
      <trkpt lat="44.69649" lon="4.04559">
        <ele>1399</ele>
        <time>2014-07-12T14:30:16Z</time>
      </trkpt>
      <trkpt lat="44.69649" lon="4.04511">
        <ele>1399</ele>
        <time>2014-07-12T14:30:27Z</time>
      </trkpt>
      <trkpt lat="44.69649" lon="4.04506">
        <ele>1400</ele>
        <time>2014-07-12T14:30:28Z</time>
      </trkpt>
      <trkpt lat="44.69626" lon="4.04401">
        <ele>1394</ele>
        <time>2014-07-12T14:30:41Z</time>
      </trkpt>
      <trkpt lat="44.69607" lon="4.04363">
        <ele>1393</ele>
        <time>2014-07-12T14:30:47Z</time>
      </trkpt>
      <trkpt lat="44.69594" lon="4.04341">
        <ele>1392</ele>
        <time>2014-07-12T14:30:53Z</time>
      </trkpt>
      <trkpt lat="44.6958" lon="4.04312">
        <ele>1390</ele>
        <time>2014-07-12T14:30:59Z</time>
      </trkpt>
      <trkpt lat="44.69591" lon="4.0423">
        <ele>1385</ele>
        <time>2014-07-12T14:31:11Z</time>
      </trkpt>
      <trkpt lat="44.69586" lon="4.04154">
        <ele>1380</ele>
        <time>2014-07-12T14:31:21Z</time>
      </trkpt>
      <trkpt lat="44.6957" lon="4.04058">
        <ele>1373</ele>
        <time>2014-07-12T14:31:33Z</time>
      </trkpt>
      <trkpt lat="44.69565" lon="4.04019">
        <ele>1370</ele>
        <time>2014-07-12T14:31:37Z</time>
      </trkpt>
      <trkpt lat="44.69562" lon="4.03977">
        <ele>1364</ele>
        <time>2014-07-12T14:31:43Z</time>
      </trkpt>
      <trkpt lat="44.69558" lon="4.03911">
        <ele>1357</ele>
        <time>2014-07-12T14:31:51Z</time>
      </trkpt>
      <trkpt lat="44.69556" lon="4.03893">
        <ele>1357</ele>
        <time>2014-07-12T14:31:53Z</time>
      </trkpt>
      <trkpt lat="44.69546" lon="4.03796">
        <ele>1353</ele>
        <time>2014-07-12T14:32:04Z</time>
      </trkpt>
      <trkpt lat="44.69543" lon="4.03703">
        <ele>1348</ele>
        <time>2014-07-12T14:32:14Z</time>
      </trkpt>
      <trkpt lat="44.6954" lon="4.03608">
        <ele>1344</ele>
        <time>2014-07-12T14:32:23Z</time>
      </trkpt>
      <trkpt lat="44.69538" lon="4.03525">
        <ele>1340</ele>
        <time>2014-07-12T14:32:31Z</time>
      </trkpt>
      <trkpt lat="44.69534" lon="4.0347">
        <ele>1335</ele>
        <time>2014-07-12T14:32:36Z</time>
      </trkpt>
      <trkpt lat="44.69528" lon="4.03411">
        <ele>1329</ele>
        <time>2014-07-12T14:32:41Z</time>
      </trkpt>
      <trkpt lat="44.69523" lon="4.03377">
        <ele>1328</ele>
        <time>2014-07-12T14:32:45Z</time>
      </trkpt>
      <trkpt lat="44.69526" lon="4.03335">
        <ele>1326</ele>
        <time>2014-07-12T14:32:51Z</time>
      </trkpt>
      <trkpt lat="44.69531" lon="4.03306">
        <ele>1319</ele>
        <time>2014-07-12T14:32:57Z</time>
      </trkpt>
      <trkpt lat="44.69533" lon="4.03296">
        <ele>1318</ele>
        <time>2014-07-12T14:33:09Z</time>
      </trkpt>
      <trkpt lat="44.69528" lon="4.0329">
        <ele>1318</ele>
        <time>2014-07-12T14:34:14Z</time>
      </trkpt>
      <trkpt lat="44.69561" lon="4.03289">
        <ele>1318</ele>
        <time>2014-07-12T14:34:26Z</time>
      </trkpt>
      <trkpt lat="44.69577" lon="4.03296">
        <ele>1319</ele>
        <time>2014-07-12T14:34:30Z</time>
      </trkpt>
      <trkpt lat="44.69612" lon="4.03324">
        <ele>1323</ele>
        <time>2014-07-12T14:34:38Z</time>
      </trkpt>
      <trkpt lat="44.69639" lon="4.03305">
        <ele>1322</ele>
        <time>2014-07-12T14:34:44Z</time>
      </trkpt>
      <trkpt lat="44.69633" lon="4.03277">
        <ele>1322</ele>
        <time>2014-07-12T14:34:47Z</time>
      </trkpt>
      <trkpt lat="44.69602" lon="4.032">
        <ele>1314</ele>
        <time>2014-07-12T14:34:55Z</time>
      </trkpt>
      <trkpt lat="44.69601" lon="4.03043">
        <ele>1303</ele>
        <time>2014-07-12T14:35:07Z</time>
      </trkpt>
      <trkpt lat="44.69646" lon="4.02935">
        <ele>1297</ele>
        <time>2014-07-12T14:35:16Z</time>
      </trkpt>
      <trkpt lat="44.69667" lon="4.02889">
        <ele>1302</ele>
        <time>2014-07-12T14:35:20Z</time>
      </trkpt>
      <trkpt lat="44.69711" lon="4.02768">
        <ele>1292</ele>
        <time>2014-07-12T14:35:30Z</time>
      </trkpt>
      <trkpt lat="44.69769" lon="4.02604">
        <ele>1292</ele>
        <time>2014-07-12T14:35:47Z</time>
      </trkpt>
      <trkpt lat="44.69787" lon="4.02561">
        <ele>1288</ele>
        <time>2014-07-12T14:35:52Z</time>
      </trkpt>
      <trkpt lat="44.6979" lon="4.02552">
        <ele>1288</ele>
        <time>2014-07-12T14:35:53Z</time>
      </trkpt>
      <trkpt lat="44.69801" lon="4.02474">
        <ele>1282</ele>
        <time>2014-07-12T14:36:00Z</time>
      </trkpt>
      <trkpt lat="44.69785" lon="4.02376">
        <ele>1278</ele>
        <time>2014-07-12T14:36:08Z</time>
      </trkpt>
      <trkpt lat="44.69768" lon="4.02312">
        <ele>1276</ele>
        <time>2014-07-12T14:36:13Z</time>
      </trkpt>
      <trkpt lat="44.69756" lon="4.02259">
        <ele>1272</ele>
        <time>2014-07-12T14:36:17Z</time>
      </trkpt>
      <trkpt lat="44.6975" lon="4.02206">
        <ele>1266</ele>
        <time>2014-07-12T14:36:21Z</time>
      </trkpt>
      <trkpt lat="44.69754" lon="4.02157">
        <ele>1268</ele>
        <time>2014-07-12T14:36:25Z</time>
      </trkpt>
      <trkpt lat="44.69763" lon="4.02128">
        <ele>1268</ele>
        <time>2014-07-12T14:36:28Z</time>
      </trkpt>
      <trkpt lat="44.69764" lon="4.02097">
        <ele>1266</ele>
        <time>2014-07-12T14:36:34Z</time>
      </trkpt>
      <trkpt lat="44.69762" lon="4.02081">
        <ele>1262</ele>
        <time>2014-07-12T14:36:50Z</time>
      </trkpt>
      <trkpt lat="44.6976" lon="4.02082">
        <ele>1262</ele>
        <time>2014-07-12T14:37:20Z</time>
      </trkpt>
      <trkpt lat="44.69757" lon="4.02084">
        <ele>1264</ele>
        <time>2014-07-12T14:37:22Z</time>
      </trkpt>
      <trkpt lat="44.69718" lon="4.02094">
        <ele>1262</ele>
        <time>2014-07-12T14:37:31Z</time>
      </trkpt>
      <trkpt lat="44.69706" lon="4.02099">
        <ele>1262</ele>
        <time>2014-07-12T14:37:33Z</time>
      </trkpt>
      <trkpt lat="44.69663" lon="4.02078">
        <ele>1258</ele>
        <time>2014-07-12T14:37:39Z</time>
      </trkpt>
      <trkpt lat="44.69656" lon="4.02074">
        <ele>1257</ele>
        <time>2014-07-12T14:37:40Z</time>
      </trkpt>
      <trkpt lat="44.69649" lon="4.0207">
        <ele>1257</ele>
        <time>2014-07-12T14:37:41Z</time>
      </trkpt>
      <trkpt lat="44.69606" lon="4.02039">
        <ele>1257</ele>
        <time>2014-07-12T14:37:50Z</time>
      </trkpt>
      <trkpt lat="44.69524" lon="4.01994">
        <ele>1262</ele>
        <time>2014-07-12T14:38:16Z</time>
      </trkpt>
      <trkpt lat="44.69472" lon="4.01969">
        <ele>1268</ele>
        <time>2014-07-12T14:38:49Z</time>
      </trkpt>
      <trkpt lat="44.69451" lon="4.01963">
        <ele>1269</ele>
        <time>2014-07-12T14:39:01Z</time>
      </trkpt>
      <trkpt lat="44.69425" lon="4.01965">
        <ele>1270</ele>
        <time>2014-07-12T14:39:15Z</time>
      </trkpt>
      <trkpt lat="44.69377" lon="4.01985">
        <ele>1277</ele>
        <time>2014-07-12T14:39:37Z</time>
      </trkpt>
      <trkpt lat="44.6928" lon="4.01956">
        <ele>1281</ele>
        <time>2014-07-12T14:40:14Z</time>
      </trkpt>
      <trkpt lat="44.69161" lon="4.01998">
        <ele>1284</ele>
        <time>2014-07-12T14:40:49Z</time>
      </trkpt>
      <trkpt lat="44.69005" lon="4.02063">
        <ele>1292</ele>
        <time>2014-07-12T14:41:26Z</time>
      </trkpt>
      <trkpt lat="44.68936" lon="4.02087">
        <ele>1296</ele>
        <time>2014-07-12T14:41:54Z</time>
      </trkpt>
      <trkpt lat="44.68872" lon="4.02088">
        <ele>1306</ele>
        <time>2014-07-12T14:42:25Z</time>
      </trkpt>
      <trkpt lat="44.68843" lon="4.02088">
        <ele>1310</ele>
        <time>2014-07-12T14:42:46Z</time>
      </trkpt>
      <trkpt lat="44.68823" lon="4.02084">
        <ele>1314</ele>
        <time>2014-07-12T14:43:17Z</time>
      </trkpt>
      <trkpt lat="44.6879" lon="4.02071">
        <ele>1319</ele>
        <time>2014-07-12T14:43:44Z</time>
      </trkpt>
      <trkpt lat="44.6878" lon="4.0207">
        <ele>1319</ele>
        <time>2014-07-12T14:43:50Z</time>
      </trkpt>
      <trkpt lat="44.68754" lon="4.02052">
        <ele>1320</ele>
        <time>2014-07-12T14:44:07Z</time>
      </trkpt>
      <trkpt lat="44.68753" lon="4.02049">
        <ele>1320</ele>
        <time>2014-07-12T14:44:09Z</time>
      </trkpt>
      <trkpt lat="44.68687" lon="4.01987">
        <ele>1326</ele>
        <time>2014-07-12T14:44:46Z</time>
      </trkpt>
      <trkpt lat="44.68633" lon="4.01947">
        <ele>1327</ele>
        <time>2014-07-12T14:45:12Z</time>
      </trkpt>
      <trkpt lat="44.68612" lon="4.01932">
        <ele>1328</ele>
        <time>2014-07-12T14:45:24Z</time>
      </trkpt>
      <trkpt lat="44.68555" lon="4.01937">
        <ele>1332</ele>
        <time>2014-07-12T14:45:52Z</time>
      </trkpt>
      <trkpt lat="44.68489" lon="4.01964">
        <ele>1339</ele>
        <time>2014-07-12T14:46:17Z</time>
      </trkpt>
      <trkpt lat="44.68456" lon="4.02002">
        <ele>1345</ele>
        <time>2014-07-12T14:46:41Z</time>
      </trkpt>
      <trkpt lat="44.68417" lon="4.02041">
        <ele>1348</ele>
        <time>2014-07-12T14:47:09Z</time>
      </trkpt>
      <trkpt lat="44.68386" lon="4.02077">
        <ele>1351</ele>
        <time>2014-07-12T14:47:31Z</time>
      </trkpt>
      <trkpt lat="44.68363" lon="4.02096">
        <ele>1356</ele>
        <time>2014-07-12T14:47:46Z</time>
      </trkpt>
      <trkpt lat="44.68259" lon="4.02165">
        <ele>1359</ele>
        <time>2014-07-12T14:48:47Z</time>
      </trkpt>
      <trkpt lat="44.68258" lon="4.02169">
        <ele>1360</ele>
        <time>2014-07-12T14:49:39Z</time>
      </trkpt>
      <trkpt lat="44.68231" lon="4.02176">
        <ele>1361</ele>
        <time>2014-07-12T14:50:48Z</time>
      </trkpt>
      <trkpt lat="44.68163" lon="4.02196">
        <ele>1368</ele>
        <time>2014-07-12T14:51:13Z</time>
      </trkpt>
      <trkpt lat="44.68133" lon="4.02202">
        <ele>1369</ele>
        <time>2014-07-12T14:51:25Z</time>
      </trkpt>
      <trkpt lat="44.6808" lon="4.02229">
        <ele>1375</ele>
        <time>2014-07-12T14:51:51Z</time>
      </trkpt>
      <trkpt lat="44.67972" lon="4.02329">
        <ele>1378</ele>
        <time>2014-07-12T14:52:33Z</time>
      </trkpt>
      <trkpt lat="44.67861" lon="4.02445">
        <ele>1381</ele>
        <time>2014-07-12T14:53:17Z</time>
      </trkpt>
      <trkpt lat="44.67802" lon="4.02495">
        <ele>1381</ele>
        <time>2014-07-12T14:53:46Z</time>
      </trkpt>
      <trkpt lat="44.67792" lon="4.02501">
        <ele>1383</ele>
        <time>2014-07-12T14:53:53Z</time>
      </trkpt>
      <trkpt lat="44.67794" lon="4.02495">
        <ele>1381</ele>
        <time>2014-07-12T14:53:58Z</time>
      </trkpt>
      <trkpt lat="44.67806" lon="4.02491">
        <ele>1381</ele>
        <time>2014-07-12T14:54:05Z</time>
      </trkpt>
      <trkpt lat="44.67804" lon="4.02498">
        <ele>1381</ele>
        <time>2014-07-12T14:54:19Z</time>
      </trkpt>
      <trkpt lat="44.67802" lon="4.02494">
        <ele>1381</ele>
        <time>2014-07-12T14:55:49Z</time>
      </trkpt>
      <trkpt lat="44.67801" lon="4.02493">
        <ele>1381</ele>
        <time>2014-07-12T14:57:25Z</time>
      </trkpt>
      <trkpt lat="44.67802" lon="4.02492">
        <ele>1381</ele>
        <time>2014-07-12T14:59:17Z</time>
      </trkpt>
      <trkpt lat="44.67799" lon="4.02491">
        <ele>1381</ele>
        <time>2014-07-12T15:00:18Z</time>
      </trkpt>
      <trkpt lat="44.67794" lon="4.02495">
        <ele>1381</ele>
        <time>2014-07-12T15:00:22Z</time>
      </trkpt>
      <trkpt lat="44.67731" lon="4.02558">
        <ele>1388</ele>
        <time>2014-07-12T15:00:55Z</time>
      </trkpt>
      <trkpt lat="44.6771" lon="4.0257">
        <ele>1390</ele>
        <time>2014-07-12T15:01:06Z</time>
      </trkpt>
      <trkpt lat="44.67671" lon="4.02614">
        <ele>1393</ele>
        <time>2014-07-12T15:01:34Z</time>
      </trkpt>
      <trkpt lat="44.67653" lon="4.02632">
        <ele>1399</ele>
        <time>2014-07-12T15:01:49Z</time>
      </trkpt>
      <trkpt lat="44.67636" lon="4.02635">
        <ele>1399</ele>
        <time>2014-07-12T15:02:00Z</time>
      </trkpt>
      <trkpt lat="44.67633" lon="4.02634">
        <ele>1400</ele>
        <time>2014-07-12T15:02:02Z</time>
      </trkpt>
      <trkpt lat="44.67603" lon="4.02641">
        <ele>1401</ele>
        <time>2014-07-12T15:02:22Z</time>
      </trkpt>
      <trkpt lat="44.67582" lon="4.02636">
        <ele>1406</ele>
        <time>2014-07-12T15:02:36Z</time>
      </trkpt>
      <trkpt lat="44.67526" lon="4.02627">
        <ele>1408</ele>
        <time>2014-07-12T15:03:08Z</time>
      </trkpt>
      <trkpt lat="44.67477" lon="4.02614">
        <ele>1413</ele>
        <time>2014-07-12T15:03:37Z</time>
      </trkpt>
      <trkpt lat="44.67451" lon="4.02608">
        <ele>1414</ele>
        <time>2014-07-12T15:03:52Z</time>
      </trkpt>
      <trkpt lat="44.67407" lon="4.02594">
        <ele>1418</ele>
        <time>2014-07-12T15:04:18Z</time>
      </trkpt>
      <trkpt lat="44.67366" lon="4.02568">
        <ele>1420</ele>
        <time>2014-07-12T15:04:45Z</time>
      </trkpt>
      <trkpt lat="44.67331" lon="4.02557">
        <ele>1420</ele>
        <time>2014-07-12T15:05:10Z</time>
      </trkpt>
      <trkpt lat="44.67325" lon="4.0256">
        <ele>1420</ele>
        <time>2014-07-12T15:06:15Z</time>
      </trkpt>
      <trkpt lat="44.67265" lon="4.02522">
        <ele>1418</ele>
        <time>2014-07-12T15:06:39Z</time>
      </trkpt>
      <trkpt lat="44.67263" lon="4.02509">
        <ele>1417</ele>
        <time>2014-07-12T15:06:41Z</time>
      </trkpt>
      <trkpt lat="44.67262" lon="4.0249">
        <ele>1417</ele>
        <time>2014-07-12T15:06:44Z</time>
      </trkpt>
      <trkpt lat="44.67253" lon="4.02466">
        <ele>1417</ele>
        <time>2014-07-12T15:06:48Z</time>
      </trkpt>
      <trkpt lat="44.67235" lon="4.02446">
        <ele>1414</ele>
        <time>2014-07-12T15:06:53Z</time>
      </trkpt>
      <trkpt lat="44.6723" lon="4.02443">
        <ele>1414</ele>
        <time>2014-07-12T15:06:54Z</time>
      </trkpt>
      <trkpt lat="44.6721" lon="4.02431">
        <ele>1413</ele>
        <time>2014-07-12T15:06:59Z</time>
      </trkpt>
      <trkpt lat="44.67188" lon="4.02411">
        <ele>1413</ele>
        <time>2014-07-12T15:07:04Z</time>
      </trkpt>
      <trkpt lat="44.67176" lon="4.02397">
        <ele>1412</ele>
        <time>2014-07-12T15:07:07Z</time>
      </trkpt>
      <trkpt lat="44.67151" lon="4.02336">
        <ele>1412</ele>
        <time>2014-07-12T15:07:20Z</time>
      </trkpt>
      <trkpt lat="44.67125" lon="4.02329">
        <ele>1411</ele>
        <time>2014-07-12T15:07:26Z</time>
      </trkpt>
      <trkpt lat="44.67073" lon="4.02333">
        <ele>1412</ele>
        <time>2014-07-12T15:07:40Z</time>
      </trkpt>
      <trkpt lat="44.67072" lon="4.02335">
        <ele>1412</ele>
        <time>2014-07-12T15:07:41Z</time>
      </trkpt>
      <trkpt lat="44.6707" lon="4.02341">
        <ele>1412</ele>
        <time>2014-07-12T15:07:44Z</time>
      </trkpt>
      <trkpt lat="44.6706" lon="4.02344">
        <ele>1412</ele>
        <time>2014-07-12T15:07:48Z</time>
      </trkpt>
      <trkpt lat="44.66993" lon="4.0233">
        <ele>1416</ele>
        <time>2014-07-12T15:08:15Z</time>
      </trkpt>
      <trkpt lat="44.66969" lon="4.02315">
        <ele>1419</ele>
        <time>2014-07-12T15:08:28Z</time>
      </trkpt>
      <trkpt lat="44.6694" lon="4.02294">
        <ele>1421</ele>
        <time>2014-07-12T15:08:43Z</time>
      </trkpt>
      <trkpt lat="44.66912" lon="4.02265">
        <ele>1427</ele>
        <time>2014-07-12T15:08:59Z</time>
      </trkpt>
      <trkpt lat="44.66858" lon="4.02244">
        <ele>1431</ele>
        <time>2014-07-12T15:09:24Z</time>
      </trkpt>
      <trkpt lat="44.66835" lon="4.02231">
        <ele>1432</ele>
        <time>2014-07-12T15:09:36Z</time>
      </trkpt>
      <trkpt lat="44.66781" lon="4.0216">
        <ele>1439</ele>
        <time>2014-07-12T15:10:08Z</time>
      </trkpt>
      <trkpt lat="44.66729" lon="4.02039">
        <ele>1438</ele>
        <time>2014-07-12T15:10:56Z</time>
      </trkpt>
      <trkpt lat="44.66636" lon="4.01932">
        <ele>1441</ele>
        <time>2014-07-12T15:11:44Z</time>
      </trkpt>
      <trkpt lat="44.66541" lon="4.01899">
        <ele>1443</ele>
        <time>2014-07-12T15:12:12Z</time>
      </trkpt>
      <trkpt lat="44.66531" lon="4.01896">
        <ele>1444</ele>
        <time>2014-07-12T15:12:17Z</time>
      </trkpt>
      <trkpt lat="44.66522" lon="4.01932">
        <ele>1443</ele>
        <time>2014-07-12T15:12:33Z</time>
      </trkpt>
      <trkpt lat="44.66522" lon="4.01932">
        <ele>1443</ele>
        <time>2014-07-12T15:13:24Z</time>
      </trkpt>
      <trkpt lat="44.66513" lon="4.01985">
        <ele>1443</ele>
        <time>2014-07-12T15:14:53Z</time>
      </trkpt>
      <trkpt lat="44.6649" lon="4.02056">
        <ele>1441</ele>
        <time>2014-07-12T15:15:07Z</time>
      </trkpt>
      <trkpt lat="44.66461" lon="4.02103">
        <ele>1440</ele>
        <time>2014-07-12T15:15:16Z</time>
      </trkpt>
      <trkpt lat="44.66419" lon="4.02132">
        <ele>1438</ele>
        <time>2014-07-12T15:15:23Z</time>
      </trkpt>
      <trkpt lat="44.66368" lon="4.02135">
        <ele>1430</ele>
        <time>2014-07-12T15:15:31Z</time>
      </trkpt>
      <trkpt lat="44.6631" lon="4.02167">
        <ele>1422</ele>
        <time>2014-07-12T15:15:45Z</time>
      </trkpt>
      <trkpt lat="44.66306" lon="4.02169">
        <ele>1422</ele>
        <time>2014-07-12T15:15:46Z</time>
      </trkpt>
      <trkpt lat="44.66255" lon="4.02205">
        <ele>1419</ele>
        <time>2014-07-12T15:15:57Z</time>
      </trkpt>
      <trkpt lat="44.66229" lon="4.02226">
        <ele>1412</ele>
        <time>2014-07-12T15:16:01Z</time>
      </trkpt>
      <trkpt lat="44.66221" lon="4.02231">
        <ele>1411</ele>
        <time>2014-07-12T15:16:02Z</time>
      </trkpt>
      <trkpt lat="44.66189" lon="4.02269">
        <ele>1407</ele>
        <time>2014-07-12T15:16:07Z</time>
      </trkpt>
      <trkpt lat="44.66171" lon="4.02296">
        <ele>1408</ele>
        <time>2014-07-12T15:16:11Z</time>
      </trkpt>
      <trkpt lat="44.66155" lon="4.02331">
        <ele>1399</ele>
        <time>2014-07-12T15:16:15Z</time>
      </trkpt>
      <trkpt lat="44.6613" lon="4.02391">
        <ele>1396</ele>
        <time>2014-07-12T15:16:23Z</time>
      </trkpt>
      <trkpt lat="44.66111" lon="4.02419">
        <ele>1395</ele>
        <time>2014-07-12T15:16:28Z</time>
      </trkpt>
      <trkpt lat="44.66081" lon="4.02462">
        <ele>1380</ele>
        <time>2014-07-12T15:16:35Z</time>
      </trkpt>
      <trkpt lat="44.66075" lon="4.02472">
        <ele>1380</ele>
        <time>2014-07-12T15:16:37Z</time>
      </trkpt>
      <trkpt lat="44.66062" lon="4.02496">
        <ele>1381</ele>
        <time>2014-07-12T15:16:41Z</time>
      </trkpt>
      <trkpt lat="44.66036" lon="4.02535">
        <ele>1379</ele>
        <time>2014-07-12T15:16:46Z</time>
      </trkpt>
      <trkpt lat="44.66018" lon="4.02554">
        <ele>1378</ele>
        <time>2014-07-12T15:16:49Z</time>
      </trkpt>
      <trkpt lat="44.65972" lon="4.026">
        <ele>1372</ele>
        <time>2014-07-12T15:17:02Z</time>
      </trkpt>
      <trkpt lat="44.65934" lon="4.02632">
        <ele>1372</ele>
        <time>2014-07-12T15:17:22Z</time>
      </trkpt>
      <trkpt lat="44.65888" lon="4.0271">
        <ele>1380</ele>
        <time>2014-07-12T15:17:54Z</time>
      </trkpt>
      <trkpt lat="44.65873" lon="4.02739">
        <ele>1381</ele>
        <time>2014-07-12T15:18:07Z</time>
      </trkpt>
      <trkpt lat="44.65855" lon="4.02766">
        <ele>1385</ele>
        <time>2014-07-12T15:18:21Z</time>
      </trkpt>
      <trkpt lat="44.65827" lon="4.02801">
        <ele>1391</ele>
        <time>2014-07-12T15:18:40Z</time>
      </trkpt>
      <trkpt lat="44.65808" lon="4.02818">
        <ele>1391</ele>
        <time>2014-07-12T15:18:51Z</time>
      </trkpt>
      <trkpt lat="44.65748" lon="4.0285">
        <ele>1393</ele>
        <time>2014-07-12T15:19:34Z</time>
      </trkpt>
      <trkpt lat="44.65742" lon="4.02851">
        <ele>1392</ele>
        <time>2014-07-12T15:20:13Z</time>
      </trkpt>
      <trkpt lat="44.65739" lon="4.02853">
        <ele>1392</ele>
        <time>2014-07-12T15:20:44Z</time>
      </trkpt>
      <trkpt lat="44.65738" lon="4.02855">
        <ele>1392</ele>
        <time>2014-07-12T15:20:46Z</time>
      </trkpt>
      <trkpt lat="44.65684" lon="4.02873">
        <ele>1390</ele>
        <time>2014-07-12T15:21:01Z</time>
      </trkpt>
      <trkpt lat="44.65597" lon="4.02895">
        <ele>1388</ele>
        <time>2014-07-12T15:21:32Z</time>
      </trkpt>
      <trkpt lat="44.65489" lon="4.02924">
        <ele>1390</ele>
        <time>2014-07-12T15:22:02Z</time>
      </trkpt>
      <trkpt lat="44.6542" lon="4.02944">
        <ele>1392</ele>
        <time>2014-07-12T15:22:28Z</time>
      </trkpt>
      <trkpt lat="44.65345" lon="4.02982">
        <ele>1401</ele>
        <time>2014-07-12T15:23:05Z</time>
      </trkpt>
      <trkpt lat="44.65342" lon="4.02986">
        <ele>1401</ele>
        <time>2014-07-12T15:23:15Z</time>
      </trkpt>
      <trkpt lat="44.65276" lon="4.03012">
        <ele>1400</ele>
        <time>2014-07-12T15:24:36Z</time>
      </trkpt>
      <trkpt lat="44.65272" lon="4.03014">
        <ele>1400</ele>
        <time>2014-07-12T15:24:37Z</time>
      </trkpt>
      <trkpt lat="44.65264" lon="4.03018">
        <ele>1401</ele>
        <time>2014-07-12T15:24:39Z</time>
      </trkpt>
      <trkpt lat="44.65198" lon="4.03055">
        <ele>1401</ele>
        <time>2014-07-12T15:25:03Z</time>
      </trkpt>
      <trkpt lat="44.65174" lon="4.03141">
        <ele>1399</ele>
        <time>2014-07-12T15:25:27Z</time>
      </trkpt>
      <trkpt lat="44.65169" lon="4.0324">
        <ele>1404</ele>
        <time>2014-07-12T15:25:55Z</time>
      </trkpt>
      <trkpt lat="44.65177" lon="4.0337">
        <ele>1409</ele>
        <time>2014-07-12T15:26:33Z</time>
      </trkpt>
      <trkpt lat="44.65176" lon="4.03424">
        <ele>1411</ele>
        <time>2014-07-12T15:26:46Z</time>
      </trkpt>
      <trkpt lat="44.65161" lon="4.03615">
        <ele>1415</ele>
        <time>2014-07-12T15:27:27Z</time>
      </trkpt>
      <trkpt lat="44.6516" lon="4.03775">
        <ele>1416</ele>
        <time>2014-07-12T15:28:08Z</time>
      </trkpt>
      <trkpt lat="44.65154" lon="4.03855">
        <ele>1420</ele>
        <time>2014-07-12T15:28:34Z</time>
      </trkpt>
      <trkpt lat="44.65137" lon="4.03923">
        <ele>1424</ele>
        <time>2014-07-12T15:29:00Z</time>
      </trkpt>
      <trkpt lat="44.65097" lon="4.04065">
        <ele>1428</ele>
        <time>2014-07-12T15:29:51Z</time>
      </trkpt>
      <trkpt lat="44.65049" lon="4.04181">
        <ele>1428</ele>
        <time>2014-07-12T15:30:18Z</time>
      </trkpt>
      <trkpt lat="44.65049" lon="4.04185">
        <ele>1428</ele>
        <time>2014-07-12T15:30:47Z</time>
      </trkpt>
      <trkpt lat="44.65037" lon="4.04212">
        <ele>1428</ele>
        <time>2014-07-12T15:32:39Z</time>
      </trkpt>
      <trkpt lat="44.64974" lon="4.04367">
        <ele>1426</ele>
        <time>2014-07-12T15:33:16Z</time>
      </trkpt>
      <trkpt lat="44.64953" lon="4.04401">
        <ele>1425</ele>
        <time>2014-07-12T15:33:21Z</time>
      </trkpt>
      <trkpt lat="44.64938" lon="4.04413">
        <ele>1424</ele>
        <time>2014-07-12T15:33:23Z</time>
      </trkpt>
      <trkpt lat="44.64893" lon="4.04445">
        <ele>1419</ele>
        <time>2014-07-12T15:33:28Z</time>
      </trkpt>
      <trkpt lat="44.64862" lon="4.04467">
        <ele>1417</ele>
        <time>2014-07-12T15:33:31Z</time>
      </trkpt>
      <trkpt lat="44.64844" lon="4.04483">
        <ele>1416</ele>
        <time>2014-07-12T15:33:33Z</time>
      </trkpt>
      <trkpt lat="44.64812" lon="4.04512">
        <ele>1411</ele>
        <time>2014-07-12T15:33:39Z</time>
      </trkpt>
      <trkpt lat="44.64799" lon="4.04512">
        <ele>1409</ele>
        <time>2014-07-12T15:33:42Z</time>
      </trkpt>
      <trkpt lat="44.64783" lon="4.04521">
        <ele>1407</ele>
        <time>2014-07-12T15:33:45Z</time>
      </trkpt>
      <trkpt lat="44.64774" lon="4.04532">
        <ele>1406</ele>
        <time>2014-07-12T15:33:47Z</time>
      </trkpt>
      <trkpt lat="44.64764" lon="4.04543">
        <ele>1406</ele>
        <time>2014-07-12T15:33:49Z</time>
      </trkpt>
      <trkpt lat="44.64741" lon="4.04554">
        <ele>1394</ele>
        <time>2014-07-12T15:33:53Z</time>
      </trkpt>
      <trkpt lat="44.64731" lon="4.04562">
        <ele>1394</ele>
        <time>2014-07-12T15:33:55Z</time>
      </trkpt>
      <trkpt lat="44.6471" lon="4.04572">
        <ele>1391</ele>
        <time>2014-07-12T15:33:59Z</time>
      </trkpt>
      <trkpt lat="44.64706" lon="4.04574">
        <ele>1391</ele>
        <time>2014-07-12T15:34:00Z</time>
      </trkpt>
      <trkpt lat="44.64698" lon="4.04571">
        <ele>1390</ele>
        <time>2014-07-12T15:34:02Z</time>
      </trkpt>
      <trkpt lat="44.64682" lon="4.04558">
        <ele>1388</ele>
        <time>2014-07-12T15:34:06Z</time>
      </trkpt>
      <trkpt lat="44.64666" lon="4.04549">
        <ele>1375</ele>
        <time>2014-07-12T15:34:10Z</time>
      </trkpt>
      <trkpt lat="44.64647" lon="4.04531">
        <ele>1372</ele>
        <time>2014-07-12T15:34:16Z</time>
      </trkpt>
      <trkpt lat="44.64632" lon="4.04514">
        <ele>1370</ele>
        <time>2014-07-12T15:34:21Z</time>
      </trkpt>
      <trkpt lat="44.64624" lon="4.04498">
        <ele>1361</ele>
        <time>2014-07-12T15:34:25Z</time>
      </trkpt>
      <trkpt lat="44.64605" lon="4.04471">
        <ele>1358</ele>
        <time>2014-07-12T15:34:32Z</time>
      </trkpt>
      <trkpt lat="44.64594" lon="4.04449">
        <ele>1356</ele>
        <time>2014-07-12T15:34:37Z</time>
      </trkpt>
      <trkpt lat="44.64588" lon="4.04403">
        <ele>1347</ele>
        <time>2014-07-12T15:34:46Z</time>
      </trkpt>
      <trkpt lat="44.64592" lon="4.04344">
        <ele>1340</ele>
        <time>2014-07-12T15:35:02Z</time>
      </trkpt>
      <trkpt lat="44.64584" lon="4.04331">
        <ele>1336</ele>
        <time>2014-07-12T15:35:35Z</time>
      </trkpt>
      <trkpt lat="44.64579" lon="4.04324">
        <ele>1332</ele>
        <time>2014-07-12T15:37:29Z</time>
      </trkpt>
      <trkpt lat="44.64578" lon="4.04306">
        <ele>1329</ele>
        <time>2014-07-12T15:39:12Z</time>
      </trkpt>
      <trkpt lat="44.64564" lon="4.04231">
        <ele>1322</ele>
        <time>2014-07-12T15:39:20Z</time>
      </trkpt>
      <trkpt lat="44.6456" lon="4.04222">
        <ele>1321</ele>
        <time>2014-07-12T15:39:21Z</time>
      </trkpt>
      <trkpt lat="44.64545" lon="4.04183">
        <ele>1318</ele>
        <time>2014-07-12T15:39:25Z</time>
      </trkpt>
      <trkpt lat="44.64528" lon="4.04142">
        <ele>1312</ele>
        <time>2014-07-12T15:39:30Z</time>
      </trkpt>
      <trkpt lat="44.64499" lon="4.0415">
        <ele>1307</ele>
        <time>2014-07-12T15:39:38Z</time>
      </trkpt>
      <trkpt lat="44.64484" lon="4.04175">
        <ele>1306</ele>
        <time>2014-07-12T15:39:44Z</time>
      </trkpt>
      <trkpt lat="44.64475" lon="4.04201">
        <ele>1303</ele>
        <time>2014-07-12T15:39:48Z</time>
      </trkpt>
      <trkpt lat="44.64448" lon="4.04272">
        <ele>1300</ele>
        <time>2014-07-12T15:39:57Z</time>
      </trkpt>
      <trkpt lat="44.64444" lon="4.04281">
        <ele>1300</ele>
        <time>2014-07-12T15:39:58Z</time>
      </trkpt>
      <trkpt lat="44.64426" lon="4.04343">
        <ele>1299</ele>
        <time>2014-07-12T15:40:04Z</time>
      </trkpt>
      <trkpt lat="44.64405" lon="4.04425">
        <ele>1296</ele>
        <time>2014-07-12T15:40:13Z</time>
      </trkpt>
      <trkpt lat="44.64401" lon="4.04438">
        <ele>1294</ele>
        <time>2014-07-12T15:40:15Z</time>
      </trkpt>
      <trkpt lat="44.64383" lon="4.04507">
        <ele>1296</ele>
        <time>2014-07-12T15:40:27Z</time>
      </trkpt>
      <trkpt lat="44.64382" lon="4.04515">
        <ele>1296</ele>
        <time>2014-07-12T15:40:40Z</time>
      </trkpt>
      <trkpt lat="44.64376" lon="4.04559">
        <ele>1296</ele>
        <time>2014-07-12T15:40:55Z</time>
      </trkpt>
      <trkpt lat="44.6436" lon="4.04577">
        <ele>1293</ele>
        <time>2014-07-12T15:41:01Z</time>
      </trkpt>
      <trkpt lat="44.64246" lon="4.04662">
        <ele>1287</ele>
        <time>2014-07-12T15:41:33Z</time>
      </trkpt>
      <trkpt lat="44.64207" lon="4.04731">
        <ele>1286</ele>
        <time>2014-07-12T15:41:50Z</time>
      </trkpt>
      <trkpt lat="44.64184" lon="4.04768">
        <ele>1287</ele>
        <time>2014-07-12T15:41:59Z</time>
      </trkpt>
      <trkpt lat="44.64159" lon="4.04798">
        <ele>1273</ele>
        <time>2014-07-12T15:42:04Z</time>
      </trkpt>
      <trkpt lat="44.64137" lon="4.04836">
        <ele>1275</ele>
        <time>2014-07-12T15:42:08Z</time>
      </trkpt>
      <trkpt lat="44.6409" lon="4.04953">
        <ele>1277</ele>
        <time>2014-07-12T15:42:22Z</time>
      </trkpt>
      <trkpt lat="44.64045" lon="4.05036">
        <ele>1266</ele>
        <time>2014-07-12T15:42:33Z</time>
      </trkpt>
      <trkpt lat="44.64001" lon="4.05071">
        <ele>1261</ele>
        <time>2014-07-12T15:42:40Z</time>
      </trkpt>
      <trkpt lat="44.63979" lon="4.05083">
        <ele>1250</ele>
        <time>2014-07-12T15:42:44Z</time>
      </trkpt>
      <trkpt lat="44.63969" lon="4.05099">
        <ele>1249</ele>
        <time>2014-07-12T15:43:09Z</time>
      </trkpt>
      <trkpt lat="44.63965" lon="4.05101">
        <ele>1248</ele>
        <time>2014-07-12T15:43:48Z</time>
      </trkpt>
      <trkpt lat="44.63964" lon="4.05103">
        <ele>1248</ele>
        <time>2014-07-12T15:44:23Z</time>
      </trkpt>
      <trkpt lat="44.63949" lon="4.05095">
        <ele>1246</ele>
        <time>2014-07-12T15:44:28Z</time>
      </trkpt>
      <trkpt lat="44.63918" lon="4.05089">
        <ele>1240</ele>
        <time>2014-07-12T15:44:34Z</time>
      </trkpt>
      <trkpt lat="44.63904" lon="4.05084">
        <ele>1236</ele>
        <time>2014-07-12T15:44:38Z</time>
      </trkpt>
      <trkpt lat="44.63886" lon="4.05071">
        <ele>1232</ele>
        <time>2014-07-12T15:44:50Z</time>
      </trkpt>
      <trkpt lat="44.63866" lon="4.05079">
        <ele>1231</ele>
        <time>2014-07-12T15:44:55Z</time>
      </trkpt>
      <trkpt lat="44.63856" lon="4.05076">
        <ele>1231</ele>
        <time>2014-07-12T15:44:58Z</time>
      </trkpt>
      <trkpt lat="44.63825" lon="4.05063">
        <ele>1229</ele>
        <time>2014-07-12T15:45:09Z</time>
      </trkpt>
      <trkpt lat="44.6381" lon="4.05069">
        <ele>1229</ele>
        <time>2014-07-12T15:45:37Z</time>
      </trkpt>
      <trkpt lat="44.63779" lon="4.05096">
        <ele>1229</ele>
        <time>2014-07-12T15:47:08Z</time>
      </trkpt>
      <trkpt lat="44.63733" lon="4.05128">
        <ele>1230</ele>
        <time>2014-07-12T15:47:23Z</time>
      </trkpt>
      <trkpt lat="44.63712" lon="4.05157">
        <ele>1230</ele>
        <time>2014-07-12T15:47:28Z</time>
      </trkpt>
      <trkpt lat="44.63687" lon="4.05207">
        <ele>1223</ele>
        <time>2014-07-12T15:47:36Z</time>
      </trkpt>
      <trkpt lat="44.63673" lon="4.05226">
        <ele>1222</ele>
        <time>2014-07-12T15:47:40Z</time>
      </trkpt>
      <trkpt lat="44.63656" lon="4.0524">
        <ele>1225</ele>
        <time>2014-07-12T15:47:44Z</time>
      </trkpt>
      <trkpt lat="44.63576" lon="4.05285">
        <ele>1218</ele>
        <time>2014-07-12T15:48:00Z</time>
      </trkpt>
      <trkpt lat="44.63504" lon="4.05277">
        <ele>1216</ele>
        <time>2014-07-12T15:48:14Z</time>
      </trkpt>
      <trkpt lat="44.63499" lon="4.05271">
        <ele>1209</ele>
        <time>2014-07-12T15:48:15Z</time>
      </trkpt>
      <trkpt lat="44.63459" lon="4.05177">
        <ele>1212</ele>
        <time>2014-07-12T15:48:26Z</time>
      </trkpt>
      <trkpt lat="44.63453" lon="4.05123">
        <ele>1217</ele>
        <time>2014-07-12T15:48:31Z</time>
      </trkpt>
      <trkpt lat="44.6345" lon="4.05113">
        <ele>1217</ele>
        <time>2014-07-12T15:48:32Z</time>
      </trkpt>
      <trkpt lat="44.63431" lon="4.05052">
        <ele>1221</ele>
        <time>2014-07-12T15:48:40Z</time>
      </trkpt>
      <trkpt lat="44.6342" lon="4.05029">
        <ele>1222</ele>
        <time>2014-07-12T15:48:44Z</time>
      </trkpt>
      <trkpt lat="44.63409" lon="4.05016">
        <ele>1219</ele>
        <time>2014-07-12T15:48:47Z</time>
      </trkpt>
      <trkpt lat="44.63382" lon="4.05015">
        <ele>1219</ele>
        <time>2014-07-12T15:48:55Z</time>
      </trkpt>
      <trkpt lat="44.63381" lon="4.05025">
        <ele>1219</ele>
        <time>2014-07-12T15:48:58Z</time>
      </trkpt>
      <trkpt lat="44.63382" lon="4.05031">
        <ele>1219</ele>
        <time>2014-07-12T15:48:59Z</time>
      </trkpt>
      <trkpt lat="44.63377" lon="4.05055">
        <ele>1217</ele>
        <time>2014-07-12T15:49:03Z</time>
      </trkpt>
      <trkpt lat="44.63362" lon="4.05087">
        <ele>1210</ele>
        <time>2014-07-12T15:49:09Z</time>
      </trkpt>
      <trkpt lat="44.63344" lon="4.05126">
        <ele>1208</ele>
        <time>2014-07-12T15:49:15Z</time>
      </trkpt>
      <trkpt lat="44.63323" lon="4.05165">
        <ele>1204</ele>
        <time>2014-07-12T15:49:20Z</time>
      </trkpt>
      <trkpt lat="44.63301" lon="4.05187">
        <ele>1194</ele>
        <time>2014-07-12T15:49:25Z</time>
      </trkpt>
      <trkpt lat="44.63295" lon="4.05189">
        <ele>1193</ele>
        <time>2014-07-12T15:49:26Z</time>
      </trkpt>
      <trkpt lat="44.6328" lon="4.05195">
        <ele>1192</ele>
        <time>2014-07-12T15:49:29Z</time>
      </trkpt>
      <trkpt lat="44.63262" lon="4.05195">
        <ele>1193</ele>
        <time>2014-07-12T15:49:32Z</time>
      </trkpt>
      <trkpt lat="44.63249" lon="4.05191">
        <ele>1190</ele>
        <time>2014-07-12T15:49:34Z</time>
      </trkpt>
      <trkpt lat="44.63228" lon="4.05194">
        <ele>1187</ele>
        <time>2014-07-12T15:49:37Z</time>
      </trkpt>
      <trkpt lat="44.63211" lon="4.05198">
        <ele>1185</ele>
        <time>2014-07-12T15:49:39Z</time>
      </trkpt>
      <trkpt lat="44.63181" lon="4.05208">
        <ele>1183</ele>
        <time>2014-07-12T15:49:42Z</time>
      </trkpt>
      <trkpt lat="44.63157" lon="4.05219">
        <ele>1174</ele>
        <time>2014-07-12T15:49:45Z</time>
      </trkpt>
      <trkpt lat="44.63151" lon="4.05222">
        <ele>1174</ele>
        <time>2014-07-12T15:49:46Z</time>
      </trkpt>
      <trkpt lat="44.63115" lon="4.05217">
        <ele>1173</ele>
        <time>2014-07-12T15:49:51Z</time>
      </trkpt>
      <trkpt lat="44.63095" lon="4.05223">
        <ele>1170</ele>
        <time>2014-07-12T15:49:54Z</time>
      </trkpt>
      <trkpt lat="44.63085" lon="4.05237">
        <ele>1166</ele>
        <time>2014-07-12T15:49:56Z</time>
      </trkpt>
      <trkpt lat="44.63081" lon="4.05245">
        <ele>1162</ele>
        <time>2014-07-12T15:49:57Z</time>
      </trkpt>
      <trkpt lat="44.6306" lon="4.05279">
        <ele>1161</ele>
        <time>2014-07-12T15:50:01Z</time>
      </trkpt>
      <trkpt lat="44.63054" lon="4.05286">
        <ele>1161</ele>
        <time>2014-07-12T15:50:02Z</time>
      </trkpt>
      <trkpt lat="44.63027" lon="4.05302">
        <ele>1161</ele>
        <time>2014-07-12T15:50:06Z</time>
      </trkpt>
      <trkpt lat="44.62973" lon="4.05322">
        <ele>1161</ele>
        <time>2014-07-12T15:50:22Z</time>
      </trkpt>
      <trkpt lat="44.6294" lon="4.05321">
        <ele>1161</ele>
        <time>2014-07-12T15:50:35Z</time>
      </trkpt>
      <trkpt lat="44.62908" lon="4.0531">
        <ele>1161</ele>
        <time>2014-07-12T15:50:42Z</time>
      </trkpt>
      <trkpt lat="44.6277" lon="4.05293">
        <ele>1164</ele>
        <time>2014-07-12T15:51:16Z</time>
      </trkpt>
      <trkpt lat="44.62684" lon="4.05254">
        <ele>1166</ele>
        <time>2014-07-12T15:51:45Z</time>
      </trkpt>
      <trkpt lat="44.62636" lon="4.05226">
        <ele>1164</ele>
        <time>2014-07-12T15:52:00Z</time>
      </trkpt>
      <trkpt lat="44.6255" lon="4.05246">
        <ele>1172</ele>
        <time>2014-07-12T15:52:28Z</time>
      </trkpt>
      <trkpt lat="44.62481" lon="4.05291">
        <ele>1177</ele>
        <time>2014-07-12T15:52:42Z</time>
      </trkpt>
      <trkpt lat="44.6237" lon="4.05302">
        <ele>1176</ele>
        <time>2014-07-12T15:53:03Z</time>
      </trkpt>
      <trkpt lat="44.62336" lon="4.05295">
        <ele>1176</ele>
        <time>2014-07-12T15:53:14Z</time>
      </trkpt>
      <trkpt lat="44.62304" lon="4.053">
        <ele>1178</ele>
        <time>2014-07-12T15:53:26Z</time>
      </trkpt>
      <trkpt lat="44.6224" lon="4.05318">
        <ele>1174</ele>
        <time>2014-07-12T15:53:54Z</time>
      </trkpt>
      <trkpt lat="44.62228" lon="4.05325">
        <ele>1173</ele>
        <time>2014-07-12T15:54:01Z</time>
      </trkpt>
      <trkpt lat="44.62232" lon="4.05319">
        <ele>1173</ele>
        <time>2014-07-12T15:54:20Z</time>
      </trkpt>
      <trkpt lat="44.62214" lon="4.05355">
        <ele>1176</ele>
        <time>2014-07-12T15:55:14Z</time>
      </trkpt>
      <trkpt lat="44.62203" lon="4.05408">
        <ele>1176</ele>
        <time>2014-07-12T15:55:25Z</time>
      </trkpt>
      <trkpt lat="44.62198" lon="4.05419">
        <ele>1179</ele>
        <time>2014-07-12T15:55:27Z</time>
      </trkpt>
      <trkpt lat="44.62191" lon="4.05444">
        <ele>1180</ele>
        <time>2014-07-12T15:55:31Z</time>
      </trkpt>
      <trkpt lat="44.62184" lon="4.05484">
        <ele>1179</ele>
        <time>2014-07-12T15:55:37Z</time>
      </trkpt>
      <trkpt lat="44.6217" lon="4.05522">
        <ele>1183</ele>
        <time>2014-07-12T15:55:44Z</time>
      </trkpt>
      <trkpt lat="44.62141" lon="4.05569">
        <ele>1177</ele>
        <time>2014-07-12T15:55:51Z</time>
      </trkpt>
      <trkpt lat="44.62103" lon="4.05627">
        <ele>1178</ele>
        <time>2014-07-12T15:56:00Z</time>
      </trkpt>
      <trkpt lat="44.62091" lon="4.05668">
        <ele>1176</ele>
        <time>2014-07-12T15:56:06Z</time>
      </trkpt>
      <trkpt lat="44.62091" lon="4.05673">
        <ele>1177</ele>
        <time>2014-07-12T15:56:07Z</time>
      </trkpt>
      <trkpt lat="44.62066" lon="4.05697">
        <ele>1183</ele>
        <time>2014-07-12T15:56:19Z</time>
      </trkpt>
      <trkpt lat="44.62056" lon="4.05668">
        <ele>1183</ele>
        <time>2014-07-12T15:56:27Z</time>
      </trkpt>
      <trkpt lat="44.62092" lon="4.05492">
        <ele>1176</ele>
        <time>2014-07-12T15:57:05Z</time>
      </trkpt>
      <trkpt lat="44.62097" lon="4.05406">
        <ele>1179</ele>
        <time>2014-07-12T15:57:21Z</time>
      </trkpt>
      <trkpt lat="44.621" lon="4.05403">
        <ele>1179</ele>
        <time>2014-07-12T15:57:22Z</time>
      </trkpt>
      <trkpt lat="44.62108" lon="4.05396">
        <ele>1178</ele>
        <time>2014-07-12T15:57:24Z</time>
      </trkpt>
      <trkpt lat="44.62121" lon="4.05354">
        <ele>1177</ele>
        <time>2014-07-12T15:57:30Z</time>
      </trkpt>
      <trkpt lat="44.62124" lon="4.05333">
        <ele>1176</ele>
        <time>2014-07-12T15:57:33Z</time>
      </trkpt>
      <trkpt lat="44.62122" lon="4.05295">
        <ele>1176</ele>
        <time>2014-07-12T15:57:38Z</time>
      </trkpt>
      <trkpt lat="44.62121" lon="4.05288">
        <ele>1176</ele>
        <time>2014-07-12T15:57:39Z</time>
      </trkpt>
      <trkpt lat="44.62106" lon="4.05182">
        <ele>1175</ele>
        <time>2014-07-12T15:57:54Z</time>
      </trkpt>
      <trkpt lat="44.62104" lon="4.05126">
        <ele>1177</ele>
        <time>2014-07-12T15:58:03Z</time>
      </trkpt>
      <trkpt lat="44.62123" lon="4.05045">
        <ele>1179</ele>
        <time>2014-07-12T15:58:20Z</time>
      </trkpt>
      <trkpt lat="44.62135" lon="4.04971">
        <ele>1184</ele>
        <time>2014-07-12T15:58:39Z</time>
      </trkpt>
      <trkpt lat="44.62146" lon="4.04922">
        <ele>1180</ele>
        <time>2014-07-12T15:58:52Z</time>
      </trkpt>
      <trkpt lat="44.62162" lon="4.04838">
        <ele>1179</ele>
        <time>2014-07-12T15:59:22Z</time>
      </trkpt>
      <trkpt lat="44.62169" lon="4.0481">
        <ele>1161</ele>
        <time>2014-07-12T15:59:33Z</time>
      </trkpt>
      <trkpt lat="44.62171" lon="4.04786">
        <ele>1157</ele>
        <time>2014-07-12T15:59:42Z</time>
      </trkpt>
      <trkpt lat="44.62147" lon="4.04755">
        <ele>1183</ele>
        <time>2014-07-12T15:59:55Z</time>
      </trkpt>
      <trkpt lat="44.6211" lon="4.04711">
        <ele>1178</ele>
        <time>2014-07-12T16:00:47Z</time>
      </trkpt>
      <trkpt lat="44.62104" lon="4.04704">
        <ele>1178</ele>
        <time>2014-07-12T16:01:53Z</time>
      </trkpt>
      <trkpt lat="44.62076" lon="4.0468">
        <ele>1194</ele>
        <time>2014-07-12T16:02:03Z</time>
      </trkpt>
      <trkpt lat="44.62068" lon="4.04634">
        <ele>1178</ele>
        <time>2014-07-12T16:02:10Z</time>
      </trkpt>
      <trkpt lat="44.62065" lon="4.04628">
        <ele>1178</ele>
        <time>2014-07-12T16:02:11Z</time>
      </trkpt>
      <trkpt lat="44.62063" lon="4.04623">
        <ele>1177</ele>
        <time>2014-07-12T16:02:12Z</time>
      </trkpt>
      <trkpt lat="44.62055" lon="4.046">
        <ele>1174</ele>
        <time>2014-07-12T16:02:16Z</time>
      </trkpt>
      <trkpt lat="44.61992" lon="4.04599">
        <ele>1197</ele>
        <time>2014-07-12T16:02:35Z</time>
      </trkpt>
      <trkpt lat="44.61956" lon="4.04568">
        <ele>1191</ele>
        <time>2014-07-12T16:02:55Z</time>
      </trkpt>
      <trkpt lat="44.61964" lon="4.04503">
        <ele>1181</ele>
        <time>2014-07-12T16:03:08Z</time>
      </trkpt>
      <trkpt lat="44.61964" lon="4.04487">
        <ele>1170</ele>
        <time>2014-07-12T16:03:10Z</time>
      </trkpt>
      <trkpt lat="44.61958" lon="4.04462">
        <ele>1171</ele>
        <time>2014-07-12T16:03:13Z</time>
      </trkpt>
      <trkpt lat="44.61953" lon="4.04454">
        <ele>1171</ele>
        <time>2014-07-12T16:03:14Z</time>
      </trkpt>
      <trkpt lat="44.61948" lon="4.04446">
        <ele>1172</ele>
        <time>2014-07-12T16:03:15Z</time>
      </trkpt>
      <trkpt lat="44.6189" lon="4.04334">
        <ele>1185</ele>
        <time>2014-07-12T16:03:35Z</time>
      </trkpt>
      <trkpt lat="44.6186" lon="4.04287">
        <ele>1169</ele>
        <time>2014-07-12T16:03:47Z</time>
      </trkpt>
      <trkpt lat="44.61856" lon="4.04285">
        <ele>1169</ele>
        <time>2014-07-12T16:03:48Z</time>
      </trkpt>
      <trkpt lat="44.61802" lon="4.04256">
        <ele>1190</ele>
        <time>2014-07-12T16:03:59Z</time>
      </trkpt>
      <trkpt lat="44.61753" lon="4.04222">
        <ele>1180</ele>
        <time>2014-07-12T16:04:09Z</time>
      </trkpt>
      <trkpt lat="44.61756" lon="4.04207">
        <ele>1177</ele>
        <time>2014-07-12T16:04:11Z</time>
      </trkpt>
      <trkpt lat="44.61765" lon="4.04172">
        <ele>1176</ele>
        <time>2014-07-12T16:04:16Z</time>
      </trkpt>
      <trkpt lat="44.61767" lon="4.04069">
        <ele>1151</ele>
        <time>2014-07-12T16:04:33Z</time>
      </trkpt>
      <trkpt lat="44.61698" lon="4.04017">
        <ele>1176</ele>
        <time>2014-07-12T16:04:52Z</time>
      </trkpt>
      <trkpt lat="44.61561" lon="4.03906">
        <ele>1160</ele>
        <time>2014-07-12T16:05:29Z</time>
      </trkpt>
      <trkpt lat="44.61518" lon="4.03941">
        <ele>1177</ele>
        <time>2014-07-12T16:05:47Z</time>
      </trkpt>
      <trkpt lat="44.61487" lon="4.04037">
        <ele>1194</ele>
        <time>2014-07-12T16:06:12Z</time>
      </trkpt>
      <trkpt lat="44.6144" lon="4.04081">
        <ele>1196</ele>
        <time>2014-07-12T16:06:31Z</time>
      </trkpt>
      <trkpt lat="44.6143" lon="4.04039">
        <ele>1193</ele>
        <time>2014-07-12T16:06:41Z</time>
      </trkpt>
      <trkpt lat="44.61427" lon="4.03986">
        <ele>1182</ele>
        <time>2014-07-12T16:06:52Z</time>
      </trkpt>
      <trkpt lat="44.61422" lon="4.03937">
        <ele>1178</ele>
        <time>2014-07-12T16:07:00Z</time>
      </trkpt>
      <trkpt lat="44.61408" lon="4.03828">
        <ele>1174</ele>
        <time>2014-07-12T16:07:13Z</time>
      </trkpt>
      <trkpt lat="44.61405" lon="4.03774">
        <ele>1176</ele>
        <time>2014-07-12T16:07:21Z</time>
      </trkpt>
      <trkpt lat="44.61409" lon="4.03745">
        <ele>1168</ele>
        <time>2014-07-12T16:07:26Z</time>
      </trkpt>
      <trkpt lat="44.61408" lon="4.03733">
        <ele>1172</ele>
        <time>2014-07-12T16:07:28Z</time>
      </trkpt>
      <trkpt lat="44.61402" lon="4.0364">
        <ele>1186</ele>
        <time>2014-07-12T16:07:55Z</time>
      </trkpt>
      <trkpt lat="44.61426" lon="4.03599">
        <ele>1178</ele>
        <time>2014-07-12T16:08:18Z</time>
      </trkpt>
      <trkpt lat="44.61454" lon="4.03572">
        <ele>1191</ele>
        <time>2014-07-12T16:08:40Z</time>
      </trkpt>
      <trkpt lat="44.61499" lon="4.03539">
        <ele>1189</ele>
        <time>2014-07-12T16:09:08Z</time>
      </trkpt>
      <trkpt lat="44.61536" lon="4.03486">
        <ele>1170</ele>
        <time>2014-07-12T16:09:34Z</time>
      </trkpt>
      <trkpt lat="44.61525" lon="4.0345">
        <ele>1173</ele>
        <time>2014-07-12T16:09:39Z</time>
      </trkpt>
      <trkpt lat="44.61513" lon="4.03403">
        <ele>1178</ele>
        <time>2014-07-12T16:09:47Z</time>
      </trkpt>
      <trkpt lat="44.61507" lon="4.03299">
        <ele>1172</ele>
        <time>2014-07-12T16:10:15Z</time>
      </trkpt>
      <trkpt lat="44.61507" lon="4.03254">
        <ele>1183</ele>
        <time>2014-07-12T16:10:31Z</time>
      </trkpt>
      <trkpt lat="44.61503" lon="4.03224">
        <ele>1180</ele>
        <time>2014-07-12T16:10:45Z</time>
      </trkpt>
      <trkpt lat="44.61502" lon="4.03208">
        <ele>1179</ele>
        <time>2014-07-12T16:10:52Z</time>
      </trkpt>
      <trkpt lat="44.61506" lon="4.03184">
        <ele>1185</ele>
        <time>2014-07-12T16:11:04Z</time>
      </trkpt>
      <trkpt lat="44.61506" lon="4.03182">
        <ele>1186</ele>
        <time>2014-07-12T16:11:05Z</time>
      </trkpt>
      <trkpt lat="44.61517" lon="4.03156">
        <ele>1189</ele>
        <time>2014-07-12T16:11:19Z</time>
      </trkpt>
      <trkpt lat="44.61522" lon="4.03131">
        <ele>1186</ele>
        <time>2014-07-12T16:11:31Z</time>
      </trkpt>
      <trkpt lat="44.61513" lon="4.0306">
        <ele>1198</ele>
        <time>2014-07-12T16:12:00Z</time>
      </trkpt>
      <trkpt lat="44.61519" lon="4.03021">
        <ele>1200</ele>
        <time>2014-07-12T16:12:17Z</time>
      </trkpt>
      <trkpt lat="44.61526" lon="4.02991">
        <ele>1205</ele>
        <time>2014-07-12T16:12:31Z</time>
      </trkpt>
      <trkpt lat="44.61541" lon="4.02944">
        <ele>1203</ele>
        <time>2014-07-12T16:12:53Z</time>
      </trkpt>
      <trkpt lat="44.6154" lon="4.02921">
        <ele>1204</ele>
        <time>2014-07-12T16:13:05Z</time>
      </trkpt>
      <trkpt lat="44.6152" lon="4.02924">
        <ele>1210</ele>
        <time>2014-07-12T16:13:34Z</time>
      </trkpt>
      <trkpt lat="44.61516" lon="4.02926">
        <ele>1212</ele>
        <time>2014-07-12T16:14:29Z</time>
      </trkpt>
      <trkpt lat="44.61488" lon="4.02975">
        <ele>1224</ele>
        <time>2014-07-12T16:14:57Z</time>
      </trkpt>
      <trkpt lat="44.61468" lon="4.03014">
        <ele>1225</ele>
        <time>2014-07-12T16:15:15Z</time>
      </trkpt>
      <trkpt lat="44.61439" lon="4.03077">
        <ele>1231</ele>
        <time>2014-07-12T16:15:45Z</time>
      </trkpt>
      <trkpt lat="44.6141" lon="4.03173">
        <ele>1246</ele>
        <time>2014-07-12T16:16:21Z</time>
      </trkpt>
      <trkpt lat="44.61401" lon="4.03234">
        <ele>1251</ele>
        <time>2014-07-12T16:16:47Z</time>
      </trkpt>
      <trkpt lat="44.61398" lon="4.03264">
        <ele>1253</ele>
        <time>2014-07-12T16:16:59Z</time>
      </trkpt>
      <trkpt lat="44.61403" lon="4.0332">
        <ele>1253</ele>
        <time>2014-07-12T16:17:20Z</time>
      </trkpt>
      <trkpt lat="44.61413" lon="4.03393">
        <ele>1254</ele>
        <time>2014-07-12T16:17:47Z</time>
      </trkpt>
      <trkpt lat="44.61406" lon="4.0342">
        <ele>1247</ele>
        <time>2014-07-12T16:17:58Z</time>
      </trkpt>
      <trkpt lat="44.61372" lon="4.03434">
        <ele>1252</ele>
        <time>2014-07-12T16:18:20Z</time>
      </trkpt>
      <trkpt lat="44.61326" lon="4.03429">
        <ele>1270</ele>
        <time>2014-07-12T16:18:47Z</time>
      </trkpt>
      <trkpt lat="44.61281" lon="4.03438">
        <ele>1272</ele>
        <time>2014-07-12T16:19:14Z</time>
      </trkpt>
      <trkpt lat="44.61243" lon="4.0344">
        <ele>1286</ele>
        <time>2014-07-12T16:19:36Z</time>
      </trkpt>
      <trkpt lat="44.61174" lon="4.03455">
        <ele>1288</ele>
        <time>2014-07-12T16:20:10Z</time>
      </trkpt>
      <trkpt lat="44.61152" lon="4.03528">
        <ele>1289</ele>
        <time>2014-07-12T16:20:31Z</time>
      </trkpt>
      <trkpt lat="44.61149" lon="4.03551">
        <ele>1288</ele>
        <time>2014-07-12T16:20:38Z</time>
      </trkpt>
      <trkpt lat="44.61137" lon="4.03509">
        <ele>1291</ele>
        <time>2014-07-12T16:21:02Z</time>
      </trkpt>
      <trkpt lat="44.61153" lon="4.03435">
        <ele>1303</ele>
        <time>2014-07-12T16:21:29Z</time>
      </trkpt>
      <trkpt lat="44.61182" lon="4.03406">
        <ele>1303</ele>
        <time>2014-07-12T16:21:50Z</time>
      </trkpt>
      <trkpt lat="44.61203" lon="4.0339">
        <ele>1304</ele>
        <time>2014-07-12T16:22:04Z</time>
      </trkpt>
      <trkpt lat="44.61246" lon="4.03368">
        <ele>1304</ele>
        <time>2014-07-12T16:22:30Z</time>
      </trkpt>
      <trkpt lat="44.6128" lon="4.03356">
        <ele>1293</ele>
        <time>2014-07-12T16:22:48Z</time>
      </trkpt>
      <trkpt lat="44.61305" lon="4.03327">
        <ele>1295</ele>
        <time>2014-07-12T16:23:02Z</time>
      </trkpt>
      <trkpt lat="44.61309" lon="4.03244">
        <ele>1291</ele>
        <time>2014-07-12T16:23:13Z</time>
      </trkpt>
      <trkpt lat="44.61311" lon="4.032">
        <ele>1291</ele>
        <time>2014-07-12T16:23:17Z</time>
      </trkpt>
      <trkpt lat="44.61307" lon="4.03116">
        <ele>1285</ele>
        <time>2014-07-12T16:23:25Z</time>
      </trkpt>
      <trkpt lat="44.61246" lon="4.02999">
        <ele>1281</ele>
        <time>2014-07-12T16:23:49Z</time>
      </trkpt>
      <trkpt lat="44.61224" lon="4.02979">
        <ele>1283</ele>
        <time>2014-07-12T16:24:00Z</time>
      </trkpt>
      <trkpt lat="44.61181" lon="4.02922">
        <ele>1284</ele>
        <time>2014-07-12T16:24:25Z</time>
      </trkpt>
      <trkpt lat="44.61151" lon="4.0291">
        <ele>1284</ele>
        <time>2014-07-12T16:24:38Z</time>
      </trkpt>
      <trkpt lat="44.61079" lon="4.02904">
        <ele>1289</ele>
        <time>2014-07-12T16:25:11Z</time>
      </trkpt>
      <trkpt lat="44.61056" lon="4.02914">
        <ele>1284</ele>
        <time>2014-07-12T16:25:40Z</time>
      </trkpt>
      <trkpt lat="44.61057" lon="4.02916">
        <ele>1285</ele>
        <time>2014-07-12T16:28:01Z</time>
      </trkpt>
      <trkpt lat="44.61056" lon="4.02915">
        <ele>1285</ele>
        <time>2014-07-12T16:29:51Z</time>
      </trkpt>
      <trkpt lat="44.61055" lon="4.02914">
        <ele>1284</ele>
        <time>2014-07-12T16:30:13Z</time>
      </trkpt>
      <trkpt lat="44.61094" lon="4.02934">
        <ele>1298</ele>
        <time>2014-07-12T16:30:36Z</time>
      </trkpt>
      <trkpt lat="44.61142" lon="4.0301">
        <ele>1308</ele>
        <time>2014-07-12T16:31:09Z</time>
      </trkpt>
      <trkpt lat="44.6116" lon="4.0305">
        <ele>1312</ele>
        <time>2014-07-12T16:31:24Z</time>
      </trkpt>
      <trkpt lat="44.61195" lon="4.03136">
        <ele>1313</ele>
        <time>2014-07-12T16:31:56Z</time>
      </trkpt>
      <trkpt lat="44.61201" lon="4.03224">
        <ele>1319</ele>
        <time>2014-07-12T16:32:26Z</time>
      </trkpt>
      <trkpt lat="44.61152" lon="4.03271">
        <ele>1327</ele>
        <time>2014-07-12T16:32:53Z</time>
      </trkpt>
      <trkpt lat="44.61044" lon="4.03298">
        <ele>1325</ele>
        <time>2014-07-12T16:33:22Z</time>
      </trkpt>
      <trkpt lat="44.60944" lon="4.03371">
        <ele>1327</ele>
        <time>2014-07-12T16:33:49Z</time>
      </trkpt>
      <trkpt lat="44.60879" lon="4.03426">
        <ele>1331</ele>
        <time>2014-07-12T16:34:16Z</time>
      </trkpt>
      <trkpt lat="44.60867" lon="4.03462">
        <ele>1333</ele>
        <time>2014-07-12T16:34:32Z</time>
      </trkpt>
      <trkpt lat="44.60847" lon="4.03513">
        <ele>1342</ele>
        <time>2014-07-12T16:34:57Z</time>
      </trkpt>
      <trkpt lat="44.60835" lon="4.03543">
        <ele>1346</ele>
        <time>2014-07-12T16:35:12Z</time>
      </trkpt>
      <trkpt lat="44.60812" lon="4.036">
        <ele>1346</ele>
        <time>2014-07-12T16:35:41Z</time>
      </trkpt>
      <trkpt lat="44.60802" lon="4.03627">
        <ele>1345</ele>
        <time>2014-07-12T16:35:53Z</time>
      </trkpt>
      <trkpt lat="44.6078" lon="4.03697">
        <ele>1351</ele>
        <time>2014-07-12T16:36:24Z</time>
      </trkpt>
      <trkpt lat="44.60778" lon="4.03738">
        <ele>1352</ele>
        <time>2014-07-12T16:36:41Z</time>
      </trkpt>
      <trkpt lat="44.60788" lon="4.03816">
        <ele>1357</ele>
        <time>2014-07-12T16:37:13Z</time>
      </trkpt>
      <trkpt lat="44.60788" lon="4.0392">
        <ele>1363</ele>
        <time>2014-07-12T16:37:45Z</time>
      </trkpt>
      <trkpt lat="44.60791" lon="4.04031">
        <ele>1368</ele>
        <time>2014-07-12T16:38:17Z</time>
      </trkpt>
      <trkpt lat="44.60838" lon="4.04252">
        <ele>1374</ele>
        <time>2014-07-12T16:39:13Z</time>
      </trkpt>
      <trkpt lat="44.60906" lon="4.04333">
        <ele>1379</ele>
        <time>2014-07-12T16:39:44Z</time>
      </trkpt>
      <trkpt lat="44.60921" lon="4.04365">
        <ele>1381</ele>
        <time>2014-07-12T16:39:55Z</time>
      </trkpt>
      <trkpt lat="44.60908" lon="4.04399">
        <ele>1382</ele>
        <time>2014-07-12T16:40:07Z</time>
      </trkpt>
      <trkpt lat="44.60898" lon="4.04428">
        <ele>1385</ele>
        <time>2014-07-12T16:40:18Z</time>
      </trkpt>
      <trkpt lat="44.60892" lon="4.04495">
        <ele>1388</ele>
        <time>2014-07-12T16:40:45Z</time>
      </trkpt>
      <trkpt lat="44.60875" lon="4.04521">
        <ele>1394</ele>
        <time>2014-07-12T16:40:59Z</time>
      </trkpt>
      <trkpt lat="44.60838" lon="4.04595">
        <ele>1399</ele>
        <time>2014-07-12T16:41:31Z</time>
      </trkpt>
      <trkpt lat="44.60807" lon="4.04688">
        <ele>1403</ele>
        <time>2014-07-12T16:42:03Z</time>
      </trkpt>
      <trkpt lat="44.60808" lon="4.04779">
        <ele>1407</ele>
        <time>2014-07-12T16:42:30Z</time>
      </trkpt>
      <trkpt lat="44.60808" lon="4.04834">
        <ele>1411</ele>
        <time>2014-07-12T16:42:46Z</time>
      </trkpt>
      <trkpt lat="44.60771" lon="4.0496">
        <ele>1412</ele>
        <time>2014-07-12T16:43:15Z</time>
      </trkpt>
      <trkpt lat="44.60792" lon="4.05184">
        <ele>1412</ele>
        <time>2014-07-12T16:44:00Z</time>
      </trkpt>
      <trkpt lat="44.60813" lon="4.0528">
        <ele>1412</ele>
        <time>2014-07-12T16:44:16Z</time>
      </trkpt>
      <trkpt lat="44.60829" lon="4.05356">
        <ele>1409</ele>
        <time>2014-07-12T16:44:38Z</time>
      </trkpt>
      <trkpt lat="44.60829" lon="4.05355">
        <ele>1409</ele>
        <time>2014-07-12T16:45:32Z</time>
      </trkpt>
      <trkpt lat="44.60836" lon="4.05368">
        <ele>1409</ele>
        <time>2014-07-12T16:46:45Z</time>
      </trkpt>
      <trkpt lat="44.60848" lon="4.05408">
        <ele>1407</ele>
        <time>2014-07-12T16:46:54Z</time>
      </trkpt>
      <trkpt lat="44.60869" lon="4.05479">
        <ele>1399</ele>
        <time>2014-07-12T16:47:03Z</time>
      </trkpt>
      <trkpt lat="44.60898" lon="4.05505">
        <ele>1393</ele>
        <time>2014-07-12T16:47:09Z</time>
      </trkpt>
      <trkpt lat="44.60913" lon="4.05505">
        <ele>1395</ele>
        <time>2014-07-12T16:47:11Z</time>
      </trkpt>
      <trkpt lat="44.60941" lon="4.05505">
        <ele>1393</ele>
        <time>2014-07-12T16:47:15Z</time>
      </trkpt>
      <trkpt lat="44.60966" lon="4.05531">
        <ele>1391</ele>
        <time>2014-07-12T16:47:19Z</time>
      </trkpt>
      <trkpt lat="44.60976" lon="4.05573">
        <ele>1389</ele>
        <time>2014-07-12T16:47:23Z</time>
      </trkpt>
      <trkpt lat="44.60978" lon="4.05583">
        <ele>1389</ele>
        <time>2014-07-12T16:47:24Z</time>
      </trkpt>
      <trkpt lat="44.60982" lon="4.05628">
        <ele>1384</ele>
        <time>2014-07-12T16:47:28Z</time>
      </trkpt>
      <trkpt lat="44.60973" lon="4.05685">
        <ele>1378</ele>
        <time>2014-07-12T16:47:33Z</time>
      </trkpt>
      <trkpt lat="44.6095" lon="4.05727">
        <ele>1376</ele>
        <time>2014-07-12T16:47:38Z</time>
      </trkpt>
      <trkpt lat="44.609" lon="4.05774">
        <ele>1370</ele>
        <time>2014-07-12T16:47:45Z</time>
      </trkpt>
      <trkpt lat="44.60873" lon="4.05825">
        <ele>1369</ele>
        <time>2014-07-12T16:47:56Z</time>
      </trkpt>
      <trkpt lat="44.60874" lon="4.05825">
        <ele>1369</ele>
        <time>2014-07-12T16:48:06Z</time>
      </trkpt>
      <trkpt lat="44.60848" lon="4.05774">
        <ele>1367</ele>
        <time>2014-07-12T16:48:30Z</time>
      </trkpt>
      <trkpt lat="44.60842" lon="4.05768">
        <ele>1367</ele>
        <time>2014-07-12T16:48:54Z</time>
      </trkpt>
      <trkpt lat="44.60832" lon="4.05758">
        <ele>1362</ele>
        <time>2014-07-12T16:48:58Z</time>
      </trkpt>
      <trkpt lat="44.60821" lon="4.05739">
        <ele>1360</ele>
        <time>2014-07-12T16:49:02Z</time>
      </trkpt>
      <trkpt lat="44.60813" lon="4.05722">
        <ele>1358</ele>
        <time>2014-07-12T16:49:17Z</time>
      </trkpt>
      <trkpt lat="44.60781" lon="4.05677">
        <ele>1355</ele>
        <time>2014-07-12T16:49:32Z</time>
      </trkpt>
      <trkpt lat="44.60765" lon="4.0564">
        <ele>1359</ele>
        <time>2014-07-12T16:49:43Z</time>
      </trkpt>
      <trkpt lat="44.60737" lon="4.05592">
        <ele>1350</ele>
        <time>2014-07-12T16:49:57Z</time>
      </trkpt>
      <trkpt lat="44.60705" lon="4.05555">
        <ele>1353</ele>
        <time>2014-07-12T16:50:16Z</time>
      </trkpt>
      <trkpt lat="44.60678" lon="4.05532">
        <ele>1352</ele>
        <time>2014-07-12T16:50:30Z</time>
      </trkpt>
      <trkpt lat="44.60636" lon="4.05524">
        <ele>1339</ele>
        <time>2014-07-12T16:50:46Z</time>
      </trkpt>
      <trkpt lat="44.60605" lon="4.05523">
        <ele>1337</ele>
        <time>2014-07-12T16:50:57Z</time>
      </trkpt>
      <trkpt lat="44.60584" lon="4.05529">
        <ele>1336</ele>
        <time>2014-07-12T16:51:06Z</time>
      </trkpt>
      <trkpt lat="44.60567" lon="4.05525">
        <ele>1327</ele>
        <time>2014-07-12T16:51:27Z</time>
      </trkpt>
      <trkpt lat="44.60525" lon="4.05521">
        <ele>1322</ele>
        <time>2014-07-12T16:52:07Z</time>
      </trkpt>
      <trkpt lat="44.6051" lon="4.05519">
        <ele>1321</ele>
        <time>2014-07-12T16:52:12Z</time>
      </trkpt>
      <trkpt lat="44.60485" lon="4.05493">
        <ele>1314</ele>
        <time>2014-07-12T16:52:21Z</time>
      </trkpt>
      <trkpt lat="44.6047" lon="4.0547">
        <ele>1309</ele>
        <time>2014-07-12T16:52:27Z</time>
      </trkpt>
      <trkpt lat="44.60459" lon="4.05459">
        <ele>1307</ele>
        <time>2014-07-12T16:52:31Z</time>
      </trkpt>
      <trkpt lat="44.60449" lon="4.05442">
        <ele>1305</ele>
        <time>2014-07-12T16:52:36Z</time>
      </trkpt>
      <trkpt lat="44.60443" lon="4.05428">
        <ele>1303</ele>
        <time>2014-07-12T16:52:40Z</time>
      </trkpt>
      <trkpt lat="44.60427" lon="4.05403">
        <ele>1300</ele>
        <time>2014-07-12T16:52:50Z</time>
      </trkpt>
      <trkpt lat="44.6042" lon="4.05383">
        <ele>1301</ele>
        <time>2014-07-12T16:52:55Z</time>
      </trkpt>
      <trkpt lat="44.60414" lon="4.05345">
        <ele>1285</ele>
        <time>2014-07-12T16:53:05Z</time>
      </trkpt>
      <trkpt lat="44.60415" lon="4.05322">
        <ele>1286</ele>
        <time>2014-07-12T16:53:10Z</time>
      </trkpt>
      <trkpt lat="44.60414" lon="4.0529">
        <ele>1284</ele>
        <time>2014-07-12T16:53:17Z</time>
      </trkpt>
      <trkpt lat="44.60389" lon="4.05261">
        <ele>1284</ele>
        <time>2014-07-12T16:53:27Z</time>
      </trkpt>
      <trkpt lat="44.60371" lon="4.05248">
        <ele>1285</ele>
        <time>2014-07-12T16:53:34Z</time>
      </trkpt>
      <trkpt lat="44.60347" lon="4.05235">
        <ele>1279</ele>
        <time>2014-07-12T16:53:42Z</time>
      </trkpt>
      <trkpt lat="44.60333" lon="4.05218">
        <ele>1264</ele>
        <time>2014-07-12T16:53:48Z</time>
      </trkpt>
      <trkpt lat="44.60328" lon="4.05213">
        <ele>1264</ele>
        <time>2014-07-12T16:53:50Z</time>
      </trkpt>
      <trkpt lat="44.60307" lon="4.05205">
        <ele>1263</ele>
        <time>2014-07-12T16:53:57Z</time>
      </trkpt>
      <trkpt lat="44.60283" lon="4.05199">
        <ele>1259</ele>
        <time>2014-07-12T16:54:04Z</time>
      </trkpt>
      <trkpt lat="44.6025" lon="4.05199">
        <ele>1243</ele>
        <time>2014-07-12T16:54:13Z</time>
      </trkpt>
      <trkpt lat="44.60231" lon="4.05201">
        <ele>1241</ele>
        <time>2014-07-12T16:54:18Z</time>
      </trkpt>
      <trkpt lat="44.60205" lon="4.05191">
        <ele>1238</ele>
        <time>2014-07-12T16:54:27Z</time>
      </trkpt>
      <trkpt lat="44.6019" lon="4.05172">
        <ele>1236</ele>
        <time>2014-07-12T16:54:34Z</time>
      </trkpt>
      <trkpt lat="44.60158" lon="4.05137">
        <ele>1227</ele>
        <time>2014-07-12T16:54:50Z</time>
      </trkpt>
      <trkpt lat="44.60133" lon="4.05112">
        <ele>1225</ele>
        <time>2014-07-12T16:54:57Z</time>
      </trkpt>
      <trkpt lat="44.60098" lon="4.05106">
        <ele>1223</ele>
        <time>2014-07-12T16:55:12Z</time>
      </trkpt>
      <trkpt lat="44.6006" lon="4.05077">
        <ele>1216</ele>
        <time>2014-07-12T16:55:28Z</time>
      </trkpt>
      <trkpt lat="44.60025" lon="4.05054">
        <ele>1213</ele>
        <time>2014-07-12T16:55:42Z</time>
      </trkpt>
      <trkpt lat="44.60018" lon="4.05039">
        <ele>1212</ele>
        <time>2014-07-12T16:56:00Z</time>
      </trkpt>
      <trkpt lat="44.6002" lon="4.05026">
        <ele>1212</ele>
        <time>2014-07-12T16:56:37Z</time>
      </trkpt>
      <trkpt lat="44.60016" lon="4.05019">
        <ele>1211</ele>
        <time>2014-07-12T16:56:41Z</time>
      </trkpt>
      <trkpt lat="44.60005" lon="4.05009">
        <ele>1208</ele>
        <time>2014-07-12T16:56:46Z</time>
      </trkpt>
      <trkpt lat="44.59998" lon="4.05015">
        <ele>1203</ele>
        <time>2014-07-12T16:56:50Z</time>
      </trkpt>
      <trkpt lat="44.59994" lon="4.05019">
        <ele>1203</ele>
        <time>2014-07-12T16:57:16Z</time>
      </trkpt>
      <trkpt lat="44.59977" lon="4.05025">
        <ele>1202</ele>
        <time>2014-07-12T17:14:26Z</time>
      </trkpt>
      <trkpt lat="44.59978" lon="4.05024">
        <ele>1202</ele>
        <time>2014-07-12T17:14:39Z</time>
      </trkpt>
      <trkpt lat="44.59978" lon="4.05024">
        <ele>1202</ele>
        <time>2014-07-12T17:14:48Z</time>
      </trkpt>
    </trkseg>
  </trk>
</gpx>